<?xml version="1.0" encoding="UTF-8" standalone="no" ?>
<gpx xmlns="http://www.topografix.com/GPX/1/1" xmlns:xsi="http://www.w3.org/2001/XMLSchema-instance" xsi:schemaLocation="http://www.topografix.com/GPX/1/1 http://www.topografix.com/GPX/1/1/gpx.xsd" version="1.1" creator="VisuGPX - https://www.visugpx.com">
  <metadata>
    <name>2021-07-22 15:05:40</name>
  </metadata>
  <trk>
    <name><![CDATA[2021-07-22 15:05:40]]></name>
    <trkseg>
      <trkpt lat="45.60259" lon="2.75113">
        <ele>1145.6</ele>
        <time>2021-07-22T07:19:54Z</time>
      </trkpt>
      <trkpt lat="45.60259" lon="2.75106">
        <ele>1145.5</ele>
        <time>2021-07-22T07:20:01Z</time>
      </trkpt>
      <trkpt lat="45.60259" lon="2.75104">
        <ele>1145.4</ele>
        <time>2021-07-22T07:20:03Z</time>
      </trkpt>
      <trkpt lat="45.60258" lon="2.75084">
        <ele>1144.7</ele>
        <time>2021-07-22T07:20:16Z</time>
      </trkpt>
      <trkpt lat="45.60259" lon="2.75065">
        <ele>1144.6</ele>
        <time>2021-07-22T07:20:26Z</time>
      </trkpt>
      <trkpt lat="45.6026" lon="2.7506">
        <ele>1144.8</ele>
        <time>2021-07-22T07:20:30Z</time>
      </trkpt>
      <trkpt lat="45.60278" lon="2.75051">
        <ele>1147.7</ele>
        <time>2021-07-22T07:20:47Z</time>
      </trkpt>
      <trkpt lat="45.60288" lon="2.75048">
        <ele>1149.4</ele>
        <time>2021-07-22T07:20:58Z</time>
      </trkpt>
      <trkpt lat="45.60302" lon="2.75044">
        <ele>1151.5</ele>
        <time>2021-07-22T07:21:11Z</time>
      </trkpt>
      <trkpt lat="45.60312" lon="2.75042">
        <ele>1153.1</ele>
        <time>2021-07-22T07:21:22Z</time>
      </trkpt>
      <trkpt lat="45.60324" lon="2.75036">
        <ele>1154.5</ele>
        <time>2021-07-22T07:21:32Z</time>
      </trkpt>
      <trkpt lat="45.60332" lon="2.7503">
        <ele>1155.4</ele>
        <time>2021-07-22T07:21:41Z</time>
      </trkpt>
      <trkpt lat="45.60339" lon="2.75029">
        <ele>1156</ele>
        <time>2021-07-22T07:21:54Z</time>
      </trkpt>
      <trkpt lat="45.60348" lon="2.75029">
        <ele>1156.8</ele>
        <time>2021-07-22T07:22:07Z</time>
      </trkpt>
      <trkpt lat="45.60365" lon="2.75024">
        <ele>1157.8</ele>
        <time>2021-07-22T07:22:24Z</time>
      </trkpt>
      <trkpt lat="45.60375" lon="2.75036">
        <ele>1160</ele>
        <time>2021-07-22T07:22:39Z</time>
      </trkpt>
      <trkpt lat="45.6038" lon="2.75045">
        <ele>1161.7</ele>
        <time>2021-07-22T07:22:53Z</time>
      </trkpt>
      <trkpt lat="45.6039" lon="2.75055">
        <ele>1164</ele>
        <time>2021-07-22T07:23:09Z</time>
      </trkpt>
      <trkpt lat="45.604" lon="2.75058">
        <ele>1165.4</ele>
        <time>2021-07-22T07:23:25Z</time>
      </trkpt>
      <trkpt lat="45.60409" lon="2.7506">
        <ele>1166.7</ele>
        <time>2021-07-22T07:23:39Z</time>
      </trkpt>
      <trkpt lat="45.60416" lon="2.75063">
        <ele>1168</ele>
        <time>2021-07-22T07:23:53Z</time>
      </trkpt>
      <trkpt lat="45.6043" lon="2.75065">
        <ele>1171.2</ele>
        <time>2021-07-22T07:24:10Z</time>
      </trkpt>
      <trkpt lat="45.60442" lon="2.75065">
        <ele>1173.7</ele>
        <time>2021-07-22T07:24:25Z</time>
      </trkpt>
      <trkpt lat="45.60448" lon="2.75065">
        <ele>1175.2</ele>
        <time>2021-07-22T07:24:34Z</time>
      </trkpt>
      <trkpt lat="45.60461" lon="2.75075">
        <ele>1179.1</ele>
        <time>2021-07-22T07:24:50Z</time>
      </trkpt>
      <trkpt lat="45.60469" lon="2.75087">
        <ele>1181.8</ele>
        <time>2021-07-22T07:25:04Z</time>
      </trkpt>
      <trkpt lat="45.6047" lon="2.75098">
        <ele>1182.7</ele>
        <time>2021-07-22T07:25:14Z</time>
      </trkpt>
      <trkpt lat="45.60471" lon="2.75106">
        <ele>1183.5</ele>
        <time>2021-07-22T07:25:32Z</time>
      </trkpt>
      <trkpt lat="45.6047" lon="2.75123">
        <ele>1184</ele>
        <time>2021-07-22T07:25:47Z</time>
      </trkpt>
      <trkpt lat="45.60465" lon="2.75143">
        <ele>1184.1</ele>
        <time>2021-07-22T07:26:02Z</time>
      </trkpt>
      <trkpt lat="45.60463" lon="2.75158">
        <ele>1184.1</ele>
        <time>2021-07-22T07:26:18Z</time>
      </trkpt>
      <trkpt lat="45.6046" lon="2.7517">
        <ele>1184.4</ele>
        <time>2021-07-22T07:26:30Z</time>
      </trkpt>
      <trkpt lat="45.60455" lon="2.75187">
        <ele>1185.2</ele>
        <time>2021-07-22T07:26:46Z</time>
      </trkpt>
      <trkpt lat="45.6045" lon="2.75204">
        <ele>1185.9</ele>
        <time>2021-07-22T07:27:00Z</time>
      </trkpt>
      <trkpt lat="45.60443" lon="2.75216">
        <ele>1185.9</ele>
        <time>2021-07-22T07:27:16Z</time>
      </trkpt>
      <trkpt lat="45.60436" lon="2.75235">
        <ele>1186.5</ele>
        <time>2021-07-22T07:27:33Z</time>
      </trkpt>
      <trkpt lat="45.6043" lon="2.75253">
        <ele>1187.5</ele>
        <time>2021-07-22T07:27:49Z</time>
      </trkpt>
      <trkpt lat="45.60424" lon="2.75274">
        <ele>1189.8</ele>
        <time>2021-07-22T07:28:05Z</time>
      </trkpt>
      <trkpt lat="45.6042" lon="2.75296">
        <ele>1192.7</ele>
        <time>2021-07-22T07:28:20Z</time>
      </trkpt>
      <trkpt lat="45.60421" lon="2.75331">
        <ele>1198.7</ele>
        <time>2021-07-22T07:28:37Z</time>
      </trkpt>
      <trkpt lat="45.60421" lon="2.75354">
        <ele>1200.8</ele>
        <time>2021-07-22T07:28:54Z</time>
      </trkpt>
      <trkpt lat="45.60421" lon="2.75356">
        <ele>1200.9</ele>
        <time>2021-07-22T07:28:56Z</time>
      </trkpt>
      <trkpt lat="45.60419" lon="2.75374">
        <ele>1201.7</ele>
        <time>2021-07-22T07:29:11Z</time>
      </trkpt>
      <trkpt lat="45.60417" lon="2.75388">
        <ele>1201.9</ele>
        <time>2021-07-22T07:29:22Z</time>
      </trkpt>
      <trkpt lat="45.60417" lon="2.75408">
        <ele>1203.4</ele>
        <time>2021-07-22T07:29:36Z</time>
      </trkpt>
      <trkpt lat="45.60419" lon="2.7544">
        <ele>1206.3</ele>
        <time>2021-07-22T07:29:53Z</time>
      </trkpt>
      <trkpt lat="45.60423" lon="2.75473">
        <ele>1209.5</ele>
        <time>2021-07-22T07:30:10Z</time>
      </trkpt>
      <trkpt lat="45.60426" lon="2.75505">
        <ele>1211.7</ele>
        <time>2021-07-22T07:30:27Z</time>
      </trkpt>
      <trkpt lat="45.60428" lon="2.75526">
        <ele>1211</ele>
        <time>2021-07-22T07:30:41Z</time>
      </trkpt>
      <trkpt lat="45.60433" lon="2.75546">
        <ele>1211.1</ele>
        <time>2021-07-22T07:30:55Z</time>
      </trkpt>
      <trkpt lat="45.60442" lon="2.75565">
        <ele>1212.7</ele>
        <time>2021-07-22T07:31:11Z</time>
      </trkpt>
      <trkpt lat="45.60451" lon="2.75579">
        <ele>1214.8</ele>
        <time>2021-07-22T07:31:26Z</time>
      </trkpt>
      <trkpt lat="45.60459" lon="2.7559">
        <ele>1216.9</ele>
        <time>2021-07-22T07:31:39Z</time>
      </trkpt>
      <trkpt lat="45.60468" lon="2.75602">
        <ele>1219.1</ele>
        <time>2021-07-22T07:31:54Z</time>
      </trkpt>
      <trkpt lat="45.60474" lon="2.75611">
        <ele>1220.5</ele>
        <time>2021-07-22T07:32:05Z</time>
      </trkpt>
      <trkpt lat="45.60482" lon="2.75622">
        <ele>1222.2</ele>
        <time>2021-07-22T07:32:16Z</time>
      </trkpt>
      <trkpt lat="45.60486" lon="2.75634">
        <ele>1223</ele>
        <time>2021-07-22T07:32:30Z</time>
      </trkpt>
      <trkpt lat="45.60491" lon="2.75648">
        <ele>1223.4</ele>
        <time>2021-07-22T07:32:46Z</time>
      </trkpt>
      <trkpt lat="45.60493" lon="2.75667">
        <ele>1222.9</ele>
        <time>2021-07-22T07:33:01Z</time>
      </trkpt>
      <trkpt lat="45.60496" lon="2.75695">
        <ele>1224.5</ele>
        <time>2021-07-22T07:33:19Z</time>
      </trkpt>
      <trkpt lat="45.60496" lon="2.75718">
        <ele>1225.1</ele>
        <time>2021-07-22T07:33:34Z</time>
      </trkpt>
      <trkpt lat="45.60494" lon="2.75734">
        <ele>1225</ele>
        <time>2021-07-22T07:33:47Z</time>
      </trkpt>
      <trkpt lat="45.60493" lon="2.75754">
        <ele>1225.4</ele>
        <time>2021-07-22T07:34:04Z</time>
      </trkpt>
      <trkpt lat="45.60492" lon="2.75789">
        <ele>1227.9</ele>
        <time>2021-07-22T07:34:24Z</time>
      </trkpt>
      <trkpt lat="45.60489" lon="2.75816">
        <ele>1229.3</ele>
        <time>2021-07-22T07:34:41Z</time>
      </trkpt>
      <trkpt lat="45.60488" lon="2.75825">
        <ele>1229.5</ele>
        <time>2021-07-22T07:34:52Z</time>
      </trkpt>
      <trkpt lat="45.6049" lon="2.75832">
        <ele>1230.8</ele>
        <time>2021-07-22T07:34:58Z</time>
      </trkpt>
      <trkpt lat="45.60497" lon="2.75846">
        <ele>1233</ele>
        <time>2021-07-22T07:35:11Z</time>
      </trkpt>
      <trkpt lat="45.60497" lon="2.75853">
        <ele>1232.7</ele>
        <time>2021-07-22T07:35:18Z</time>
      </trkpt>
      <trkpt lat="45.60498" lon="2.75859">
        <ele>1232.9</ele>
        <time>2021-07-22T07:35:22Z</time>
      </trkpt>
      <trkpt lat="45.60499" lon="2.75882">
        <ele>1233.2</ele>
        <time>2021-07-22T07:35:35Z</time>
      </trkpt>
      <trkpt lat="45.60501" lon="2.7589">
        <ele>1233.8</ele>
        <time>2021-07-22T07:35:39Z</time>
      </trkpt>
      <trkpt lat="45.60505" lon="2.75913">
        <ele>1234.8</ele>
        <time>2021-07-22T07:35:53Z</time>
      </trkpt>
      <trkpt lat="45.60509" lon="2.75935">
        <ele>1234.5</ele>
        <time>2021-07-22T07:36:08Z</time>
      </trkpt>
      <trkpt lat="45.60509" lon="2.75936">
        <ele>1234.6</ele>
        <time>2021-07-22T07:36:09Z</time>
      </trkpt>
      <trkpt lat="45.60514" lon="2.75956">
        <ele>1234.5</ele>
        <time>2021-07-22T07:36:21Z</time>
      </trkpt>
      <trkpt lat="45.6052" lon="2.75975">
        <ele>1235.2</ele>
        <time>2021-07-22T07:36:33Z</time>
      </trkpt>
      <trkpt lat="45.60527" lon="2.75998">
        <ele>1236.1</ele>
        <time>2021-07-22T07:36:47Z</time>
      </trkpt>
      <trkpt lat="45.6053" lon="2.76019">
        <ele>1236.3</ele>
        <time>2021-07-22T07:37:03Z</time>
      </trkpt>
      <trkpt lat="45.60534" lon="2.76047">
        <ele>1236.5</ele>
        <time>2021-07-22T07:37:19Z</time>
      </trkpt>
      <trkpt lat="45.60533" lon="2.76063">
        <ele>1235.5</ele>
        <time>2021-07-22T07:37:31Z</time>
      </trkpt>
      <trkpt lat="45.60531" lon="2.76082">
        <ele>1233.2</ele>
        <time>2021-07-22T07:37:45Z</time>
      </trkpt>
      <trkpt lat="45.60527" lon="2.76097">
        <ele>1231.6</ele>
        <time>2021-07-22T07:38:00Z</time>
      </trkpt>
      <trkpt lat="45.60526" lon="2.7612">
        <ele>1230.9</ele>
        <time>2021-07-22T07:38:16Z</time>
      </trkpt>
      <trkpt lat="45.60525" lon="2.7614">
        <ele>1230</ele>
        <time>2021-07-22T07:38:32Z</time>
      </trkpt>
      <trkpt lat="45.60528" lon="2.76171">
        <ele>1231</ele>
        <time>2021-07-22T07:38:48Z</time>
      </trkpt>
      <trkpt lat="45.6053" lon="2.7619">
        <ele>1232.8</ele>
        <time>2021-07-22T07:39:02Z</time>
      </trkpt>
      <trkpt lat="45.60533" lon="2.76204">
        <ele>1234.2</ele>
        <time>2021-07-22T07:39:13Z</time>
      </trkpt>
      <trkpt lat="45.60534" lon="2.76226">
        <ele>1235</ele>
        <time>2021-07-22T07:39:29Z</time>
      </trkpt>
      <trkpt lat="45.60532" lon="2.76258">
        <ele>1235.5</ele>
        <time>2021-07-22T07:39:45Z</time>
      </trkpt>
      <trkpt lat="45.60538" lon="2.7629">
        <ele>1241.1</ele>
        <time>2021-07-22T07:40:00Z</time>
      </trkpt>
      <trkpt lat="45.60543" lon="2.76308">
        <ele>1244</ele>
        <time>2021-07-22T07:40:14Z</time>
      </trkpt>
      <trkpt lat="45.60545" lon="2.76326">
        <ele>1246.4</ele>
        <time>2021-07-22T07:40:29Z</time>
      </trkpt>
      <trkpt lat="45.60548" lon="2.76343">
        <ele>1248.4</ele>
        <time>2021-07-22T07:40:43Z</time>
      </trkpt>
      <trkpt lat="45.60552" lon="2.76356">
        <ele>1250.2</ele>
        <time>2021-07-22T07:40:56Z</time>
      </trkpt>
      <trkpt lat="45.60554" lon="2.76373">
        <ele>1252</ele>
        <time>2021-07-22T07:41:12Z</time>
      </trkpt>
      <trkpt lat="45.60559" lon="2.76389">
        <ele>1254</ele>
        <time>2021-07-22T07:41:28Z</time>
      </trkpt>
      <trkpt lat="45.60558" lon="2.76407">
        <ele>1254.8</ele>
        <time>2021-07-22T07:41:43Z</time>
      </trkpt>
      <trkpt lat="45.60555" lon="2.76427">
        <ele>1255.4</ele>
        <time>2021-07-22T07:41:59Z</time>
      </trkpt>
      <trkpt lat="45.60553" lon="2.76446">
        <ele>1255.8</ele>
        <time>2021-07-22T07:42:14Z</time>
      </trkpt>
      <trkpt lat="45.60552" lon="2.76462">
        <ele>1256.5</ele>
        <time>2021-07-22T07:42:28Z</time>
      </trkpt>
      <trkpt lat="45.60557" lon="2.76473">
        <ele>1257.7</ele>
        <time>2021-07-22T07:42:43Z</time>
      </trkpt>
      <trkpt lat="45.60554" lon="2.76482">
        <ele>1257.6</ele>
        <time>2021-07-22T07:42:52Z</time>
      </trkpt>
      <trkpt lat="45.60553" lon="2.76485">
        <ele>1257.6</ele>
        <time>2021-07-22T07:43:06Z</time>
      </trkpt>
      <trkpt lat="45.60551" lon="2.76486">
        <ele>1257.3</ele>
        <time>2021-07-22T07:43:19Z</time>
      </trkpt>
      <trkpt lat="45.60551" lon="2.76488">
        <ele>1257.4</ele>
        <time>2021-07-22T07:43:22Z</time>
      </trkpt>
      <trkpt lat="45.6055" lon="2.76508">
        <ele>1257.4</ele>
        <time>2021-07-22T07:43:36Z</time>
      </trkpt>
      <trkpt lat="45.6055" lon="2.76521">
        <ele>1256.6</ele>
        <time>2021-07-22T07:43:48Z</time>
      </trkpt>
      <trkpt lat="45.60553" lon="2.76532">
        <ele>1256.4</ele>
        <time>2021-07-22T07:44:02Z</time>
      </trkpt>
      <trkpt lat="45.60557" lon="2.76537">
        <ele>1256.8</ele>
        <time>2021-07-22T07:44:15Z</time>
      </trkpt>
      <trkpt lat="45.60568" lon="2.76548">
        <ele>1258.1</ele>
        <time>2021-07-22T07:44:30Z</time>
      </trkpt>
      <trkpt lat="45.60577" lon="2.76555">
        <ele>1259.3</ele>
        <time>2021-07-22T07:44:41Z</time>
      </trkpt>
      <trkpt lat="45.60586" lon="2.76559">
        <ele>1260.3</ele>
        <time>2021-07-22T07:44:55Z</time>
      </trkpt>
      <trkpt lat="45.60595" lon="2.76566">
        <ele>1260.3</ele>
        <time>2021-07-22T07:45:08Z</time>
      </trkpt>
      <trkpt lat="45.60608" lon="2.76574">
        <ele>1260.1</ele>
        <time>2021-07-22T07:45:22Z</time>
      </trkpt>
      <trkpt lat="45.6061" lon="2.76576">
        <ele>1260.1</ele>
        <time>2021-07-22T07:45:24Z</time>
      </trkpt>
      <trkpt lat="45.60614" lon="2.76576">
        <ele>1260.1</ele>
        <time>2021-07-22T07:45:28Z</time>
      </trkpt>
      <trkpt lat="45.60626" lon="2.76577">
        <ele>1260.3</ele>
        <time>2021-07-22T07:45:39Z</time>
      </trkpt>
      <trkpt lat="45.60637" lon="2.76577">
        <ele>1260.5</ele>
        <time>2021-07-22T07:45:50Z</time>
      </trkpt>
      <trkpt lat="45.60645" lon="2.7658">
        <ele>1260.3</ele>
        <time>2021-07-22T07:46:02Z</time>
      </trkpt>
      <trkpt lat="45.60654" lon="2.76574">
        <ele>1261.5</ele>
        <time>2021-07-22T07:46:10Z</time>
      </trkpt>
      <trkpt lat="45.6067" lon="2.76575">
        <ele>1261.7</ele>
        <time>2021-07-22T07:46:26Z</time>
      </trkpt>
      <trkpt lat="45.60687" lon="2.76588">
        <ele>1259</ele>
        <time>2021-07-22T07:46:41Z</time>
      </trkpt>
      <trkpt lat="45.607" lon="2.76594">
        <ele>1258</ele>
        <time>2021-07-22T07:46:53Z</time>
      </trkpt>
      <trkpt lat="45.60719" lon="2.76599">
        <ele>1257.3</ele>
        <time>2021-07-22T07:47:11Z</time>
      </trkpt>
      <trkpt lat="45.60726" lon="2.76601">
        <ele>1256.9</ele>
        <time>2021-07-22T07:47:17Z</time>
      </trkpt>
      <trkpt lat="45.60741" lon="2.76609">
        <ele>1255.5</ele>
        <time>2021-07-22T07:47:28Z</time>
      </trkpt>
      <trkpt lat="45.60756" lon="2.76615">
        <ele>1255.3</ele>
        <time>2021-07-22T07:47:41Z</time>
      </trkpt>
      <trkpt lat="45.6077" lon="2.76624">
        <ele>1255.8</ele>
        <time>2021-07-22T07:47:54Z</time>
      </trkpt>
      <trkpt lat="45.60785" lon="2.76631">
        <ele>1256.8</ele>
        <time>2021-07-22T07:48:05Z</time>
      </trkpt>
      <trkpt lat="45.60797" lon="2.76644">
        <ele>1256.8</ele>
        <time>2021-07-22T07:48:17Z</time>
      </trkpt>
      <trkpt lat="45.60804" lon="2.76659">
        <ele>1255.9</ele>
        <time>2021-07-22T07:48:30Z</time>
      </trkpt>
      <trkpt lat="45.60808" lon="2.76681">
        <ele>1255.9</ele>
        <time>2021-07-22T07:48:44Z</time>
      </trkpt>
      <trkpt lat="45.60808" lon="2.76683">
        <ele>1255.8</ele>
        <time>2021-07-22T07:48:45Z</time>
      </trkpt>
      <trkpt lat="45.60811" lon="2.76707">
        <ele>1256.6</ele>
        <time>2021-07-22T07:49:00Z</time>
      </trkpt>
      <trkpt lat="45.60812" lon="2.76727">
        <ele>1257.2</ele>
        <time>2021-07-22T07:49:11Z</time>
      </trkpt>
      <trkpt lat="45.60812" lon="2.76732">
        <ele>1257.3</ele>
        <time>2021-07-22T07:49:14Z</time>
      </trkpt>
      <trkpt lat="45.60815" lon="2.76749">
        <ele>1258.2</ele>
        <time>2021-07-22T07:49:24Z</time>
      </trkpt>
      <trkpt lat="45.60815" lon="2.76766">
        <ele>1258.8</ele>
        <time>2021-07-22T07:49:36Z</time>
      </trkpt>
      <trkpt lat="45.60814" lon="2.76785">
        <ele>1258.8</ele>
        <time>2021-07-22T07:49:48Z</time>
      </trkpt>
      <trkpt lat="45.60814" lon="2.76801">
        <ele>1259.4</ele>
        <time>2021-07-22T07:50:00Z</time>
      </trkpt>
      <trkpt lat="45.60816" lon="2.76818">
        <ele>1260.4</ele>
        <time>2021-07-22T07:50:12Z</time>
      </trkpt>
      <trkpt lat="45.60816" lon="2.76834">
        <ele>1261.1</ele>
        <time>2021-07-22T07:50:27Z</time>
      </trkpt>
      <trkpt lat="45.60813" lon="2.76852">
        <ele>1261.1</ele>
        <time>2021-07-22T07:50:41Z</time>
      </trkpt>
      <trkpt lat="45.60807" lon="2.76873">
        <ele>1260.6</ele>
        <time>2021-07-22T07:50:59Z</time>
      </trkpt>
      <trkpt lat="45.608" lon="2.76895">
        <ele>1259.7</ele>
        <time>2021-07-22T07:51:18Z</time>
      </trkpt>
      <trkpt lat="45.60788" lon="2.76927">
        <ele>1257.4</ele>
        <time>2021-07-22T07:51:36Z</time>
      </trkpt>
      <trkpt lat="45.60778" lon="2.7696">
        <ele>1255.9</ele>
        <time>2021-07-22T07:51:53Z</time>
      </trkpt>
      <trkpt lat="45.60774" lon="2.76982">
        <ele>1256.1</ele>
        <time>2021-07-22T07:52:06Z</time>
      </trkpt>
      <trkpt lat="45.60772" lon="2.77003">
        <ele>1256.4</ele>
        <time>2021-07-22T07:52:22Z</time>
      </trkpt>
      <trkpt lat="45.60769" lon="2.77033">
        <ele>1255.6</ele>
        <time>2021-07-22T07:52:38Z</time>
      </trkpt>
      <trkpt lat="45.60769" lon="2.77061">
        <ele>1255.7</ele>
        <time>2021-07-22T07:52:52Z</time>
      </trkpt>
      <trkpt lat="45.6077" lon="2.77083">
        <ele>1256.6</ele>
        <time>2021-07-22T07:53:06Z</time>
      </trkpt>
      <trkpt lat="45.60767" lon="2.77105">
        <ele>1257</ele>
        <time>2021-07-22T07:53:22Z</time>
      </trkpt>
      <trkpt lat="45.60768" lon="2.77124">
        <ele>1259.2</ele>
        <time>2021-07-22T07:53:33Z</time>
      </trkpt>
      <trkpt lat="45.60775" lon="2.77158">
        <ele>1265.6</ele>
        <time>2021-07-22T07:53:48Z</time>
      </trkpt>
      <trkpt lat="45.60777" lon="2.77172">
        <ele>1267.7</ele>
        <time>2021-07-22T07:54:00Z</time>
      </trkpt>
      <trkpt lat="45.60779" lon="2.77187">
        <ele>1269.8</ele>
        <time>2021-07-22T07:54:12Z</time>
      </trkpt>
      <trkpt lat="45.60779" lon="2.77206">
        <ele>1270.3</ele>
        <time>2021-07-22T07:54:29Z</time>
      </trkpt>
      <trkpt lat="45.60775" lon="2.77223">
        <ele>1269.1</ele>
        <time>2021-07-22T07:54:47Z</time>
      </trkpt>
      <trkpt lat="45.60771" lon="2.77242">
        <ele>1268.4</ele>
        <time>2021-07-22T07:55:03Z</time>
      </trkpt>
      <trkpt lat="45.6077" lon="2.77279">
        <ele>1270.2</ele>
        <time>2021-07-22T07:55:18Z</time>
      </trkpt>
      <trkpt lat="45.60768" lon="2.77307">
        <ele>1270.8</ele>
        <time>2021-07-22T07:55:33Z</time>
      </trkpt>
      <trkpt lat="45.60765" lon="2.77323">
        <ele>1270.4</ele>
        <time>2021-07-22T07:55:46Z</time>
      </trkpt>
      <trkpt lat="45.60759" lon="2.77343">
        <ele>1268.8</ele>
        <time>2021-07-22T07:56:02Z</time>
      </trkpt>
      <trkpt lat="45.60753" lon="2.77368">
        <ele>1267.1</ele>
        <time>2021-07-22T07:56:18Z</time>
      </trkpt>
      <trkpt lat="45.60753" lon="2.77374">
        <ele>1267.1</ele>
        <time>2021-07-22T07:56:22Z</time>
      </trkpt>
      <trkpt lat="45.60752" lon="2.77406">
        <ele>1268.4</ele>
        <time>2021-07-22T07:56:41Z</time>
      </trkpt>
      <trkpt lat="45.60754" lon="2.77419">
        <ele>1269.7</ele>
        <time>2021-07-22T07:56:46Z</time>
      </trkpt>
      <trkpt lat="45.60755" lon="2.77436">
        <ele>1271.7</ele>
        <time>2021-07-22T07:56:52Z</time>
      </trkpt>
      <trkpt lat="45.60747" lon="2.77461">
        <ele>1272.6</ele>
        <time>2021-07-22T07:57:06Z</time>
      </trkpt>
      <trkpt lat="45.60746" lon="2.77462">
        <ele>1272.8</ele>
        <time>2021-07-22T07:57:07Z</time>
      </trkpt>
      <trkpt lat="45.6074" lon="2.7747">
        <ele>1274.4</ele>
        <time>2021-07-22T07:57:15Z</time>
      </trkpt>
      <trkpt lat="45.60733" lon="2.77482">
        <ele>1276.8</ele>
        <time>2021-07-22T07:57:25Z</time>
      </trkpt>
      <trkpt lat="45.60732" lon="2.77489">
        <ele>1277.9</ele>
        <time>2021-07-22T07:57:28Z</time>
      </trkpt>
      <trkpt lat="45.60722" lon="2.77487">
        <ele>1279.4</ele>
        <time>2021-07-22T07:57:40Z</time>
      </trkpt>
      <trkpt lat="45.60714" lon="2.77486">
        <ele>1280.5</ele>
        <time>2021-07-22T07:57:51Z</time>
      </trkpt>
      <trkpt lat="45.60701" lon="2.77478">
        <ele>1281</ele>
        <time>2021-07-22T07:58:07Z</time>
      </trkpt>
      <trkpt lat="45.60684" lon="2.77467">
        <ele>1280.9</ele>
        <time>2021-07-22T07:58:22Z</time>
      </trkpt>
      <trkpt lat="45.60678" lon="2.77461">
        <ele>1280</ele>
        <time>2021-07-22T07:58:31Z</time>
      </trkpt>
      <trkpt lat="45.60666" lon="2.77454">
        <ele>1279.6</ele>
        <time>2021-07-22T07:58:47Z</time>
      </trkpt>
      <trkpt lat="45.60652" lon="2.77447">
        <ele>1281.5</ele>
        <time>2021-07-22T07:59:02Z</time>
      </trkpt>
      <trkpt lat="45.60644" lon="2.77438">
        <ele>1281.4</ele>
        <time>2021-07-22T07:59:16Z</time>
      </trkpt>
      <trkpt lat="45.60633" lon="2.77428">
        <ele>1281.2</ele>
        <time>2021-07-22T07:59:30Z</time>
      </trkpt>
      <trkpt lat="45.60619" lon="2.77415">
        <ele>1280.8</ele>
        <time>2021-07-22T07:59:46Z</time>
      </trkpt>
      <trkpt lat="45.60608" lon="2.77408">
        <ele>1281.7</ele>
        <time>2021-07-22T08:00:01Z</time>
      </trkpt>
      <trkpt lat="45.60598" lon="2.77402">
        <ele>1282.7</ele>
        <time>2021-07-22T08:00:15Z</time>
      </trkpt>
      <trkpt lat="45.60582" lon="2.77391">
        <ele>1283.5</ele>
        <time>2021-07-22T08:00:30Z</time>
      </trkpt>
      <trkpt lat="45.60566" lon="2.77381">
        <ele>1285.5</ele>
        <time>2021-07-22T08:00:47Z</time>
      </trkpt>
      <trkpt lat="45.60556" lon="2.77376">
        <ele>1287.4</ele>
        <time>2021-07-22T08:00:56Z</time>
      </trkpt>
      <trkpt lat="45.6054" lon="2.7736">
        <ele>1287.5</ele>
        <time>2021-07-22T08:01:13Z</time>
      </trkpt>
      <trkpt lat="45.60529" lon="2.77346">
        <ele>1286.5</ele>
        <time>2021-07-22T08:01:30Z</time>
      </trkpt>
      <trkpt lat="45.60517" lon="2.77335">
        <ele>1286.7</ele>
        <time>2021-07-22T08:01:47Z</time>
      </trkpt>
      <trkpt lat="45.60505" lon="2.77337">
        <ele>1290.6</ele>
        <time>2021-07-22T08:02:01Z</time>
      </trkpt>
      <trkpt lat="45.60486" lon="2.77329">
        <ele>1291.2</ele>
        <time>2021-07-22T08:02:20Z</time>
      </trkpt>
      <trkpt lat="45.60466" lon="2.77316">
        <ele>1289.7</ele>
        <time>2021-07-22T08:02:36Z</time>
      </trkpt>
      <trkpt lat="45.60447" lon="2.77306">
        <ele>1289.9</ele>
        <time>2021-07-22T08:02:53Z</time>
      </trkpt>
      <trkpt lat="45.60438" lon="2.77299">
        <ele>1289.7</ele>
        <time>2021-07-22T08:03:08Z</time>
      </trkpt>
      <trkpt lat="45.60427" lon="2.77295">
        <ele>1290.4</ele>
        <time>2021-07-22T08:03:26Z</time>
      </trkpt>
      <trkpt lat="45.60419" lon="2.77295">
        <ele>1291.6</ele>
        <time>2021-07-22T08:03:39Z</time>
      </trkpt>
      <trkpt lat="45.6041" lon="2.77302">
        <ele>1292.4</ele>
        <time>2021-07-22T08:03:51Z</time>
      </trkpt>
      <trkpt lat="45.60394" lon="2.77313">
        <ele>1291.7</ele>
        <time>2021-07-22T08:04:04Z</time>
      </trkpt>
      <trkpt lat="45.60384" lon="2.77327">
        <ele>1292.4</ele>
        <time>2021-07-22T08:04:18Z</time>
      </trkpt>
      <trkpt lat="45.60382" lon="2.77328">
        <ele>1292.4</ele>
        <time>2021-07-22T08:04:20Z</time>
      </trkpt>
      <trkpt lat="45.60373" lon="2.77345">
        <ele>1293.5</ele>
        <time>2021-07-22T08:04:37Z</time>
      </trkpt>
      <trkpt lat="45.6037" lon="2.7735">
        <ele>1294</ele>
        <time>2021-07-22T08:04:50Z</time>
      </trkpt>
      <trkpt lat="45.60367" lon="2.77355">
        <ele>1294.3</ele>
        <time>2021-07-22T08:05:03Z</time>
      </trkpt>
      <trkpt lat="45.60361" lon="2.77368">
        <ele>1295.4</ele>
        <time>2021-07-22T08:05:17Z</time>
      </trkpt>
      <trkpt lat="45.60357" lon="2.77378">
        <ele>1296.3</ele>
        <time>2021-07-22T08:05:33Z</time>
      </trkpt>
      <trkpt lat="45.60353" lon="2.77387">
        <ele>1297.1</ele>
        <time>2021-07-22T08:05:46Z</time>
      </trkpt>
      <trkpt lat="45.60346" lon="2.774">
        <ele>1298.2</ele>
        <time>2021-07-22T08:06:01Z</time>
      </trkpt>
      <trkpt lat="45.60339" lon="2.77414">
        <ele>1299.6</ele>
        <time>2021-07-22T08:06:15Z</time>
      </trkpt>
      <trkpt lat="45.60337" lon="2.77423">
        <ele>1300.5</ele>
        <time>2021-07-22T08:06:28Z</time>
      </trkpt>
      <trkpt lat="45.60335" lon="2.77428">
        <ele>1301</ele>
        <time>2021-07-22T08:06:42Z</time>
      </trkpt>
      <trkpt lat="45.60333" lon="2.77435">
        <ele>1301.7</ele>
        <time>2021-07-22T08:06:48Z</time>
      </trkpt>
      <trkpt lat="45.60329" lon="2.77451">
        <ele>1302.7</ele>
        <time>2021-07-22T08:07:02Z</time>
      </trkpt>
      <trkpt lat="45.60324" lon="2.77472">
        <ele>1304.1</ele>
        <time>2021-07-22T08:07:19Z</time>
      </trkpt>
      <trkpt lat="45.60322" lon="2.77489">
        <ele>1305.6</ele>
        <time>2021-07-22T08:07:33Z</time>
      </trkpt>
      <trkpt lat="45.6032" lon="2.77509">
        <ele>1307.3</ele>
        <time>2021-07-22T08:07:48Z</time>
      </trkpt>
      <trkpt lat="45.60318" lon="2.77531">
        <ele>1308.6</ele>
        <time>2021-07-22T08:08:05Z</time>
      </trkpt>
      <trkpt lat="45.60317" lon="2.77546">
        <ele>1309.3</ele>
        <time>2021-07-22T08:08:17Z</time>
      </trkpt>
      <trkpt lat="45.60315" lon="2.77563">
        <ele>1310</ele>
        <time>2021-07-22T08:08:31Z</time>
      </trkpt>
      <trkpt lat="45.60314" lon="2.77582">
        <ele>1311.4</ele>
        <time>2021-07-22T08:08:45Z</time>
      </trkpt>
      <trkpt lat="45.60315" lon="2.77603">
        <ele>1313.2</ele>
        <time>2021-07-22T08:09:01Z</time>
      </trkpt>
      <trkpt lat="45.60316" lon="2.77625">
        <ele>1314.6</ele>
        <time>2021-07-22T08:09:17Z</time>
      </trkpt>
      <trkpt lat="45.60315" lon="2.77649">
        <ele>1315.9</ele>
        <time>2021-07-22T08:09:34Z</time>
      </trkpt>
      <trkpt lat="45.60317" lon="2.77669">
        <ele>1317.6</ele>
        <time>2021-07-22T08:09:48Z</time>
      </trkpt>
      <trkpt lat="45.60321" lon="2.77691">
        <ele>1319.2</ele>
        <time>2021-07-22T08:10:03Z</time>
      </trkpt>
      <trkpt lat="45.60324" lon="2.77701">
        <ele>1319.9</ele>
        <time>2021-07-22T08:10:16Z</time>
      </trkpt>
      <trkpt lat="45.60331" lon="2.77729">
        <ele>1322.2</ele>
        <time>2021-07-22T08:10:35Z</time>
      </trkpt>
      <trkpt lat="45.60335" lon="2.77741">
        <ele>1323.7</ele>
        <time>2021-07-22T08:10:45Z</time>
      </trkpt>
      <trkpt lat="45.60343" lon="2.77756">
        <ele>1326.6</ele>
        <time>2021-07-22T08:10:59Z</time>
      </trkpt>
      <trkpt lat="45.60353" lon="2.7777">
        <ele>1329.6</ele>
        <time>2021-07-22T08:11:14Z</time>
      </trkpt>
      <trkpt lat="45.60364" lon="2.77789">
        <ele>1332.2</ele>
        <time>2021-07-22T08:11:31Z</time>
      </trkpt>
      <trkpt lat="45.60366" lon="2.77795">
        <ele>1332.5</ele>
        <time>2021-07-22T08:11:36Z</time>
      </trkpt>
      <trkpt lat="45.60375" lon="2.77811">
        <ele>1334.1</ele>
        <time>2021-07-22T08:11:51Z</time>
      </trkpt>
      <trkpt lat="45.60383" lon="2.77828">
        <ele>1335.4</ele>
        <time>2021-07-22T08:12:06Z</time>
      </trkpt>
      <trkpt lat="45.60385" lon="2.77831">
        <ele>1335.7</ele>
        <time>2021-07-22T08:12:18Z</time>
      </trkpt>
      <trkpt lat="45.60387" lon="2.77833">
        <ele>1336</ele>
        <time>2021-07-22T08:12:30Z</time>
      </trkpt>
      <trkpt lat="45.60392" lon="2.77843">
        <ele>1337.2</ele>
        <time>2021-07-22T08:12:40Z</time>
      </trkpt>
      <trkpt lat="45.60399" lon="2.77853">
        <ele>1338.6</ele>
        <time>2021-07-22T08:12:51Z</time>
      </trkpt>
      <trkpt lat="45.60407" lon="2.77864">
        <ele>1340.4</ele>
        <time>2021-07-22T08:13:03Z</time>
      </trkpt>
      <trkpt lat="45.60418" lon="2.77878">
        <ele>1342.7</ele>
        <time>2021-07-22T08:13:18Z</time>
      </trkpt>
      <trkpt lat="45.60432" lon="2.77891">
        <ele>1345.6</ele>
        <time>2021-07-22T08:13:34Z</time>
      </trkpt>
      <trkpt lat="45.60446" lon="2.77914">
        <ele>1347.7</ele>
        <time>2021-07-22T08:13:53Z</time>
      </trkpt>
      <trkpt lat="45.60451" lon="2.7793">
        <ele>1348.1</ele>
        <time>2021-07-22T08:14:05Z</time>
      </trkpt>
      <trkpt lat="45.60454" lon="2.77943">
        <ele>1348.5</ele>
        <time>2021-07-22T08:14:15Z</time>
      </trkpt>
      <trkpt lat="45.60457" lon="2.77955">
        <ele>1348.9</ele>
        <time>2021-07-22T08:14:26Z</time>
      </trkpt>
      <trkpt lat="45.6046" lon="2.77966">
        <ele>1349.6</ele>
        <time>2021-07-22T08:14:38Z</time>
      </trkpt>
      <trkpt lat="45.60468" lon="2.77985">
        <ele>1351.2</ele>
        <time>2021-07-22T08:14:55Z</time>
      </trkpt>
      <trkpt lat="45.60475" lon="2.78009">
        <ele>1353.1</ele>
        <time>2021-07-22T08:15:13Z</time>
      </trkpt>
      <trkpt lat="45.60478" lon="2.78029">
        <ele>1354.3</ele>
        <time>2021-07-22T08:15:28Z</time>
      </trkpt>
      <trkpt lat="45.60482" lon="2.78049">
        <ele>1355.5</ele>
        <time>2021-07-22T08:15:44Z</time>
      </trkpt>
      <trkpt lat="45.60487" lon="2.78074">
        <ele>1357.2</ele>
        <time>2021-07-22T08:16:01Z</time>
      </trkpt>
      <trkpt lat="45.60488" lon="2.78097">
        <ele>1358</ele>
        <time>2021-07-22T08:16:17Z</time>
      </trkpt>
      <trkpt lat="45.60486" lon="2.78116">
        <ele>1357.7</ele>
        <time>2021-07-22T08:16:31Z</time>
      </trkpt>
      <trkpt lat="45.60483" lon="2.78133">
        <ele>1357.2</ele>
        <time>2021-07-22T08:16:44Z</time>
      </trkpt>
      <trkpt lat="45.60481" lon="2.78153">
        <ele>1357.3</ele>
        <time>2021-07-22T08:17:00Z</time>
      </trkpt>
      <trkpt lat="45.60478" lon="2.78156">
        <ele>1356.6</ele>
        <time>2021-07-22T08:17:04Z</time>
      </trkpt>
      <trkpt lat="45.60469" lon="2.78168">
        <ele>1355.1</ele>
        <time>2021-07-22T08:17:19Z</time>
      </trkpt>
      <trkpt lat="45.60466" lon="2.78172">
        <ele>1354.9</ele>
        <time>2021-07-22T08:17:35Z</time>
      </trkpt>
      <trkpt lat="45.60464" lon="2.78174">
        <ele>1354.7</ele>
        <time>2021-07-22T08:17:46Z</time>
      </trkpt>
      <trkpt lat="45.60454" lon="2.78186">
        <ele>1354.1</ele>
        <time>2021-07-22T08:18:00Z</time>
      </trkpt>
      <trkpt lat="45.60449" lon="2.78191">
        <ele>1353.9</ele>
        <time>2021-07-22T08:18:05Z</time>
      </trkpt>
      <trkpt lat="45.60442" lon="2.78209">
        <ele>1355.3</ele>
        <time>2021-07-22T08:18:20Z</time>
      </trkpt>
      <trkpt lat="45.6044" lon="2.78214">
        <ele>1355.9</ele>
        <time>2021-07-22T08:18:28Z</time>
      </trkpt>
      <trkpt lat="45.60435" lon="2.78222">
        <ele>1356.5</ele>
        <time>2021-07-22T08:18:40Z</time>
      </trkpt>
      <trkpt lat="45.60433" lon="2.78225">
        <ele>1356.9</ele>
        <time>2021-07-22T08:18:46Z</time>
      </trkpt>
      <trkpt lat="45.60428" lon="2.7823">
        <ele>1357.3</ele>
        <time>2021-07-22T08:18:57Z</time>
      </trkpt>
      <trkpt lat="45.60421" lon="2.78237">
        <ele>1357.8</ele>
        <time>2021-07-22T08:19:10Z</time>
      </trkpt>
      <trkpt lat="45.60415" lon="2.78243">
        <ele>1358.7</ele>
        <time>2021-07-22T08:19:23Z</time>
      </trkpt>
      <trkpt lat="45.60414" lon="2.78247">
        <ele>1359.4</ele>
        <time>2021-07-22T08:19:36Z</time>
      </trkpt>
      <trkpt lat="45.60406" lon="2.7825">
        <ele>1360</ele>
        <time>2021-07-22T08:19:48Z</time>
      </trkpt>
      <trkpt lat="45.60401" lon="2.78255">
        <ele>1360.5</ele>
        <time>2021-07-22T08:20:00Z</time>
      </trkpt>
      <trkpt lat="45.60401" lon="2.78255">
        <ele>1360.5</ele>
        <time>2021-07-22T08:20:18Z</time>
      </trkpt>
      <trkpt lat="45.60402" lon="2.78255">
        <ele>1360.5</ele>
        <time>2021-07-22T08:20:29Z</time>
      </trkpt>
      <trkpt lat="45.60402" lon="2.78255">
        <ele>1360.5</ele>
        <time>2021-07-22T08:20:30Z</time>
      </trkpt>
      <trkpt lat="45.60402" lon="2.78255">
        <ele>1360.5</ele>
        <time>2021-07-22T08:20:33Z</time>
      </trkpt>
      <trkpt lat="45.60401" lon="2.78257">
        <ele>1360.6</ele>
        <time>2021-07-22T08:21:27Z</time>
      </trkpt>
      <trkpt lat="45.60401" lon="2.78259">
        <ele>1360.9</ele>
        <time>2021-07-22T08:22:00Z</time>
      </trkpt>
      <trkpt lat="45.60401" lon="2.78259">
        <ele>1360.8</ele>
        <time>2021-07-22T08:22:01Z</time>
      </trkpt>
      <trkpt lat="45.60401" lon="2.78258">
        <ele>1360.8</ele>
        <time>2021-07-22T08:22:06Z</time>
      </trkpt>
      <trkpt lat="45.60401" lon="2.78259">
        <ele>1360.8</ele>
        <time>2021-07-22T08:22:24Z</time>
      </trkpt>
      <trkpt lat="45.604" lon="2.78259">
        <ele>1360.8</ele>
        <time>2021-07-22T08:22:51Z</time>
      </trkpt>
      <trkpt lat="45.60401" lon="2.78259">
        <ele>1360.8</ele>
        <time>2021-07-22T08:23:08Z</time>
      </trkpt>
      <trkpt lat="45.60402" lon="2.78258">
        <ele>1360.8</ele>
        <time>2021-07-22T08:23:21Z</time>
      </trkpt>
      <trkpt lat="45.60402" lon="2.78259">
        <ele>1360.9</ele>
        <time>2021-07-22T08:23:38Z</time>
      </trkpt>
      <trkpt lat="45.60398" lon="2.78262">
        <ele>1361.2</ele>
        <time>2021-07-22T08:23:51Z</time>
      </trkpt>
      <trkpt lat="45.60398" lon="2.78261">
        <ele>1361.1</ele>
        <time>2021-07-22T08:24:07Z</time>
      </trkpt>
      <trkpt lat="45.60396" lon="2.7826">
        <ele>1361.1</ele>
        <time>2021-07-22T08:24:23Z</time>
      </trkpt>
      <trkpt lat="45.60392" lon="2.78262">
        <ele>1361.4</ele>
        <time>2021-07-22T08:24:29Z</time>
      </trkpt>
      <trkpt lat="45.60387" lon="2.7827">
        <ele>1362.6</ele>
        <time>2021-07-22T08:24:41Z</time>
      </trkpt>
      <trkpt lat="45.60381" lon="2.78274">
        <ele>1363.4</ele>
        <time>2021-07-22T08:24:55Z</time>
      </trkpt>
      <trkpt lat="45.60378" lon="2.78274">
        <ele>1363.6</ele>
        <time>2021-07-22T08:25:07Z</time>
      </trkpt>
      <trkpt lat="45.60372" lon="2.78276">
        <ele>1364.3</ele>
        <time>2021-07-22T08:25:18Z</time>
      </trkpt>
      <trkpt lat="45.60368" lon="2.78279">
        <ele>1365</ele>
        <time>2021-07-22T08:25:29Z</time>
      </trkpt>
      <trkpt lat="45.60363" lon="2.78284">
        <ele>1366.3</ele>
        <time>2021-07-22T08:25:42Z</time>
      </trkpt>
      <trkpt lat="45.60361" lon="2.78288">
        <ele>1367.1</ele>
        <time>2021-07-22T08:25:52Z</time>
      </trkpt>
      <trkpt lat="45.60358" lon="2.78292">
        <ele>1368.2</ele>
        <time>2021-07-22T08:26:04Z</time>
      </trkpt>
      <trkpt lat="45.60355" lon="2.7829">
        <ele>1368.2</ele>
        <time>2021-07-22T08:26:16Z</time>
      </trkpt>
      <trkpt lat="45.60351" lon="2.78292">
        <ele>1368.8</ele>
        <time>2021-07-22T08:26:27Z</time>
      </trkpt>
      <trkpt lat="45.60348" lon="2.78291">
        <ele>1369</ele>
        <time>2021-07-22T08:26:38Z</time>
      </trkpt>
      <trkpt lat="45.60342" lon="2.78291">
        <ele>1369.5</ele>
        <time>2021-07-22T08:26:49Z</time>
      </trkpt>
      <trkpt lat="45.60342" lon="2.78294">
        <ele>1370.1</ele>
        <time>2021-07-22T08:26:58Z</time>
      </trkpt>
      <trkpt lat="45.60337" lon="2.78295">
        <ele>1371.1</ele>
        <time>2021-07-22T08:27:10Z</time>
      </trkpt>
      <trkpt lat="45.60335" lon="2.78303">
        <ele>1373.1</ele>
        <time>2021-07-22T08:27:22Z</time>
      </trkpt>
      <trkpt lat="45.60327" lon="2.78308">
        <ele>1375.3</ele>
        <time>2021-07-22T08:27:39Z</time>
      </trkpt>
      <trkpt lat="45.60322" lon="2.78314">
        <ele>1377.3</ele>
        <time>2021-07-22T08:27:53Z</time>
      </trkpt>
      <trkpt lat="45.60318" lon="2.78324">
        <ele>1380.2</ele>
        <time>2021-07-22T08:28:08Z</time>
      </trkpt>
      <trkpt lat="45.60315" lon="2.78328">
        <ele>1381.6</ele>
        <time>2021-07-22T08:28:21Z</time>
      </trkpt>
      <trkpt lat="45.60312" lon="2.78335">
        <ele>1383.7</ele>
        <time>2021-07-22T08:28:36Z</time>
      </trkpt>
      <trkpt lat="45.60309" lon="2.78341">
        <ele>1384.5</ele>
        <time>2021-07-22T08:28:47Z</time>
      </trkpt>
      <trkpt lat="45.60305" lon="2.7834">
        <ele>1385.1</ele>
        <time>2021-07-22T08:28:58Z</time>
      </trkpt>
      <trkpt lat="45.60298" lon="2.78345">
        <ele>1386.4</ele>
        <time>2021-07-22T08:29:13Z</time>
      </trkpt>
      <trkpt lat="45.60291" lon="2.78348">
        <ele>1387.8</ele>
        <time>2021-07-22T08:29:28Z</time>
      </trkpt>
      <trkpt lat="45.60291" lon="2.7835">
        <ele>1388</ele>
        <time>2021-07-22T08:29:43Z</time>
      </trkpt>
      <trkpt lat="45.6029" lon="2.78352">
        <ele>1388.6</ele>
        <time>2021-07-22T08:29:59Z</time>
      </trkpt>
      <trkpt lat="45.6029" lon="2.78352">
        <ele>1388.6</ele>
        <time>2021-07-22T08:30:20Z</time>
      </trkpt>
      <trkpt lat="45.6029" lon="2.78352">
        <ele>1388.5</ele>
        <time>2021-07-22T08:30:37Z</time>
      </trkpt>
      <trkpt lat="45.60291" lon="2.78351">
        <ele>1388.2</ele>
        <time>2021-07-22T08:30:57Z</time>
      </trkpt>
      <trkpt lat="45.60289" lon="2.78353">
        <ele>1388.9</ele>
        <time>2021-07-22T08:31:10Z</time>
      </trkpt>
      <trkpt lat="45.60288" lon="2.78355">
        <ele>1389.2</ele>
        <time>2021-07-22T08:31:26Z</time>
      </trkpt>
      <trkpt lat="45.60285" lon="2.78358">
        <ele>1390.1</ele>
        <time>2021-07-22T08:31:37Z</time>
      </trkpt>
      <trkpt lat="45.60278" lon="2.78366">
        <ele>1392.6</ele>
        <time>2021-07-22T08:31:51Z</time>
      </trkpt>
      <trkpt lat="45.60275" lon="2.78374">
        <ele>1394.8</ele>
        <time>2021-07-22T08:32:04Z</time>
      </trkpt>
      <trkpt lat="45.60269" lon="2.78384">
        <ele>1397.7</ele>
        <time>2021-07-22T08:32:18Z</time>
      </trkpt>
      <trkpt lat="45.60261" lon="2.784">
        <ele>1403</ele>
        <time>2021-07-22T08:32:35Z</time>
      </trkpt>
      <trkpt lat="45.60253" lon="2.78407">
        <ele>1406.9</ele>
        <time>2021-07-22T08:32:50Z</time>
      </trkpt>
      <trkpt lat="45.60246" lon="2.78407">
        <ele>1408.9</ele>
        <time>2021-07-22T08:33:03Z</time>
      </trkpt>
      <trkpt lat="45.60242" lon="2.78408">
        <ele>1410.4</ele>
        <time>2021-07-22T08:33:20Z</time>
      </trkpt>
      <trkpt lat="45.6024" lon="2.78408">
        <ele>1411.1</ele>
        <time>2021-07-22T08:33:31Z</time>
      </trkpt>
      <trkpt lat="45.60234" lon="2.78409">
        <ele>1413.2</ele>
        <time>2021-07-22T08:33:43Z</time>
      </trkpt>
      <trkpt lat="45.60231" lon="2.78408">
        <ele>1413.7</ele>
        <time>2021-07-22T08:33:47Z</time>
      </trkpt>
      <trkpt lat="45.60222" lon="2.78405">
        <ele>1416</ele>
        <time>2021-07-22T08:34:01Z</time>
      </trkpt>
      <trkpt lat="45.60215" lon="2.78407">
        <ele>1418.4</ele>
        <time>2021-07-22T08:34:15Z</time>
      </trkpt>
      <trkpt lat="45.6021" lon="2.78405">
        <ele>1419.8</ele>
        <time>2021-07-22T08:34:29Z</time>
      </trkpt>
      <trkpt lat="45.60205" lon="2.78402">
        <ele>1420.9</ele>
        <time>2021-07-22T08:34:41Z</time>
      </trkpt>
      <trkpt lat="45.60199" lon="2.78399">
        <ele>1422.1</ele>
        <time>2021-07-22T08:34:55Z</time>
      </trkpt>
      <trkpt lat="45.60193" lon="2.78396">
        <ele>1423.2</ele>
        <time>2021-07-22T08:35:08Z</time>
      </trkpt>
      <trkpt lat="45.60189" lon="2.78396">
        <ele>1424.6</ele>
        <time>2021-07-22T08:35:20Z</time>
      </trkpt>
      <trkpt lat="45.60183" lon="2.78391">
        <ele>1425.6</ele>
        <time>2021-07-22T08:35:33Z</time>
      </trkpt>
      <trkpt lat="45.60175" lon="2.78385">
        <ele>1427</ele>
        <time>2021-07-22T08:35:49Z</time>
      </trkpt>
      <trkpt lat="45.60168" lon="2.78382">
        <ele>1428.7</ele>
        <time>2021-07-22T08:36:04Z</time>
      </trkpt>
      <trkpt lat="45.60161" lon="2.78377">
        <ele>1429.2</ele>
        <time>2021-07-22T08:36:17Z</time>
      </trkpt>
      <trkpt lat="45.60157" lon="2.78373">
        <ele>1429.4</ele>
        <time>2021-07-22T08:36:33Z</time>
      </trkpt>
      <trkpt lat="45.60148" lon="2.78369">
        <ele>1430.2</ele>
        <time>2021-07-22T08:36:49Z</time>
      </trkpt>
      <trkpt lat="45.60138" lon="2.78364">
        <ele>1430.7</ele>
        <time>2021-07-22T08:37:03Z</time>
      </trkpt>
      <trkpt lat="45.60125" lon="2.78356">
        <ele>1431.3</ele>
        <time>2021-07-22T08:37:20Z</time>
      </trkpt>
      <trkpt lat="45.60114" lon="2.78351">
        <ele>1431.9</ele>
        <time>2021-07-22T08:37:34Z</time>
      </trkpt>
      <trkpt lat="45.60106" lon="2.78347">
        <ele>1432.1</ele>
        <time>2021-07-22T08:37:47Z</time>
      </trkpt>
      <trkpt lat="45.60094" lon="2.78348">
        <ele>1434</ele>
        <time>2021-07-22T08:38:03Z</time>
      </trkpt>
      <trkpt lat="45.60084" lon="2.78356">
        <ele>1437.6</ele>
        <time>2021-07-22T08:38:19Z</time>
      </trkpt>
      <trkpt lat="45.60075" lon="2.78367">
        <ele>1438.2</ele>
        <time>2021-07-22T08:38:34Z</time>
      </trkpt>
      <trkpt lat="45.60067" lon="2.78375">
        <ele>1438</ele>
        <time>2021-07-22T08:38:46Z</time>
      </trkpt>
      <trkpt lat="45.60052" lon="2.78383">
        <ele>1436.2</ele>
        <time>2021-07-22T08:39:03Z</time>
      </trkpt>
      <trkpt lat="45.60041" lon="2.78395">
        <ele>1436.8</ele>
        <time>2021-07-22T08:39:18Z</time>
      </trkpt>
      <trkpt lat="45.60035" lon="2.78391">
        <ele>1434.2</ele>
        <time>2021-07-22T08:39:33Z</time>
      </trkpt>
      <trkpt lat="45.60035" lon="2.78389">
        <ele>1433.5</ele>
        <time>2021-07-22T08:39:46Z</time>
      </trkpt>
      <trkpt lat="45.60036" lon="2.78389">
        <ele>1433.7</ele>
        <time>2021-07-22T08:40:01Z</time>
      </trkpt>
      <trkpt lat="45.60035" lon="2.78391">
        <ele>1434.2</ele>
        <time>2021-07-22T08:40:19Z</time>
      </trkpt>
      <trkpt lat="45.60036" lon="2.78394">
        <ele>1435.2</ele>
        <time>2021-07-22T08:40:34Z</time>
      </trkpt>
      <trkpt lat="45.60035" lon="2.78398">
        <ele>1435.9</ele>
        <time>2021-07-22T08:40:45Z</time>
      </trkpt>
      <trkpt lat="45.60036" lon="2.78395">
        <ele>1435.4</ele>
        <time>2021-07-22T08:40:59Z</time>
      </trkpt>
      <trkpt lat="45.60031" lon="2.78403">
        <ele>1436.5</ele>
        <time>2021-07-22T08:41:13Z</time>
      </trkpt>
      <trkpt lat="45.60024" lon="2.78415">
        <ele>1438.2</ele>
        <time>2021-07-22T08:41:25Z</time>
      </trkpt>
      <trkpt lat="45.60011" lon="2.78428">
        <ele>1436.8</ele>
        <time>2021-07-22T08:41:41Z</time>
      </trkpt>
      <trkpt lat="45.60002" lon="2.7844">
        <ele>1436</ele>
        <time>2021-07-22T08:41:54Z</time>
      </trkpt>
      <trkpt lat="45.59998" lon="2.78454">
        <ele>1436.1</ele>
        <time>2021-07-22T08:42:08Z</time>
      </trkpt>
      <trkpt lat="45.60003" lon="2.78464">
        <ele>1438.7</ele>
        <time>2021-07-22T08:42:18Z</time>
      </trkpt>
      <trkpt lat="45.60005" lon="2.78471">
        <ele>1439.8</ele>
        <time>2021-07-22T08:42:24Z</time>
      </trkpt>
      <trkpt lat="45.60009" lon="2.78488">
        <ele>1442.2</ele>
        <time>2021-07-22T08:42:39Z</time>
      </trkpt>
      <trkpt lat="45.60011" lon="2.785">
        <ele>1443.8</ele>
        <time>2021-07-22T08:42:49Z</time>
      </trkpt>
      <trkpt lat="45.60013" lon="2.78513">
        <ele>1444.6</ele>
        <time>2021-07-22T08:43:03Z</time>
      </trkpt>
      <trkpt lat="45.60013" lon="2.78525">
        <ele>1445.4</ele>
        <time>2021-07-22T08:43:23Z</time>
      </trkpt>
      <trkpt lat="45.60015" lon="2.78545">
        <ele>1446.7</ele>
        <time>2021-07-22T08:43:36Z</time>
      </trkpt>
      <trkpt lat="45.60011" lon="2.78567">
        <ele>1447.3</ele>
        <time>2021-07-22T08:43:52Z</time>
      </trkpt>
      <trkpt lat="45.60012" lon="2.78585">
        <ele>1448.5</ele>
        <time>2021-07-22T08:44:05Z</time>
      </trkpt>
      <trkpt lat="45.60011" lon="2.78593">
        <ele>1449.3</ele>
        <time>2021-07-22T08:44:10Z</time>
      </trkpt>
      <trkpt lat="45.6001" lon="2.78601">
        <ele>1450.2</ele>
        <time>2021-07-22T08:44:16Z</time>
      </trkpt>
      <trkpt lat="45.6001" lon="2.78603">
        <ele>1450.5</ele>
        <time>2021-07-22T08:44:18Z</time>
      </trkpt>
      <trkpt lat="45.60009" lon="2.78615">
        <ele>1451.9</ele>
        <time>2021-07-22T08:44:27Z</time>
      </trkpt>
      <trkpt lat="45.59999" lon="2.78629">
        <ele>1453</ele>
        <time>2021-07-22T08:44:42Z</time>
      </trkpt>
      <trkpt lat="45.5999" lon="2.78637">
        <ele>1450.3</ele>
        <time>2021-07-22T08:44:55Z</time>
      </trkpt>
      <trkpt lat="45.59984" lon="2.78652">
        <ele>1450</ele>
        <time>2021-07-22T08:45:08Z</time>
      </trkpt>
      <trkpt lat="45.59976" lon="2.78668">
        <ele>1449</ele>
        <time>2021-07-22T08:45:23Z</time>
      </trkpt>
      <trkpt lat="45.59967" lon="2.78684">
        <ele>1447.8</ele>
        <time>2021-07-22T08:45:38Z</time>
      </trkpt>
      <trkpt lat="45.59959" lon="2.787">
        <ele>1447.6</ele>
        <time>2021-07-22T08:45:54Z</time>
      </trkpt>
      <trkpt lat="45.59952" lon="2.7871">
        <ele>1447.3</ele>
        <time>2021-07-22T08:46:05Z</time>
      </trkpt>
      <trkpt lat="45.59944" lon="2.78728">
        <ele>1448.7</ele>
        <time>2021-07-22T08:46:21Z</time>
      </trkpt>
      <trkpt lat="45.59933" lon="2.78743">
        <ele>1449.7</ele>
        <time>2021-07-22T08:46:36Z</time>
      </trkpt>
      <trkpt lat="45.59926" lon="2.78761">
        <ele>1451.9</ele>
        <time>2021-07-22T08:46:51Z</time>
      </trkpt>
      <trkpt lat="45.59924" lon="2.78767">
        <ele>1452.6</ele>
        <time>2021-07-22T08:46:56Z</time>
      </trkpt>
      <trkpt lat="45.59921" lon="2.78785">
        <ele>1455.5</ele>
        <time>2021-07-22T08:47:10Z</time>
      </trkpt>
      <trkpt lat="45.59916" lon="2.78806">
        <ele>1459.2</ele>
        <time>2021-07-22T08:47:27Z</time>
      </trkpt>
      <trkpt lat="45.59916" lon="2.78811">
        <ele>1459.9</ele>
        <time>2021-07-22T08:47:37Z</time>
      </trkpt>
      <trkpt lat="45.59915" lon="2.78812">
        <ele>1460.1</ele>
        <time>2021-07-22T08:47:49Z</time>
      </trkpt>
      <trkpt lat="45.59915" lon="2.78814">
        <ele>1460.5</ele>
        <time>2021-07-22T08:48:11Z</time>
      </trkpt>
      <trkpt lat="45.59913" lon="2.78818">
        <ele>1460.4</ele>
        <time>2021-07-22T08:48:22Z</time>
      </trkpt>
      <trkpt lat="45.5991" lon="2.7883">
        <ele>1461.3</ele>
        <time>2021-07-22T08:48:36Z</time>
      </trkpt>
      <trkpt lat="45.59906" lon="2.78837">
        <ele>1461.2</ele>
        <time>2021-07-22T08:48:51Z</time>
      </trkpt>
      <trkpt lat="45.59897" lon="2.78852">
        <ele>1459.5</ele>
        <time>2021-07-22T08:49:06Z</time>
      </trkpt>
      <trkpt lat="45.59895" lon="2.78855">
        <ele>1459.3</ele>
        <time>2021-07-22T08:49:09Z</time>
      </trkpt>
      <trkpt lat="45.59884" lon="2.78869">
        <ele>1457.6</ele>
        <time>2021-07-22T08:49:25Z</time>
      </trkpt>
      <trkpt lat="45.59871" lon="2.78882">
        <ele>1455.8</ele>
        <time>2021-07-22T08:49:42Z</time>
      </trkpt>
      <trkpt lat="45.59862" lon="2.78887">
        <ele>1454.3</ele>
        <time>2021-07-22T08:49:54Z</time>
      </trkpt>
      <trkpt lat="45.59857" lon="2.78891">
        <ele>1453.6</ele>
        <time>2021-07-22T08:50:00Z</time>
      </trkpt>
      <trkpt lat="45.59846" lon="2.78911">
        <ele>1455.6</ele>
        <time>2021-07-22T08:50:18Z</time>
      </trkpt>
      <trkpt lat="45.59838" lon="2.78926">
        <ele>1455.9</ele>
        <time>2021-07-22T08:50:32Z</time>
      </trkpt>
      <trkpt lat="45.59832" lon="2.78937">
        <ele>1455.1</ele>
        <time>2021-07-22T08:50:44Z</time>
      </trkpt>
      <trkpt lat="45.5983" lon="2.78945">
        <ele>1454.1</ele>
        <time>2021-07-22T08:50:59Z</time>
      </trkpt>
      <trkpt lat="45.59831" lon="2.78951">
        <ele>1455.5</ele>
        <time>2021-07-22T08:51:12Z</time>
      </trkpt>
      <trkpt lat="45.59832" lon="2.78961">
        <ele>1456.8</ele>
        <time>2021-07-22T08:51:26Z</time>
      </trkpt>
      <trkpt lat="45.5983" lon="2.7897">
        <ele>1456.6</ele>
        <time>2021-07-22T08:51:37Z</time>
      </trkpt>
      <trkpt lat="45.5983" lon="2.78971">
        <ele>1456.6</ele>
        <time>2021-07-22T08:51:44Z</time>
      </trkpt>
      <trkpt lat="45.59834" lon="2.78988">
        <ele>1460</ele>
        <time>2021-07-22T08:51:58Z</time>
      </trkpt>
      <trkpt lat="45.59839" lon="2.79004">
        <ele>1461.3</ele>
        <time>2021-07-22T08:52:11Z</time>
      </trkpt>
      <trkpt lat="45.59844" lon="2.79021">
        <ele>1460.2</ele>
        <time>2021-07-22T08:52:25Z</time>
      </trkpt>
      <trkpt lat="45.59847" lon="2.79033">
        <ele>1459.5</ele>
        <time>2021-07-22T08:52:36Z</time>
      </trkpt>
      <trkpt lat="45.59852" lon="2.79043">
        <ele>1459.4</ele>
        <time>2021-07-22T08:52:46Z</time>
      </trkpt>
      <trkpt lat="45.59858" lon="2.79052">
        <ele>1459.8</ele>
        <time>2021-07-22T08:52:56Z</time>
      </trkpt>
      <trkpt lat="45.59863" lon="2.79068">
        <ele>1459.7</ele>
        <time>2021-07-22T08:53:09Z</time>
      </trkpt>
      <trkpt lat="45.59867" lon="2.79082">
        <ele>1459.5</ele>
        <time>2021-07-22T08:53:20Z</time>
      </trkpt>
      <trkpt lat="45.59872" lon="2.79093">
        <ele>1459.2</ele>
        <time>2021-07-22T08:53:31Z</time>
      </trkpt>
      <trkpt lat="45.59872" lon="2.79097">
        <ele>1458.6</ele>
        <time>2021-07-22T08:53:34Z</time>
      </trkpt>
      <trkpt lat="45.59873" lon="2.79105">
        <ele>1457.7</ele>
        <time>2021-07-22T08:53:40Z</time>
      </trkpt>
      <trkpt lat="45.59879" lon="2.79117">
        <ele>1457.5</ele>
        <time>2021-07-22T08:53:52Z</time>
      </trkpt>
      <trkpt lat="45.59882" lon="2.79126">
        <ele>1457.2</ele>
        <time>2021-07-22T08:54:02Z</time>
      </trkpt>
      <trkpt lat="45.5989" lon="2.79138">
        <ele>1458.2</ele>
        <time>2021-07-22T08:54:15Z</time>
      </trkpt>
      <trkpt lat="45.59901" lon="2.79151">
        <ele>1460.3</ele>
        <time>2021-07-22T08:54:29Z</time>
      </trkpt>
      <trkpt lat="45.59907" lon="2.79158">
        <ele>1461.4</ele>
        <time>2021-07-22T08:54:39Z</time>
      </trkpt>
      <trkpt lat="45.59916" lon="2.79167">
        <ele>1463.7</ele>
        <time>2021-07-22T08:54:51Z</time>
      </trkpt>
      <trkpt lat="45.59926" lon="2.79178">
        <ele>1460.7</ele>
        <time>2021-07-22T08:55:04Z</time>
      </trkpt>
      <trkpt lat="45.5993" lon="2.79183">
        <ele>1459.3</ele>
        <time>2021-07-22T08:55:09Z</time>
      </trkpt>
      <trkpt lat="45.59934" lon="2.79189">
        <ele>1457.9</ele>
        <time>2021-07-22T08:55:14Z</time>
      </trkpt>
      <trkpt lat="45.59938" lon="2.79193">
        <ele>1457</ele>
        <time>2021-07-22T08:55:20Z</time>
      </trkpt>
      <trkpt lat="45.59946" lon="2.79201">
        <ele>1455.2</ele>
        <time>2021-07-22T08:55:30Z</time>
      </trkpt>
      <trkpt lat="45.59946" lon="2.79202">
        <ele>1455</ele>
        <time>2021-07-22T08:55:31Z</time>
      </trkpt>
      <trkpt lat="45.59953" lon="2.7921">
        <ele>1453.4</ele>
        <time>2021-07-22T08:55:39Z</time>
      </trkpt>
      <trkpt lat="45.59955" lon="2.79215">
        <ele>1452.3</ele>
        <time>2021-07-22T08:55:43Z</time>
      </trkpt>
      <trkpt lat="45.59955" lon="2.79219">
        <ele>1451.4</ele>
        <time>2021-07-22T08:55:46Z</time>
      </trkpt>
      <trkpt lat="45.59961" lon="2.79227">
        <ele>1450.1</ele>
        <time>2021-07-22T08:55:55Z</time>
      </trkpt>
      <trkpt lat="45.59964" lon="2.7923">
        <ele>1449.7</ele>
        <time>2021-07-22T08:56:00Z</time>
      </trkpt>
      <trkpt lat="45.59973" lon="2.79232">
        <ele>1450.2</ele>
        <time>2021-07-22T08:56:11Z</time>
      </trkpt>
      <trkpt lat="45.59984" lon="2.79241">
        <ele>1449.5</ele>
        <time>2021-07-22T08:56:24Z</time>
      </trkpt>
      <trkpt lat="45.59992" lon="2.79251">
        <ele>1448.7</ele>
        <time>2021-07-22T08:56:36Z</time>
      </trkpt>
      <trkpt lat="45.60004" lon="2.79252">
        <ele>1449</ele>
        <time>2021-07-22T08:56:48Z</time>
      </trkpt>
      <trkpt lat="45.6001" lon="2.7926">
        <ele>1445.9</ele>
        <time>2021-07-22T08:56:58Z</time>
      </trkpt>
      <trkpt lat="45.60015" lon="2.79264">
        <ele>1444.1</ele>
        <time>2021-07-22T08:57:06Z</time>
      </trkpt>
      <trkpt lat="45.60024" lon="2.79266">
        <ele>1442.8</ele>
        <time>2021-07-22T08:57:17Z</time>
      </trkpt>
      <trkpt lat="45.60034" lon="2.7927">
        <ele>1441.1</ele>
        <time>2021-07-22T08:57:28Z</time>
      </trkpt>
      <trkpt lat="45.60038" lon="2.79271">
        <ele>1440.7</ele>
        <time>2021-07-22T08:57:41Z</time>
      </trkpt>
      <trkpt lat="45.60038" lon="2.79271">
        <ele>1440.6</ele>
        <time>2021-07-22T08:57:56Z</time>
      </trkpt>
      <trkpt lat="45.60038" lon="2.7927">
        <ele>1440.8</ele>
        <time>2021-07-22T08:58:14Z</time>
      </trkpt>
      <trkpt lat="45.6004" lon="2.79272">
        <ele>1440.4</ele>
        <time>2021-07-22T08:58:29Z</time>
      </trkpt>
      <trkpt lat="45.60039" lon="2.79271">
        <ele>1440.5</ele>
        <time>2021-07-22T08:58:46Z</time>
      </trkpt>
      <trkpt lat="45.60039" lon="2.79269">
        <ele>1441.2</ele>
        <time>2021-07-22T08:59:00Z</time>
      </trkpt>
      <trkpt lat="45.60041" lon="2.7927">
        <ele>1440.7</ele>
        <time>2021-07-22T08:59:14Z</time>
      </trkpt>
      <trkpt lat="45.60046" lon="2.79269">
        <ele>1440.7</ele>
        <time>2021-07-22T08:59:24Z</time>
      </trkpt>
      <trkpt lat="45.60049" lon="2.79273">
        <ele>1439.5</ele>
        <time>2021-07-22T08:59:35Z</time>
      </trkpt>
      <trkpt lat="45.60055" lon="2.79276">
        <ele>1438.4</ele>
        <time>2021-07-22T08:59:47Z</time>
      </trkpt>
      <trkpt lat="45.60059" lon="2.79278">
        <ele>1437.8</ele>
        <time>2021-07-22T08:59:56Z</time>
      </trkpt>
      <trkpt lat="45.60063" lon="2.79283">
        <ele>1436.5</ele>
        <time>2021-07-22T09:00:07Z</time>
      </trkpt>
      <trkpt lat="45.60064" lon="2.79282">
        <ele>1436.6</ele>
        <time>2021-07-22T09:00:08Z</time>
      </trkpt>
      <trkpt lat="45.60069" lon="2.79284">
        <ele>1436</ele>
        <time>2021-07-22T09:00:19Z</time>
      </trkpt>
      <trkpt lat="45.60069" lon="2.79284">
        <ele>1436.1</ele>
        <time>2021-07-22T09:00:20Z</time>
      </trkpt>
      <trkpt lat="45.60071" lon="2.79284">
        <ele>1436.1</ele>
        <time>2021-07-22T09:00:22Z</time>
      </trkpt>
      <trkpt lat="45.60077" lon="2.79285">
        <ele>1435.5</ele>
        <time>2021-07-22T09:00:33Z</time>
      </trkpt>
      <trkpt lat="45.60082" lon="2.79286">
        <ele>1435.2</ele>
        <time>2021-07-22T09:00:42Z</time>
      </trkpt>
      <trkpt lat="45.60086" lon="2.79289">
        <ele>1433.6</ele>
        <time>2021-07-22T09:00:53Z</time>
      </trkpt>
      <trkpt lat="45.60088" lon="2.79294">
        <ele>1432.1</ele>
        <time>2021-07-22T09:01:04Z</time>
      </trkpt>
      <trkpt lat="45.6009" lon="2.79299">
        <ele>1430.6</ele>
        <time>2021-07-22T09:01:16Z</time>
      </trkpt>
      <trkpt lat="45.60091" lon="2.79298">
        <ele>1430.6</ele>
        <time>2021-07-22T09:01:29Z</time>
      </trkpt>
      <trkpt lat="45.60093" lon="2.79301">
        <ele>1429.3</ele>
        <time>2021-07-22T09:01:43Z</time>
      </trkpt>
      <trkpt lat="45.60096" lon="2.79305">
        <ele>1427.8</ele>
        <time>2021-07-22T09:01:54Z</time>
      </trkpt>
      <trkpt lat="45.60099" lon="2.7931">
        <ele>1426.2</ele>
        <time>2021-07-22T09:02:05Z</time>
      </trkpt>
      <trkpt lat="45.60104" lon="2.79315">
        <ele>1424</ele>
        <time>2021-07-22T09:02:18Z</time>
      </trkpt>
      <trkpt lat="45.60108" lon="2.79315">
        <ele>1422.8</ele>
        <time>2021-07-22T09:02:30Z</time>
      </trkpt>
      <trkpt lat="45.60109" lon="2.79317">
        <ele>1422.3</ele>
        <time>2021-07-22T09:02:46Z</time>
      </trkpt>
      <trkpt lat="45.6011" lon="2.79318">
        <ele>1422.1</ele>
        <time>2021-07-22T09:03:00Z</time>
      </trkpt>
      <trkpt lat="45.60113" lon="2.79318">
        <ele>1421.4</ele>
        <time>2021-07-22T09:03:13Z</time>
      </trkpt>
      <trkpt lat="45.60115" lon="2.79317">
        <ele>1421</ele>
        <time>2021-07-22T09:03:26Z</time>
      </trkpt>
      <trkpt lat="45.60118" lon="2.79319">
        <ele>1420</ele>
        <time>2021-07-22T09:03:38Z</time>
      </trkpt>
      <trkpt lat="45.60121" lon="2.7932">
        <ele>1419.2</ele>
        <time>2021-07-22T09:03:49Z</time>
      </trkpt>
      <trkpt lat="45.60123" lon="2.79323">
        <ele>1418.4</ele>
        <time>2021-07-22T09:04:05Z</time>
      </trkpt>
      <trkpt lat="45.60123" lon="2.79325">
        <ele>1418</ele>
        <time>2021-07-22T09:04:20Z</time>
      </trkpt>
      <trkpt lat="45.60125" lon="2.79326">
        <ele>1417.5</ele>
        <time>2021-07-22T09:04:36Z</time>
      </trkpt>
      <trkpt lat="45.60126" lon="2.79329">
        <ele>1416.9</ele>
        <time>2021-07-22T09:04:46Z</time>
      </trkpt>
      <trkpt lat="45.6013" lon="2.79335">
        <ele>1415.4</ele>
        <time>2021-07-22T09:05:00Z</time>
      </trkpt>
      <trkpt lat="45.60131" lon="2.79344">
        <ele>1413.8</ele>
        <time>2021-07-22T09:05:12Z</time>
      </trkpt>
      <trkpt lat="45.60135" lon="2.79354">
        <ele>1411.7</ele>
        <time>2021-07-22T09:05:25Z</time>
      </trkpt>
      <trkpt lat="45.60139" lon="2.79362">
        <ele>1410.1</ele>
        <time>2021-07-22T09:05:35Z</time>
      </trkpt>
      <trkpt lat="45.60139" lon="2.79369">
        <ele>1409.4</ele>
        <time>2021-07-22T09:05:45Z</time>
      </trkpt>
      <trkpt lat="45.60139" lon="2.79377">
        <ele>1408.4</ele>
        <time>2021-07-22T09:05:54Z</time>
      </trkpt>
      <trkpt lat="45.60139" lon="2.79386">
        <ele>1407.4</ele>
        <time>2021-07-22T09:06:02Z</time>
      </trkpt>
      <trkpt lat="45.60143" lon="2.79402">
        <ele>1405.2</ele>
        <time>2021-07-22T09:06:15Z</time>
      </trkpt>
      <trkpt lat="45.60143" lon="2.7941">
        <ele>1404.3</ele>
        <time>2021-07-22T09:06:25Z</time>
      </trkpt>
      <trkpt lat="45.60146" lon="2.79423">
        <ele>1403</ele>
        <time>2021-07-22T09:06:35Z</time>
      </trkpt>
      <trkpt lat="45.60151" lon="2.79441">
        <ele>1401.9</ele>
        <time>2021-07-22T09:06:49Z</time>
      </trkpt>
      <trkpt lat="45.60154" lon="2.7945">
        <ele>1401.6</ele>
        <time>2021-07-22T09:06:56Z</time>
      </trkpt>
      <trkpt lat="45.60155" lon="2.79451">
        <ele>1401.6</ele>
        <time>2021-07-22T09:06:58Z</time>
      </trkpt>
      <trkpt lat="45.60159" lon="2.79468">
        <ele>1401.1</ele>
        <time>2021-07-22T09:07:11Z</time>
      </trkpt>
      <trkpt lat="45.60154" lon="2.79492">
        <ele>1399.4</ele>
        <time>2021-07-22T09:07:29Z</time>
      </trkpt>
      <trkpt lat="45.60147" lon="2.79512">
        <ele>1397.2</ele>
        <time>2021-07-22T09:07:45Z</time>
      </trkpt>
      <trkpt lat="45.60142" lon="2.79533">
        <ele>1394.8</ele>
        <time>2021-07-22T09:08:01Z</time>
      </trkpt>
      <trkpt lat="45.60138" lon="2.79546">
        <ele>1393.2</ele>
        <time>2021-07-22T09:08:11Z</time>
      </trkpt>
      <trkpt lat="45.60135" lon="2.79551">
        <ele>1392.4</ele>
        <time>2021-07-22T09:08:15Z</time>
      </trkpt>
      <trkpt lat="45.6013" lon="2.79572">
        <ele>1389.7</ele>
        <time>2021-07-22T09:08:33Z</time>
      </trkpt>
      <trkpt lat="45.60122" lon="2.79583">
        <ele>1387.5</ele>
        <time>2021-07-22T09:08:45Z</time>
      </trkpt>
      <trkpt lat="45.60116" lon="2.79592">
        <ele>1385</ele>
        <time>2021-07-22T09:08:58Z</time>
      </trkpt>
      <trkpt lat="45.60114" lon="2.79598">
        <ele>1383.5</ele>
        <time>2021-07-22T09:09:09Z</time>
      </trkpt>
      <trkpt lat="45.60109" lon="2.79601">
        <ele>1382.2</ele>
        <time>2021-07-22T09:09:19Z</time>
      </trkpt>
      <trkpt lat="45.60106" lon="2.79602">
        <ele>1381.6</ele>
        <time>2021-07-22T09:09:22Z</time>
      </trkpt>
      <trkpt lat="45.601" lon="2.79609">
        <ele>1379.4</ele>
        <time>2021-07-22T09:09:33Z</time>
      </trkpt>
      <trkpt lat="45.60089" lon="2.79614">
        <ele>1376.9</ele>
        <time>2021-07-22T09:09:46Z</time>
      </trkpt>
      <trkpt lat="45.60078" lon="2.79623">
        <ele>1374</ele>
        <time>2021-07-22T09:10:02Z</time>
      </trkpt>
      <trkpt lat="45.60076" lon="2.79631">
        <ele>1372.5</ele>
        <time>2021-07-22T09:10:10Z</time>
      </trkpt>
      <trkpt lat="45.60074" lon="2.79643">
        <ele>1370.8</ele>
        <time>2021-07-22T09:10:23Z</time>
      </trkpt>
      <trkpt lat="45.60073" lon="2.79646">
        <ele>1370.1</ele>
        <time>2021-07-22T09:10:34Z</time>
      </trkpt>
      <trkpt lat="45.60075" lon="2.79652">
        <ele>1369.7</ele>
        <time>2021-07-22T09:10:41Z</time>
      </trkpt>
      <trkpt lat="45.60084" lon="2.79661">
        <ele>1369.9</ele>
        <time>2021-07-22T09:10:53Z</time>
      </trkpt>
      <trkpt lat="45.60094" lon="2.7967">
        <ele>1370</ele>
        <time>2021-07-22T09:11:04Z</time>
      </trkpt>
      <trkpt lat="45.60097" lon="2.79673">
        <ele>1369.9</ele>
        <time>2021-07-22T09:11:08Z</time>
      </trkpt>
      <trkpt lat="45.60109" lon="2.79682">
        <ele>1370.1</ele>
        <time>2021-07-22T09:11:21Z</time>
      </trkpt>
      <trkpt lat="45.6012" lon="2.7969">
        <ele>1370.1</ele>
        <time>2021-07-22T09:11:33Z</time>
      </trkpt>
      <trkpt lat="45.60131" lon="2.79697">
        <ele>1370.3</ele>
        <time>2021-07-22T09:11:44Z</time>
      </trkpt>
      <trkpt lat="45.60139" lon="2.79702">
        <ele>1370.4</ele>
        <time>2021-07-22T09:11:54Z</time>
      </trkpt>
      <trkpt lat="45.60145" lon="2.79706">
        <ele>1370.4</ele>
        <time>2021-07-22T09:12:02Z</time>
      </trkpt>
      <trkpt lat="45.60154" lon="2.79714">
        <ele>1370.1</ele>
        <time>2021-07-22T09:12:11Z</time>
      </trkpt>
      <trkpt lat="45.60165" lon="2.79723">
        <ele>1369.7</ele>
        <time>2021-07-22T09:12:23Z</time>
      </trkpt>
      <trkpt lat="45.60177" lon="2.79735">
        <ele>1368.1</ele>
        <time>2021-07-22T09:12:36Z</time>
      </trkpt>
      <trkpt lat="45.60187" lon="2.79746">
        <ele>1366.4</ele>
        <time>2021-07-22T09:12:48Z</time>
      </trkpt>
      <trkpt lat="45.602" lon="2.79757">
        <ele>1365.3</ele>
        <time>2021-07-22T09:13:02Z</time>
      </trkpt>
      <trkpt lat="45.60214" lon="2.79763">
        <ele>1364.7</ele>
        <time>2021-07-22T09:13:16Z</time>
      </trkpt>
      <trkpt lat="45.60225" lon="2.79767">
        <ele>1364.3</ele>
        <time>2021-07-22T09:13:28Z</time>
      </trkpt>
      <trkpt lat="45.60232" lon="2.79771">
        <ele>1363.6</ele>
        <time>2021-07-22T09:13:37Z</time>
      </trkpt>
      <trkpt lat="45.60239" lon="2.79782">
        <ele>1361.7</ele>
        <time>2021-07-22T09:13:48Z</time>
      </trkpt>
      <trkpt lat="45.60239" lon="2.79787">
        <ele>1360.7</ele>
        <time>2021-07-22T09:13:52Z</time>
      </trkpt>
      <trkpt lat="45.60241" lon="2.79796">
        <ele>1358.8</ele>
        <time>2021-07-22T09:13:59Z</time>
      </trkpt>
      <trkpt lat="45.60245" lon="2.79803">
        <ele>1357.3</ele>
        <time>2021-07-22T09:14:05Z</time>
      </trkpt>
      <trkpt lat="45.60249" lon="2.7982">
        <ele>1353.7</ele>
        <time>2021-07-22T09:14:17Z</time>
      </trkpt>
      <trkpt lat="45.60257" lon="2.79841">
        <ele>1349.6</ele>
        <time>2021-07-22T09:14:32Z</time>
      </trkpt>
      <trkpt lat="45.60262" lon="2.79859">
        <ele>1347.1</ele>
        <time>2021-07-22T09:14:45Z</time>
      </trkpt>
      <trkpt lat="45.60265" lon="2.79871">
        <ele>1345.6</ele>
        <time>2021-07-22T09:14:53Z</time>
      </trkpt>
      <trkpt lat="45.60271" lon="2.79892">
        <ele>1342.9</ele>
        <time>2021-07-22T09:15:07Z</time>
      </trkpt>
      <trkpt lat="45.60278" lon="2.79918">
        <ele>1339.9</ele>
        <time>2021-07-22T09:15:24Z</time>
      </trkpt>
      <trkpt lat="45.60281" lon="2.7993">
        <ele>1339.1</ele>
        <time>2021-07-22T09:15:33Z</time>
      </trkpt>
      <trkpt lat="45.60282" lon="2.79933">
        <ele>1339</ele>
        <time>2021-07-22T09:15:35Z</time>
      </trkpt>
      <trkpt lat="45.60295" lon="2.79952">
        <ele>1337.8</ele>
        <time>2021-07-22T09:15:52Z</time>
      </trkpt>
      <trkpt lat="45.60311" lon="2.79971">
        <ele>1336.8</ele>
        <time>2021-07-22T09:16:11Z</time>
      </trkpt>
      <trkpt lat="45.60318" lon="2.79979">
        <ele>1336.5</ele>
        <time>2021-07-22T09:16:19Z</time>
      </trkpt>
      <trkpt lat="45.60321" lon="2.79985">
        <ele>1336.3</ele>
        <time>2021-07-22T09:16:25Z</time>
      </trkpt>
      <trkpt lat="45.60321" lon="2.79986">
        <ele>1336.3</ele>
        <time>2021-07-22T09:16:26Z</time>
      </trkpt>
      <trkpt lat="45.60322" lon="2.79998">
        <ele>1335.9</ele>
        <time>2021-07-22T09:16:39Z</time>
      </trkpt>
      <trkpt lat="45.60316" lon="2.80005">
        <ele>1336</ele>
        <time>2021-07-22T09:16:48Z</time>
      </trkpt>
      <trkpt lat="45.60313" lon="2.8001">
        <ele>1336.2</ele>
        <time>2021-07-22T09:16:58Z</time>
      </trkpt>
      <trkpt lat="45.60306" lon="2.80021">
        <ele>1336.5</ele>
        <time>2021-07-22T09:17:11Z</time>
      </trkpt>
      <trkpt lat="45.60302" lon="2.80029">
        <ele>1336.7</ele>
        <time>2021-07-22T09:17:22Z</time>
      </trkpt>
      <trkpt lat="45.603" lon="2.80035">
        <ele>1336.9</ele>
        <time>2021-07-22T09:17:32Z</time>
      </trkpt>
      <trkpt lat="45.60302" lon="2.80038">
        <ele>1337</ele>
        <time>2021-07-22T09:17:41Z</time>
      </trkpt>
      <trkpt lat="45.60302" lon="2.80039">
        <ele>1337.1</ele>
        <time>2021-07-22T09:18:03Z</time>
      </trkpt>
      <trkpt lat="45.60306" lon="2.80036">
        <ele>1337.1</ele>
        <time>2021-07-22T09:18:13Z</time>
      </trkpt>
      <trkpt lat="45.60308" lon="2.80038">
        <ele>1337.3</ele>
        <time>2021-07-22T09:18:25Z</time>
      </trkpt>
      <trkpt lat="45.60311" lon="2.80043">
        <ele>1337.6</ele>
        <time>2021-07-22T09:18:29Z</time>
      </trkpt>
      <trkpt lat="45.6032" lon="2.80048">
        <ele>1338.3</ele>
        <time>2021-07-22T09:18:40Z</time>
      </trkpt>
      <trkpt lat="45.60324" lon="2.80048">
        <ele>1338.5</ele>
        <time>2021-07-22T09:18:44Z</time>
      </trkpt>
      <trkpt lat="45.60325" lon="2.80048">
        <ele>1338.5</ele>
        <time>2021-07-22T09:18:45Z</time>
      </trkpt>
      <trkpt lat="45.60342" lon="2.80048">
        <ele>1339.3</ele>
        <time>2021-07-22T09:19:02Z</time>
      </trkpt>
      <trkpt lat="45.60357" lon="2.80048">
        <ele>1339.8</ele>
        <time>2021-07-22T09:19:16Z</time>
      </trkpt>
      <trkpt lat="45.60371" lon="2.80053">
        <ele>1340.6</ele>
        <time>2021-07-22T09:19:31Z</time>
      </trkpt>
      <trkpt lat="45.60385" lon="2.8005">
        <ele>1341</ele>
        <time>2021-07-22T09:19:44Z</time>
      </trkpt>
      <trkpt lat="45.60398" lon="2.8005">
        <ele>1341.5</ele>
        <time>2021-07-22T09:19:57Z</time>
      </trkpt>
      <trkpt lat="45.60414" lon="2.80055">
        <ele>1342.5</ele>
        <time>2021-07-22T09:20:11Z</time>
      </trkpt>
      <trkpt lat="45.60432" lon="2.80062">
        <ele>1342.8</ele>
        <time>2021-07-22T09:20:28Z</time>
      </trkpt>
      <trkpt lat="45.60451" lon="2.80071">
        <ele>1342.8</ele>
        <time>2021-07-22T09:20:45Z</time>
      </trkpt>
      <trkpt lat="45.60468" lon="2.80083">
        <ele>1343.1</ele>
        <time>2021-07-22T09:21:01Z</time>
      </trkpt>
      <trkpt lat="45.60483" lon="2.80093">
        <ele>1343.2</ele>
        <time>2021-07-22T09:21:16Z</time>
      </trkpt>
      <trkpt lat="45.60501" lon="2.80108">
        <ele>1343.2</ele>
        <time>2021-07-22T09:21:33Z</time>
      </trkpt>
      <trkpt lat="45.60515" lon="2.80128">
        <ele>1343.1</ele>
        <time>2021-07-22T09:21:50Z</time>
      </trkpt>
      <trkpt lat="45.60528" lon="2.80148">
        <ele>1343</ele>
        <time>2021-07-22T09:22:06Z</time>
      </trkpt>
      <trkpt lat="45.60538" lon="2.80172">
        <ele>1343.2</ele>
        <time>2021-07-22T09:22:23Z</time>
      </trkpt>
      <trkpt lat="45.60542" lon="2.80178">
        <ele>1343.1</ele>
        <time>2021-07-22T09:22:28Z</time>
      </trkpt>
      <trkpt lat="45.60542" lon="2.80179">
        <ele>1343.2</ele>
        <time>2021-07-22T09:22:29Z</time>
      </trkpt>
      <trkpt lat="45.60543" lon="2.8018">
        <ele>1343.2</ele>
        <time>2021-07-22T09:22:30Z</time>
      </trkpt>
      <trkpt lat="45.60555" lon="2.80198">
        <ele>1343</ele>
        <time>2021-07-22T09:22:45Z</time>
      </trkpt>
      <trkpt lat="45.60566" lon="2.80218">
        <ele>1342.8</ele>
        <time>2021-07-22T09:23:00Z</time>
      </trkpt>
      <trkpt lat="45.60578" lon="2.80238">
        <ele>1342.3</ele>
        <time>2021-07-22T09:23:15Z</time>
      </trkpt>
      <trkpt lat="45.60589" lon="2.80256">
        <ele>1341.7</ele>
        <time>2021-07-22T09:23:28Z</time>
      </trkpt>
      <trkpt lat="45.60599" lon="2.80272">
        <ele>1341.4</ele>
        <time>2021-07-22T09:23:43Z</time>
      </trkpt>
      <trkpt lat="45.606" lon="2.80273">
        <ele>1341.4</ele>
        <time>2021-07-22T09:23:44Z</time>
      </trkpt>
      <trkpt lat="45.606" lon="2.80275">
        <ele>1341.3</ele>
        <time>2021-07-22T09:23:45Z</time>
      </trkpt>
      <trkpt lat="45.60601" lon="2.80276">
        <ele>1341.3</ele>
        <time>2021-07-22T09:23:46Z</time>
      </trkpt>
      <trkpt lat="45.60602" lon="2.80278">
        <ele>1341.3</ele>
        <time>2021-07-22T09:23:47Z</time>
      </trkpt>
      <trkpt lat="45.60603" lon="2.80279">
        <ele>1341.3</ele>
        <time>2021-07-22T09:23:48Z</time>
      </trkpt>
      <trkpt lat="45.60611" lon="2.80302">
        <ele>1341.1</ele>
        <time>2021-07-22T09:24:03Z</time>
      </trkpt>
      <trkpt lat="45.60617" lon="2.80322">
        <ele>1341</ele>
        <time>2021-07-22T09:24:16Z</time>
      </trkpt>
      <trkpt lat="45.60622" lon="2.80345">
        <ele>1341.2</ele>
        <time>2021-07-22T09:24:30Z</time>
      </trkpt>
      <trkpt lat="45.60626" lon="2.8037">
        <ele>1341.2</ele>
        <time>2021-07-22T09:24:45Z</time>
      </trkpt>
      <trkpt lat="45.6063" lon="2.80393">
        <ele>1341.3</ele>
        <time>2021-07-22T09:24:59Z</time>
      </trkpt>
      <trkpt lat="45.60629" lon="2.80408">
        <ele>1341.7</ele>
        <time>2021-07-22T09:25:10Z</time>
      </trkpt>
      <trkpt lat="45.60629" lon="2.80423">
        <ele>1341.9</ele>
        <time>2021-07-22T09:25:21Z</time>
      </trkpt>
      <trkpt lat="45.60629" lon="2.80424">
        <ele>1341.9</ele>
        <time>2021-07-22T09:25:22Z</time>
      </trkpt>
      <trkpt lat="45.60629" lon="2.80426">
        <ele>1341.9</ele>
        <time>2021-07-22T09:25:23Z</time>
      </trkpt>
      <trkpt lat="45.60629" lon="2.80446">
        <ele>1341.6</ele>
        <time>2021-07-22T09:25:36Z</time>
      </trkpt>
      <trkpt lat="45.60629" lon="2.80447">
        <ele>1341.6</ele>
        <time>2021-07-22T09:25:37Z</time>
      </trkpt>
      <trkpt lat="45.60629" lon="2.80449">
        <ele>1341.7</ele>
        <time>2021-07-22T09:25:38Z</time>
      </trkpt>
      <trkpt lat="45.60629" lon="2.8045">
        <ele>1341.7</ele>
        <time>2021-07-22T09:25:39Z</time>
      </trkpt>
      <trkpt lat="45.60628" lon="2.80452">
        <ele>1341.7</ele>
        <time>2021-07-22T09:25:48Z</time>
      </trkpt>
      <trkpt lat="45.60627" lon="2.80462">
        <ele>1341.9</ele>
        <time>2021-07-22T09:25:54Z</time>
      </trkpt>
      <trkpt lat="45.60627" lon="2.80463">
        <ele>1342</ele>
        <time>2021-07-22T09:25:55Z</time>
      </trkpt>
      <trkpt lat="45.60626" lon="2.80464">
        <ele>1342.1</ele>
        <time>2021-07-22T09:25:56Z</time>
      </trkpt>
      <trkpt lat="45.60625" lon="2.80466">
        <ele>1342.1</ele>
        <time>2021-07-22T09:25:57Z</time>
      </trkpt>
      <trkpt lat="45.60625" lon="2.80467">
        <ele>1342.2</ele>
        <time>2021-07-22T09:25:58Z</time>
      </trkpt>
      <trkpt lat="45.60625" lon="2.80469">
        <ele>1342.2</ele>
        <time>2021-07-22T09:25:59Z</time>
      </trkpt>
      <trkpt lat="45.60625" lon="2.8047">
        <ele>1342.2</ele>
        <time>2021-07-22T09:26:00Z</time>
      </trkpt>
      <trkpt lat="45.60625" lon="2.80472">
        <ele>1342.2</ele>
        <time>2021-07-22T09:26:01Z</time>
      </trkpt>
      <trkpt lat="45.60625" lon="2.80474">
        <ele>1342.2</ele>
        <time>2021-07-22T09:26:02Z</time>
      </trkpt>
      <trkpt lat="45.60623" lon="2.80486">
        <ele>1342.5</ele>
        <time>2021-07-22T09:26:11Z</time>
      </trkpt>
      <trkpt lat="45.60616" lon="2.80506">
        <ele>1343.2</ele>
        <time>2021-07-22T09:26:24Z</time>
      </trkpt>
      <trkpt lat="45.60613" lon="2.80525">
        <ele>1342.3</ele>
        <time>2021-07-22T09:26:35Z</time>
      </trkpt>
      <trkpt lat="45.60613" lon="2.80527">
        <ele>1342.2</ele>
        <time>2021-07-22T09:26:36Z</time>
      </trkpt>
      <trkpt lat="45.60612" lon="2.80528">
        <ele>1342.1</ele>
        <time>2021-07-22T09:26:37Z</time>
      </trkpt>
      <trkpt lat="45.60612" lon="2.8053">
        <ele>1342</ele>
        <time>2021-07-22T09:26:38Z</time>
      </trkpt>
      <trkpt lat="45.60611" lon="2.80532">
        <ele>1342</ele>
        <time>2021-07-22T09:26:39Z</time>
      </trkpt>
      <trkpt lat="45.60609" lon="2.80543">
        <ele>1341.4</ele>
        <time>2021-07-22T09:26:46Z</time>
      </trkpt>
      <trkpt lat="45.60609" lon="2.80544">
        <ele>1341.3</ele>
        <time>2021-07-22T09:26:47Z</time>
      </trkpt>
      <trkpt lat="45.60608" lon="2.80546">
        <ele>1341.2</ele>
        <time>2021-07-22T09:26:48Z</time>
      </trkpt>
      <trkpt lat="45.60604" lon="2.80562">
        <ele>1340.4</ele>
        <time>2021-07-22T09:27:01Z</time>
      </trkpt>
      <trkpt lat="45.60603" lon="2.80573">
        <ele>1339.5</ele>
        <time>2021-07-22T09:27:09Z</time>
      </trkpt>
      <trkpt lat="45.60603" lon="2.8058">
        <ele>1338.9</ele>
        <time>2021-07-22T09:27:14Z</time>
      </trkpt>
      <trkpt lat="45.60603" lon="2.80581">
        <ele>1338.8</ele>
        <time>2021-07-22T09:27:15Z</time>
      </trkpt>
      <trkpt lat="45.60602" lon="2.80591">
        <ele>1338.7</ele>
        <time>2021-07-22T09:27:25Z</time>
      </trkpt>
      <trkpt lat="45.60603" lon="2.80597">
        <ele>1338.5</ele>
        <time>2021-07-22T09:27:30Z</time>
      </trkpt>
      <trkpt lat="45.60603" lon="2.80599">
        <ele>1338.4</ele>
        <time>2021-07-22T09:27:31Z</time>
      </trkpt>
      <trkpt lat="45.60601" lon="2.80619">
        <ele>1338.3</ele>
        <time>2021-07-22T09:27:44Z</time>
      </trkpt>
      <trkpt lat="45.60598" lon="2.80637">
        <ele>1338.2</ele>
        <time>2021-07-22T09:27:56Z</time>
      </trkpt>
      <trkpt lat="45.60598" lon="2.80644">
        <ele>1338.2</ele>
        <time>2021-07-22T09:28:01Z</time>
      </trkpt>
      <trkpt lat="45.60598" lon="2.80646">
        <ele>1338.1</ele>
        <time>2021-07-22T09:28:02Z</time>
      </trkpt>
      <trkpt lat="45.60598" lon="2.80647">
        <ele>1338.1</ele>
        <time>2021-07-22T09:28:03Z</time>
      </trkpt>
      <trkpt lat="45.606" lon="2.80669">
        <ele>1337.6</ele>
        <time>2021-07-22T09:28:16Z</time>
      </trkpt>
      <trkpt lat="45.60598" lon="2.80691">
        <ele>1337.7</ele>
        <time>2021-07-22T09:28:29Z</time>
      </trkpt>
      <trkpt lat="45.60594" lon="2.80711">
        <ele>1337.9</ele>
        <time>2021-07-22T09:28:42Z</time>
      </trkpt>
      <trkpt lat="45.60594" lon="2.80712">
        <ele>1338</ele>
        <time>2021-07-22T09:28:43Z</time>
      </trkpt>
      <trkpt lat="45.60593" lon="2.80714">
        <ele>1338</ele>
        <time>2021-07-22T09:28:44Z</time>
      </trkpt>
      <trkpt lat="45.60593" lon="2.80715">
        <ele>1338.1</ele>
        <time>2021-07-22T09:28:45Z</time>
      </trkpt>
      <trkpt lat="45.60589" lon="2.80731">
        <ele>1338.4</ele>
        <time>2021-07-22T09:28:55Z</time>
      </trkpt>
      <trkpt lat="45.60588" lon="2.80732">
        <ele>1338.5</ele>
        <time>2021-07-22T09:28:56Z</time>
      </trkpt>
      <trkpt lat="45.60588" lon="2.80733">
        <ele>1338.5</ele>
        <time>2021-07-22T09:28:57Z</time>
      </trkpt>
      <trkpt lat="45.60588" lon="2.80735">
        <ele>1338.5</ele>
        <time>2021-07-22T09:28:58Z</time>
      </trkpt>
      <trkpt lat="45.60587" lon="2.80736">
        <ele>1338.6</ele>
        <time>2021-07-22T09:28:59Z</time>
      </trkpt>
      <trkpt lat="45.60586" lon="2.80742">
        <ele>1338.7</ele>
        <time>2021-07-22T09:29:03Z</time>
      </trkpt>
      <trkpt lat="45.60585" lon="2.80754">
        <ele>1338.9</ele>
        <time>2021-07-22T09:29:12Z</time>
      </trkpt>
      <trkpt lat="45.60584" lon="2.80756">
        <ele>1338.9</ele>
        <time>2021-07-22T09:29:13Z</time>
      </trkpt>
      <trkpt lat="45.60584" lon="2.8076">
        <ele>1339</ele>
        <time>2021-07-22T09:29:16Z</time>
      </trkpt>
      <trkpt lat="45.60583" lon="2.80765">
        <ele>1339.2</ele>
        <time>2021-07-22T09:29:21Z</time>
      </trkpt>
      <trkpt lat="45.60588" lon="2.80769">
        <ele>1338.7</ele>
        <time>2021-07-22T09:29:29Z</time>
      </trkpt>
      <trkpt lat="45.60595" lon="2.80779">
        <ele>1338.1</ele>
        <time>2021-07-22T09:29:39Z</time>
      </trkpt>
      <trkpt lat="45.60603" lon="2.80798">
        <ele>1337.3</ele>
        <time>2021-07-22T09:29:53Z</time>
      </trkpt>
      <trkpt lat="45.60607" lon="2.80809">
        <ele>1337</ele>
        <time>2021-07-22T09:30:01Z</time>
      </trkpt>
      <trkpt lat="45.60607" lon="2.80811">
        <ele>1337</ele>
        <time>2021-07-22T09:30:02Z</time>
      </trkpt>
      <trkpt lat="45.60608" lon="2.80813">
        <ele>1336.9</ele>
        <time>2021-07-22T09:30:03Z</time>
      </trkpt>
      <trkpt lat="45.60608" lon="2.80814">
        <ele>1336.8</ele>
        <time>2021-07-22T09:30:04Z</time>
      </trkpt>
      <trkpt lat="45.60609" lon="2.80816">
        <ele>1336.8</ele>
        <time>2021-07-22T09:30:05Z</time>
      </trkpt>
      <trkpt lat="45.60609" lon="2.80817">
        <ele>1336.7</ele>
        <time>2021-07-22T09:30:06Z</time>
      </trkpt>
      <trkpt lat="45.6061" lon="2.80819">
        <ele>1336.7</ele>
        <time>2021-07-22T09:30:07Z</time>
      </trkpt>
      <trkpt lat="45.6061" lon="2.8082">
        <ele>1336.7</ele>
        <time>2021-07-22T09:30:08Z</time>
      </trkpt>
      <trkpt lat="45.60618" lon="2.80845">
        <ele>1336.1</ele>
        <time>2021-07-22T09:30:24Z</time>
      </trkpt>
      <trkpt lat="45.60625" lon="2.80865">
        <ele>1335.8</ele>
        <time>2021-07-22T09:30:37Z</time>
      </trkpt>
      <trkpt lat="45.6063" lon="2.80885">
        <ele>1335.7</ele>
        <time>2021-07-22T09:30:50Z</time>
      </trkpt>
      <trkpt lat="45.60634" lon="2.80905">
        <ele>1335.8</ele>
        <time>2021-07-22T09:31:03Z</time>
      </trkpt>
      <trkpt lat="45.60634" lon="2.80907">
        <ele>1335.8</ele>
        <time>2021-07-22T09:31:04Z</time>
      </trkpt>
      <trkpt lat="45.60634" lon="2.80926">
        <ele>1336.4</ele>
        <time>2021-07-22T09:31:16Z</time>
      </trkpt>
      <trkpt lat="45.60635" lon="2.80949">
        <ele>1336.8</ele>
        <time>2021-07-22T09:31:30Z</time>
      </trkpt>
      <trkpt lat="45.60638" lon="2.80972">
        <ele>1337.1</ele>
        <time>2021-07-22T09:31:43Z</time>
      </trkpt>
      <trkpt lat="45.60638" lon="2.80973">
        <ele>1337.1</ele>
        <time>2021-07-22T09:31:44Z</time>
      </trkpt>
      <trkpt lat="45.6064" lon="2.80992">
        <ele>1337.4</ele>
        <time>2021-07-22T09:31:55Z</time>
      </trkpt>
      <trkpt lat="45.60641" lon="2.81013">
        <ele>1337.8</ele>
        <time>2021-07-22T09:32:09Z</time>
      </trkpt>
      <trkpt lat="45.60641" lon="2.81034">
        <ele>1338.3</ele>
        <time>2021-07-22T09:32:22Z</time>
      </trkpt>
      <trkpt lat="45.60639" lon="2.81053">
        <ele>1338.9</ele>
        <time>2021-07-22T09:32:34Z</time>
      </trkpt>
      <trkpt lat="45.60634" lon="2.81074">
        <ele>1339.8</ele>
        <time>2021-07-22T09:32:48Z</time>
      </trkpt>
      <trkpt lat="45.60626" lon="2.81091">
        <ele>1340.6</ele>
        <time>2021-07-22T09:33:01Z</time>
      </trkpt>
      <trkpt lat="45.60613" lon="2.81109">
        <ele>1341.8</ele>
        <time>2021-07-22T09:33:17Z</time>
      </trkpt>
      <trkpt lat="45.60603" lon="2.81127">
        <ele>1342.6</ele>
        <time>2021-07-22T09:33:31Z</time>
      </trkpt>
      <trkpt lat="45.60603" lon="2.81128">
        <ele>1342.6</ele>
        <time>2021-07-22T09:33:32Z</time>
      </trkpt>
      <trkpt lat="45.60598" lon="2.81134">
        <ele>1342.9</ele>
        <time>2021-07-22T09:33:37Z</time>
      </trkpt>
      <trkpt lat="45.60597" lon="2.81135">
        <ele>1343</ele>
        <time>2021-07-22T09:33:38Z</time>
      </trkpt>
      <trkpt lat="45.60595" lon="2.81137">
        <ele>1343.1</ele>
        <time>2021-07-22T09:33:40Z</time>
      </trkpt>
      <trkpt lat="45.60593" lon="2.81139">
        <ele>1343.2</ele>
        <time>2021-07-22T09:33:42Z</time>
      </trkpt>
      <trkpt lat="45.60583" lon="2.81154">
        <ele>1343.8</ele>
        <time>2021-07-22T09:33:56Z</time>
      </trkpt>
      <trkpt lat="45.60574" lon="2.81168">
        <ele>1343.6</ele>
        <time>2021-07-22T09:34:09Z</time>
      </trkpt>
      <trkpt lat="45.6056" lon="2.81181">
        <ele>1342.9</ele>
        <time>2021-07-22T09:34:23Z</time>
      </trkpt>
      <trkpt lat="45.60558" lon="2.81185">
        <ele>1342.8</ele>
        <time>2021-07-22T09:34:26Z</time>
      </trkpt>
      <trkpt lat="45.60561" lon="2.81204">
        <ele>1342.9</ele>
        <time>2021-07-22T09:34:39Z</time>
      </trkpt>
      <trkpt lat="45.6057" lon="2.81224">
        <ele>1343.4</ele>
        <time>2021-07-22T09:34:54Z</time>
      </trkpt>
      <trkpt lat="45.60575" lon="2.81242">
        <ele>1343.6</ele>
        <time>2021-07-22T09:35:08Z</time>
      </trkpt>
      <trkpt lat="45.60575" lon="2.81243">
        <ele>1343.6</ele>
        <time>2021-07-22T09:35:11Z</time>
      </trkpt>
      <trkpt lat="45.60575" lon="2.81244">
        <ele>1343.6</ele>
        <time>2021-07-22T09:35:22Z</time>
      </trkpt>
      <trkpt lat="45.60573" lon="2.81251">
        <ele>1343.5</ele>
        <time>2021-07-22T09:35:44Z</time>
      </trkpt>
      <trkpt lat="45.60573" lon="2.8127">
        <ele>1343.9</ele>
        <time>2021-07-22T09:35:58Z</time>
      </trkpt>
      <trkpt lat="45.60573" lon="2.81295">
        <ele>1344.4</ele>
        <time>2021-07-22T09:36:14Z</time>
      </trkpt>
      <trkpt lat="45.60572" lon="2.81316">
        <ele>1344.8</ele>
        <time>2021-07-22T09:36:28Z</time>
      </trkpt>
      <trkpt lat="45.60573" lon="2.81333">
        <ele>1345.2</ele>
        <time>2021-07-22T09:36:41Z</time>
      </trkpt>
      <trkpt lat="45.60573" lon="2.81351">
        <ele>1346.7</ele>
        <time>2021-07-22T09:36:55Z</time>
      </trkpt>
      <trkpt lat="45.60573" lon="2.8137">
        <ele>1348.2</ele>
        <time>2021-07-22T09:37:08Z</time>
      </trkpt>
      <trkpt lat="45.60573" lon="2.81392">
        <ele>1349.8</ele>
        <time>2021-07-22T09:37:25Z</time>
      </trkpt>
      <trkpt lat="45.60572" lon="2.81408">
        <ele>1351</ele>
        <time>2021-07-22T09:37:37Z</time>
      </trkpt>
      <trkpt lat="45.60572" lon="2.81421">
        <ele>1352</ele>
        <time>2021-07-22T09:37:49Z</time>
      </trkpt>
      <trkpt lat="45.60573" lon="2.81433">
        <ele>1352.7</ele>
        <time>2021-07-22T09:38:00Z</time>
      </trkpt>
      <trkpt lat="45.60572" lon="2.81441">
        <ele>1353</ele>
        <time>2021-07-22T09:38:09Z</time>
      </trkpt>
      <trkpt lat="45.60573" lon="2.81446">
        <ele>1353.3</ele>
        <time>2021-07-22T09:38:18Z</time>
      </trkpt>
      <trkpt lat="45.60574" lon="2.81455">
        <ele>1353.9</ele>
        <time>2021-07-22T09:38:28Z</time>
      </trkpt>
      <trkpt lat="45.60574" lon="2.81473">
        <ele>1354.8</ele>
        <time>2021-07-22T09:38:42Z</time>
      </trkpt>
      <trkpt lat="45.60574" lon="2.8148">
        <ele>1355.1</ele>
        <time>2021-07-22T09:38:47Z</time>
      </trkpt>
      <trkpt lat="45.60574" lon="2.81498">
        <ele>1356</ele>
        <time>2021-07-22T09:38:59Z</time>
      </trkpt>
      <trkpt lat="45.60574" lon="2.815">
        <ele>1356.1</ele>
        <time>2021-07-22T09:39:01Z</time>
      </trkpt>
      <trkpt lat="45.60574" lon="2.81501">
        <ele>1356.1</ele>
        <time>2021-07-22T09:39:02Z</time>
      </trkpt>
      <trkpt lat="45.60574" lon="2.81502">
        <ele>1356.1</ele>
        <time>2021-07-22T09:39:04Z</time>
      </trkpt>
      <trkpt lat="45.60575" lon="2.81502">
        <ele>1356.1</ele>
        <time>2021-07-22T09:39:05Z</time>
      </trkpt>
      <trkpt lat="45.60575" lon="2.81506">
        <ele>1356.1</ele>
        <time>2021-07-22T09:39:16Z</time>
      </trkpt>
      <trkpt lat="45.60574" lon="2.81508">
        <ele>1356.1</ele>
        <time>2021-07-22T09:39:18Z</time>
      </trkpt>
      <trkpt lat="45.60573" lon="2.81522">
        <ele>1355.8</ele>
        <time>2021-07-22T09:39:29Z</time>
      </trkpt>
      <trkpt lat="45.60573" lon="2.81536">
        <ele>1355.7</ele>
        <time>2021-07-22T09:39:39Z</time>
      </trkpt>
      <trkpt lat="45.60573" lon="2.81558">
        <ele>1355.6</ele>
        <time>2021-07-22T09:39:53Z</time>
      </trkpt>
      <trkpt lat="45.60573" lon="2.81559">
        <ele>1355.6</ele>
        <time>2021-07-22T09:39:54Z</time>
      </trkpt>
      <trkpt lat="45.60572" lon="2.81565">
        <ele>1355.5</ele>
        <time>2021-07-22T09:40:08Z</time>
      </trkpt>
      <trkpt lat="45.60572" lon="2.81566">
        <ele>1355.5</ele>
        <time>2021-07-22T09:40:09Z</time>
      </trkpt>
      <trkpt lat="45.60573" lon="2.81574">
        <ele>1355.5</ele>
        <time>2021-07-22T09:40:15Z</time>
      </trkpt>
      <trkpt lat="45.60573" lon="2.81593">
        <ele>1354.5</ele>
        <time>2021-07-22T09:40:28Z</time>
      </trkpt>
      <trkpt lat="45.60573" lon="2.81615">
        <ele>1352.5</ele>
        <time>2021-07-22T09:40:42Z</time>
      </trkpt>
      <trkpt lat="45.60573" lon="2.8164">
        <ele>1350.4</ele>
        <time>2021-07-22T09:40:57Z</time>
      </trkpt>
      <trkpt lat="45.60572" lon="2.81647">
        <ele>1349.7</ele>
        <time>2021-07-22T09:41:08Z</time>
      </trkpt>
      <trkpt lat="45.60571" lon="2.8166">
        <ele>1348.6</ele>
        <time>2021-07-22T09:41:21Z</time>
      </trkpt>
      <trkpt lat="45.60573" lon="2.81669">
        <ele>1347.6</ele>
        <time>2021-07-22T09:41:32Z</time>
      </trkpt>
      <trkpt lat="45.60571" lon="2.81682">
        <ele>1345.8</ele>
        <time>2021-07-22T09:41:42Z</time>
      </trkpt>
      <trkpt lat="45.60571" lon="2.8169">
        <ele>1344.6</ele>
        <time>2021-07-22T09:41:49Z</time>
      </trkpt>
      <trkpt lat="45.60572" lon="2.81695">
        <ele>1343.9</ele>
        <time>2021-07-22T09:42:03Z</time>
      </trkpt>
      <trkpt lat="45.60572" lon="2.81697">
        <ele>1343.6</ele>
        <time>2021-07-22T09:42:22Z</time>
      </trkpt>
      <trkpt lat="45.6057" lon="2.81702">
        <ele>1342.9</ele>
        <time>2021-07-22T09:42:35Z</time>
      </trkpt>
      <trkpt lat="45.60571" lon="2.81708">
        <ele>1341.9</ele>
        <time>2021-07-22T09:42:47Z</time>
      </trkpt>
      <trkpt lat="45.60572" lon="2.81711">
        <ele>1341.5</ele>
        <time>2021-07-22T09:42:57Z</time>
      </trkpt>
      <trkpt lat="45.60569" lon="2.81718">
        <ele>1340.6</ele>
        <time>2021-07-22T09:43:10Z</time>
      </trkpt>
      <trkpt lat="45.60569" lon="2.81726">
        <ele>1339.3</ele>
        <time>2021-07-22T09:43:21Z</time>
      </trkpt>
      <trkpt lat="45.60569" lon="2.81737">
        <ele>1337.8</ele>
        <time>2021-07-22T09:43:34Z</time>
      </trkpt>
      <trkpt lat="45.60576" lon="2.81742">
        <ele>1337.1</ele>
        <time>2021-07-22T09:43:49Z</time>
      </trkpt>
      <trkpt lat="45.60574" lon="2.81749">
        <ele>1336</ele>
        <time>2021-07-22T09:44:00Z</time>
      </trkpt>
      <trkpt lat="45.60569" lon="2.81759">
        <ele>1334</ele>
        <time>2021-07-22T09:44:12Z</time>
      </trkpt>
      <trkpt lat="45.60568" lon="2.81767">
        <ele>1332.2</ele>
        <time>2021-07-22T09:44:22Z</time>
      </trkpt>
      <trkpt lat="45.60567" lon="2.81776">
        <ele>1330.2</ele>
        <time>2021-07-22T09:44:33Z</time>
      </trkpt>
      <trkpt lat="45.60569" lon="2.81787">
        <ele>1328</ele>
        <time>2021-07-22T09:44:44Z</time>
      </trkpt>
      <trkpt lat="45.60573" lon="2.81796">
        <ele>1326.3</ele>
        <time>2021-07-22T09:44:55Z</time>
      </trkpt>
      <trkpt lat="45.60575" lon="2.81808">
        <ele>1323.9</ele>
        <time>2021-07-22T09:45:07Z</time>
      </trkpt>
      <trkpt lat="45.6057" lon="2.81814">
        <ele>1322.5</ele>
        <time>2021-07-22T09:45:18Z</time>
      </trkpt>
      <trkpt lat="45.60571" lon="2.81817">
        <ele>1321.8</ele>
        <time>2021-07-22T09:45:20Z</time>
      </trkpt>
      <trkpt lat="45.60571" lon="2.8183">
        <ele>1319.2</ele>
        <time>2021-07-22T09:45:29Z</time>
      </trkpt>
      <trkpt lat="45.60571" lon="2.81836">
        <ele>1318.1</ele>
        <time>2021-07-22T09:45:37Z</time>
      </trkpt>
      <trkpt lat="45.60569" lon="2.81845">
        <ele>1316.8</ele>
        <time>2021-07-22T09:45:46Z</time>
      </trkpt>
      <trkpt lat="45.60566" lon="2.81855">
        <ele>1315.2</ele>
        <time>2021-07-22T09:45:57Z</time>
      </trkpt>
      <trkpt lat="45.60566" lon="2.81857">
        <ele>1314.9</ele>
        <time>2021-07-22T09:45:59Z</time>
      </trkpt>
      <trkpt lat="45.60566" lon="2.81863">
        <ele>1314</ele>
        <time>2021-07-22T09:46:10Z</time>
      </trkpt>
      <trkpt lat="45.60566" lon="2.8188">
        <ele>1311.8</ele>
        <time>2021-07-22T09:46:19Z</time>
      </trkpt>
      <trkpt lat="45.60565" lon="2.81882">
        <ele>1311.5</ele>
        <time>2021-07-22T09:46:20Z</time>
      </trkpt>
      <trkpt lat="45.60565" lon="2.81883">
        <ele>1311.3</ele>
        <time>2021-07-22T09:46:21Z</time>
      </trkpt>
      <trkpt lat="45.60565" lon="2.81894">
        <ele>1309.8</ele>
        <time>2021-07-22T09:46:28Z</time>
      </trkpt>
      <trkpt lat="45.60565" lon="2.81898">
        <ele>1309.2</ele>
        <time>2021-07-22T09:46:35Z</time>
      </trkpt>
      <trkpt lat="45.60566" lon="2.81917">
        <ele>1306.7</ele>
        <time>2021-07-22T09:46:49Z</time>
      </trkpt>
      <trkpt lat="45.60568" lon="2.81937">
        <ele>1305.1</ele>
        <time>2021-07-22T09:47:02Z</time>
      </trkpt>
      <trkpt lat="45.60567" lon="2.81952">
        <ele>1303.6</ele>
        <time>2021-07-22T09:47:15Z</time>
      </trkpt>
      <trkpt lat="45.60567" lon="2.81969">
        <ele>1302.1</ele>
        <time>2021-07-22T09:47:29Z</time>
      </trkpt>
      <trkpt lat="45.60566" lon="2.81976">
        <ele>1301.3</ele>
        <time>2021-07-22T09:47:33Z</time>
      </trkpt>
      <trkpt lat="45.60568" lon="2.81986">
        <ele>1300.6</ele>
        <time>2021-07-22T09:47:39Z</time>
      </trkpt>
      <trkpt lat="45.60568" lon="2.81989">
        <ele>1300.3</ele>
        <time>2021-07-22T09:47:41Z</time>
      </trkpt>
      <trkpt lat="45.60569" lon="2.82">
        <ele>1299.5</ele>
        <time>2021-07-22T09:47:50Z</time>
      </trkpt>
      <trkpt lat="45.60571" lon="2.82006">
        <ele>1299.2</ele>
        <time>2021-07-22T09:47:55Z</time>
      </trkpt>
      <trkpt lat="45.6057" lon="2.82026">
        <ele>1297.6</ele>
        <time>2021-07-22T09:48:10Z</time>
      </trkpt>
      <trkpt lat="45.60571" lon="2.82031">
        <ele>1297.4</ele>
        <time>2021-07-22T09:48:14Z</time>
      </trkpt>
      <trkpt lat="45.60573" lon="2.82051">
        <ele>1296.3</ele>
        <time>2021-07-22T09:48:27Z</time>
      </trkpt>
      <trkpt lat="45.60573" lon="2.82076">
        <ele>1294.4</ele>
        <time>2021-07-22T09:48:42Z</time>
      </trkpt>
      <trkpt lat="45.60573" lon="2.821">
        <ele>1293.3</ele>
        <time>2021-07-22T09:48:57Z</time>
      </trkpt>
      <trkpt lat="45.60573" lon="2.82124">
        <ele>1292.3</ele>
        <time>2021-07-22T09:49:12Z</time>
      </trkpt>
      <trkpt lat="45.60574" lon="2.8213">
        <ele>1292.2</ele>
        <time>2021-07-22T09:49:22Z</time>
      </trkpt>
      <trkpt lat="45.60573" lon="2.8213">
        <ele>1292.1</ele>
        <time>2021-07-22T09:49:47Z</time>
      </trkpt>
      <trkpt lat="45.60573" lon="2.8213">
        <ele>1292.1</ele>
        <time>2021-07-22T09:49:50Z</time>
      </trkpt>
      <trkpt lat="45.60577" lon="2.82132">
        <ele>1292.4</ele>
        <time>2021-07-22T09:50:06Z</time>
      </trkpt>
      <trkpt lat="45.60575" lon="2.82135">
        <ele>1292.1</ele>
        <time>2021-07-22T09:50:22Z</time>
      </trkpt>
      <trkpt lat="45.60578" lon="2.82135">
        <ele>1292.5</ele>
        <time>2021-07-22T09:50:46Z</time>
      </trkpt>
      <trkpt lat="45.60577" lon="2.82133">
        <ele>1292.5</ele>
        <time>2021-07-22T09:51:04Z</time>
      </trkpt>
      <trkpt lat="45.60579" lon="2.82136">
        <ele>1292.6</ele>
        <time>2021-07-22T09:51:10Z</time>
      </trkpt>
      <trkpt lat="45.60584" lon="2.82141">
        <ele>1293</ele>
        <time>2021-07-22T09:51:21Z</time>
      </trkpt>
      <trkpt lat="45.60592" lon="2.82154">
        <ele>1292.9</ele>
        <time>2021-07-22T09:51:33Z</time>
      </trkpt>
      <trkpt lat="45.60601" lon="2.82164">
        <ele>1292.9</ele>
        <time>2021-07-22T09:51:44Z</time>
      </trkpt>
      <trkpt lat="45.6061" lon="2.82178">
        <ele>1292.8</ele>
        <time>2021-07-22T09:51:56Z</time>
      </trkpt>
      <trkpt lat="45.60619" lon="2.82189">
        <ele>1292.7</ele>
        <time>2021-07-22T09:52:08Z</time>
      </trkpt>
      <trkpt lat="45.60628" lon="2.82195">
        <ele>1292.7</ele>
        <time>2021-07-22T09:52:17Z</time>
      </trkpt>
      <trkpt lat="45.60639" lon="2.82198">
        <ele>1292.9</ele>
        <time>2021-07-22T09:52:24Z</time>
      </trkpt>
      <trkpt lat="45.60657" lon="2.82205">
        <ele>1293</ele>
        <time>2021-07-22T09:52:36Z</time>
      </trkpt>
      <trkpt lat="45.60669" lon="2.82206">
        <ele>1293.1</ele>
        <time>2021-07-22T09:52:45Z</time>
      </trkpt>
      <trkpt lat="45.60684" lon="2.82205">
        <ele>1292.3</ele>
        <time>2021-07-22T09:52:55Z</time>
      </trkpt>
      <trkpt lat="45.60694" lon="2.82208">
        <ele>1291.6</ele>
        <time>2021-07-22T09:53:05Z</time>
      </trkpt>
      <trkpt lat="45.60705" lon="2.82213">
        <ele>1290.5</ele>
        <time>2021-07-22T09:53:15Z</time>
      </trkpt>
      <trkpt lat="45.60718" lon="2.82219">
        <ele>1289.2</ele>
        <time>2021-07-22T09:53:25Z</time>
      </trkpt>
      <trkpt lat="45.60734" lon="2.82222">
        <ele>1288</ele>
        <time>2021-07-22T09:53:36Z</time>
      </trkpt>
      <trkpt lat="45.60751" lon="2.82225">
        <ele>1286.5</ele>
        <time>2021-07-22T09:53:49Z</time>
      </trkpt>
      <trkpt lat="45.60757" lon="2.82228">
        <ele>1285.6</ele>
        <time>2021-07-22T09:53:55Z</time>
      </trkpt>
      <trkpt lat="45.60758" lon="2.82228">
        <ele>1285.4</ele>
        <time>2021-07-22T09:53:56Z</time>
      </trkpt>
      <trkpt lat="45.60759" lon="2.82228">
        <ele>1285.3</ele>
        <time>2021-07-22T09:53:57Z</time>
      </trkpt>
      <trkpt lat="45.60761" lon="2.82228">
        <ele>1285.1</ele>
        <time>2021-07-22T09:53:58Z</time>
      </trkpt>
      <trkpt lat="45.60766" lon="2.82225">
        <ele>1284.9</ele>
        <time>2021-07-22T09:54:01Z</time>
      </trkpt>
      <trkpt lat="45.6077" lon="2.82225">
        <ele>1284.4</ele>
        <time>2021-07-22T09:54:05Z</time>
      </trkpt>
      <trkpt lat="45.60785" lon="2.82228">
        <ele>1282.3</ele>
        <time>2021-07-22T09:54:18Z</time>
      </trkpt>
      <trkpt lat="45.60794" lon="2.82233">
        <ele>1280.8</ele>
        <time>2021-07-22T09:54:28Z</time>
      </trkpt>
      <trkpt lat="45.60807" lon="2.82237">
        <ele>1279.1</ele>
        <time>2021-07-22T09:54:38Z</time>
      </trkpt>
      <trkpt lat="45.60822" lon="2.8224">
        <ele>1277</ele>
        <time>2021-07-22T09:54:49Z</time>
      </trkpt>
      <trkpt lat="45.60842" lon="2.82243">
        <ele>1275.3</ele>
        <time>2021-07-22T09:55:04Z</time>
      </trkpt>
      <trkpt lat="45.60857" lon="2.82244">
        <ele>1274.9</ele>
        <time>2021-07-22T09:55:16Z</time>
      </trkpt>
      <trkpt lat="45.60871" lon="2.82245">
        <ele>1274.4</ele>
        <time>2021-07-22T09:55:30Z</time>
      </trkpt>
      <trkpt lat="45.60887" lon="2.82239">
        <ele>1274.4</ele>
        <time>2021-07-22T09:55:43Z</time>
      </trkpt>
      <trkpt lat="45.60903" lon="2.82231">
        <ele>1274.3</ele>
        <time>2021-07-22T09:55:56Z</time>
      </trkpt>
      <trkpt lat="45.60917" lon="2.82224">
        <ele>1274.1</ele>
        <time>2021-07-22T09:56:10Z</time>
      </trkpt>
      <trkpt lat="45.60919" lon="2.82224">
        <ele>1274</ele>
        <time>2021-07-22T09:56:11Z</time>
      </trkpt>
      <trkpt lat="45.60923" lon="2.82222">
        <ele>1273.5</ele>
        <time>2021-07-22T09:56:16Z</time>
      </trkpt>
      <trkpt lat="45.60935" lon="2.82221">
        <ele>1272</ele>
        <time>2021-07-22T09:56:28Z</time>
      </trkpt>
      <trkpt lat="45.60947" lon="2.82218">
        <ele>1270.7</ele>
        <time>2021-07-22T09:56:40Z</time>
      </trkpt>
      <trkpt lat="45.60965" lon="2.82211">
        <ele>1269</ele>
        <time>2021-07-22T09:56:53Z</time>
      </trkpt>
      <trkpt lat="45.60978" lon="2.82205">
        <ele>1268</ele>
        <time>2021-07-22T09:57:04Z</time>
      </trkpt>
      <trkpt lat="45.60991" lon="2.82204">
        <ele>1266.4</ele>
        <time>2021-07-22T09:57:15Z</time>
      </trkpt>
      <trkpt lat="45.61005" lon="2.82205">
        <ele>1265.1</ele>
        <time>2021-07-22T09:57:25Z</time>
      </trkpt>
      <trkpt lat="45.61009" lon="2.82204">
        <ele>1265</ele>
        <time>2021-07-22T09:57:29Z</time>
      </trkpt>
      <trkpt lat="45.61024" lon="2.82206">
        <ele>1264.2</ele>
        <time>2021-07-22T09:57:41Z</time>
      </trkpt>
      <trkpt lat="45.61041" lon="2.82213">
        <ele>1262.9</ele>
        <time>2021-07-22T09:57:56Z</time>
      </trkpt>
      <trkpt lat="45.61059" lon="2.8223">
        <ele>1261.3</ele>
        <time>2021-07-22T09:58:12Z</time>
      </trkpt>
      <trkpt lat="45.61076" lon="2.82242">
        <ele>1260.4</ele>
        <time>2021-07-22T09:58:30Z</time>
      </trkpt>
      <trkpt lat="45.61076" lon="2.82239">
        <ele>1260.6</ele>
        <time>2021-07-22T09:58:41Z</time>
      </trkpt>
      <trkpt lat="45.61099" lon="2.82237">
        <ele>1259</ele>
        <time>2021-07-22T09:58:57Z</time>
      </trkpt>
      <trkpt lat="45.61108" lon="2.82238">
        <ele>1258.1</ele>
        <time>2021-07-22T09:59:11Z</time>
      </trkpt>
      <trkpt lat="45.61119" lon="2.82234">
        <ele>1257.3</ele>
        <time>2021-07-22T09:59:24Z</time>
      </trkpt>
      <trkpt lat="45.6114" lon="2.82228">
        <ele>1256</ele>
        <time>2021-07-22T09:59:41Z</time>
      </trkpt>
      <trkpt lat="45.61156" lon="2.82215">
        <ele>1256</ele>
        <time>2021-07-22T09:59:58Z</time>
      </trkpt>
      <trkpt lat="45.61173" lon="2.82203">
        <ele>1256.2</ele>
        <time>2021-07-22T10:00:13Z</time>
      </trkpt>
      <trkpt lat="45.61191" lon="2.82204">
        <ele>1255</ele>
        <time>2021-07-22T10:00:28Z</time>
      </trkpt>
      <trkpt lat="45.61207" lon="2.82203">
        <ele>1254.2</ele>
        <time>2021-07-22T10:00:40Z</time>
      </trkpt>
      <trkpt lat="45.61227" lon="2.82208">
        <ele>1252.5</ele>
        <time>2021-07-22T10:00:57Z</time>
      </trkpt>
      <trkpt lat="45.61228" lon="2.82208">
        <ele>1252.4</ele>
        <time>2021-07-22T10:00:58Z</time>
      </trkpt>
      <trkpt lat="45.61229" lon="2.82209">
        <ele>1252.2</ele>
        <time>2021-07-22T10:00:59Z</time>
      </trkpt>
      <trkpt lat="45.6123" lon="2.82211">
        <ele>1251.9</ele>
        <time>2021-07-22T10:01:01Z</time>
      </trkpt>
      <trkpt lat="45.61233" lon="2.82213">
        <ele>1251.5</ele>
        <time>2021-07-22T10:01:04Z</time>
      </trkpt>
      <trkpt lat="45.61242" lon="2.82223">
        <ele>1250</ele>
        <time>2021-07-22T10:01:18Z</time>
      </trkpt>
      <trkpt lat="45.61244" lon="2.82219">
        <ele>1250.3</ele>
        <time>2021-07-22T10:01:28Z</time>
      </trkpt>
      <trkpt lat="45.61249" lon="2.82207">
        <ele>1251.1</ele>
        <time>2021-07-22T10:01:39Z</time>
      </trkpt>
      <trkpt lat="45.61254" lon="2.8219">
        <ele>1252.2</ele>
        <time>2021-07-22T10:01:51Z</time>
      </trkpt>
      <trkpt lat="45.61256" lon="2.82184">
        <ele>1252.6</ele>
        <time>2021-07-22T10:01:56Z</time>
      </trkpt>
      <trkpt lat="45.61262" lon="2.8217">
        <ele>1253</ele>
        <time>2021-07-22T10:02:10Z</time>
      </trkpt>
      <trkpt lat="45.61267" lon="2.82158">
        <ele>1254.2</ele>
        <time>2021-07-22T10:02:21Z</time>
      </trkpt>
      <trkpt lat="45.61271" lon="2.82152">
        <ele>1254.9</ele>
        <time>2021-07-22T10:02:27Z</time>
      </trkpt>
      <trkpt lat="45.61273" lon="2.82148">
        <ele>1255.6</ele>
        <time>2021-07-22T10:02:30Z</time>
      </trkpt>
      <trkpt lat="45.61275" lon="2.82144">
        <ele>1255.9</ele>
        <time>2021-07-22T10:02:33Z</time>
      </trkpt>
      <trkpt lat="45.61283" lon="2.82134">
        <ele>1256.9</ele>
        <time>2021-07-22T10:02:44Z</time>
      </trkpt>
      <trkpt lat="45.61285" lon="2.82131">
        <ele>1257.2</ele>
        <time>2021-07-22T10:02:49Z</time>
      </trkpt>
      <trkpt lat="45.6129" lon="2.82125">
        <ele>1257.8</ele>
        <time>2021-07-22T10:02:56Z</time>
      </trkpt>
      <trkpt lat="45.61305" lon="2.82115">
        <ele>1257.5</ele>
        <time>2021-07-22T10:03:10Z</time>
      </trkpt>
      <trkpt lat="45.6131" lon="2.8211">
        <ele>1257.9</ele>
        <time>2021-07-22T10:03:15Z</time>
      </trkpt>
      <trkpt lat="45.61316" lon="2.821">
        <ele>1259.2</ele>
        <time>2021-07-22T10:03:22Z</time>
      </trkpt>
      <trkpt lat="45.61321" lon="2.82089">
        <ele>1260.7</ele>
        <time>2021-07-22T10:03:33Z</time>
      </trkpt>
      <trkpt lat="45.61328" lon="2.82078">
        <ele>1261.9</ele>
        <time>2021-07-22T10:03:47Z</time>
      </trkpt>
      <trkpt lat="45.61333" lon="2.82072">
        <ele>1262.6</ele>
        <time>2021-07-22T10:03:56Z</time>
      </trkpt>
      <trkpt lat="45.61338" lon="2.82068">
        <ele>1262.6</ele>
        <time>2021-07-22T10:04:02Z</time>
      </trkpt>
      <trkpt lat="45.61344" lon="2.82056">
        <ele>1264</ele>
        <time>2021-07-22T10:04:13Z</time>
      </trkpt>
      <trkpt lat="45.61351" lon="2.82045">
        <ele>1264.8</ele>
        <time>2021-07-22T10:04:27Z</time>
      </trkpt>
      <trkpt lat="45.61355" lon="2.82038">
        <ele>1265.5</ele>
        <time>2021-07-22T10:04:41Z</time>
      </trkpt>
      <trkpt lat="45.61359" lon="2.82027">
        <ele>1266.9</ele>
        <time>2021-07-22T10:04:53Z</time>
      </trkpt>
      <trkpt lat="45.61361" lon="2.8202">
        <ele>1267.9</ele>
        <time>2021-07-22T10:05:05Z</time>
      </trkpt>
      <trkpt lat="45.61367" lon="2.82014">
        <ele>1267.9</ele>
        <time>2021-07-22T10:05:15Z</time>
      </trkpt>
      <trkpt lat="45.61374" lon="2.82005">
        <ele>1268.1</ele>
        <time>2021-07-22T10:05:31Z</time>
      </trkpt>
      <trkpt lat="45.61367" lon="2.81994">
        <ele>1272.1</ele>
        <time>2021-07-22T10:05:46Z</time>
      </trkpt>
      <trkpt lat="45.61358" lon="2.8199">
        <ele>1275.2</ele>
        <time>2021-07-22T10:06:00Z</time>
      </trkpt>
      <trkpt lat="45.61347" lon="2.81987">
        <ele>1278.2</ele>
        <time>2021-07-22T10:06:15Z</time>
      </trkpt>
      <trkpt lat="45.61338" lon="2.81984">
        <ele>1280.7</ele>
        <time>2021-07-22T10:06:32Z</time>
      </trkpt>
      <trkpt lat="45.61333" lon="2.81981">
        <ele>1282.2</ele>
        <time>2021-07-22T10:06:48Z</time>
      </trkpt>
      <trkpt lat="45.61326" lon="2.8198">
        <ele>1282.9</ele>
        <time>2021-07-22T10:07:04Z</time>
      </trkpt>
      <trkpt lat="45.61322" lon="2.81977">
        <ele>1283.6</ele>
        <time>2021-07-22T10:07:20Z</time>
      </trkpt>
      <trkpt lat="45.61325" lon="2.81976">
        <ele>1283.6</ele>
        <time>2021-07-22T10:07:36Z</time>
      </trkpt>
      <trkpt lat="45.61326" lon="2.81971">
        <ele>1284.4</ele>
        <time>2021-07-22T10:07:49Z</time>
      </trkpt>
      <trkpt lat="45.61318" lon="2.81965">
        <ele>1285.7</ele>
        <time>2021-07-22T10:08:04Z</time>
      </trkpt>
      <trkpt lat="45.61315" lon="2.81959">
        <ele>1286.9</ele>
        <time>2021-07-22T10:08:20Z</time>
      </trkpt>
      <trkpt lat="45.61319" lon="2.81958">
        <ele>1286.8</ele>
        <time>2021-07-22T10:08:34Z</time>
      </trkpt>
      <trkpt lat="45.61325" lon="2.81954">
        <ele>1287.1</ele>
        <time>2021-07-22T10:08:49Z</time>
      </trkpt>
      <trkpt lat="45.6133" lon="2.81953">
        <ele>1286.9</ele>
        <time>2021-07-22T10:09:00Z</time>
      </trkpt>
      <trkpt lat="45.61339" lon="2.8195">
        <ele>1286.3</ele>
        <time>2021-07-22T10:09:14Z</time>
      </trkpt>
      <trkpt lat="45.61344" lon="2.81949">
        <ele>1285.7</ele>
        <time>2021-07-22T10:09:22Z</time>
      </trkpt>
      <trkpt lat="45.61345" lon="2.81948">
        <ele>1285.7</ele>
        <time>2021-07-22T10:09:23Z</time>
      </trkpt>
      <trkpt lat="45.61346" lon="2.81948">
        <ele>1285.7</ele>
        <time>2021-07-22T10:09:24Z</time>
      </trkpt>
      <trkpt lat="45.61347" lon="2.81947">
        <ele>1285.7</ele>
        <time>2021-07-22T10:09:25Z</time>
      </trkpt>
      <trkpt lat="45.61347" lon="2.81946">
        <ele>1285.7</ele>
        <time>2021-07-22T10:09:26Z</time>
      </trkpt>
      <trkpt lat="45.61348" lon="2.81946">
        <ele>1285.8</ele>
        <time>2021-07-22T10:09:27Z</time>
      </trkpt>
      <trkpt lat="45.6136" lon="2.81936">
        <ele>1285.9</ele>
        <time>2021-07-22T10:09:43Z</time>
      </trkpt>
      <trkpt lat="45.61368" lon="2.81929">
        <ele>1286.1</ele>
        <time>2021-07-22T10:09:58Z</time>
      </trkpt>
      <trkpt lat="45.61375" lon="2.81926">
        <ele>1285.8</ele>
        <time>2021-07-22T10:10:08Z</time>
      </trkpt>
      <trkpt lat="45.61379" lon="2.81927">
        <ele>1285.2</ele>
        <time>2021-07-22T10:10:21Z</time>
      </trkpt>
      <trkpt lat="45.61382" lon="2.81924">
        <ele>1285.5</ele>
        <time>2021-07-22T10:10:41Z</time>
      </trkpt>
      <trkpt lat="45.6139" lon="2.8192">
        <ele>1285.4</ele>
        <time>2021-07-22T10:10:51Z</time>
      </trkpt>
      <trkpt lat="45.61398" lon="2.81915">
        <ele>1285.5</ele>
        <time>2021-07-22T10:11:03Z</time>
      </trkpt>
      <trkpt lat="45.61405" lon="2.81913">
        <ele>1284.9</ele>
        <time>2021-07-22T10:11:14Z</time>
      </trkpt>
      <trkpt lat="45.61411" lon="2.81909">
        <ele>1284.8</ele>
        <time>2021-07-22T10:11:25Z</time>
      </trkpt>
      <trkpt lat="45.61418" lon="2.81906">
        <ele>1284.4</ele>
        <time>2021-07-22T10:11:39Z</time>
      </trkpt>
      <trkpt lat="45.61424" lon="2.81902">
        <ele>1283.9</ele>
        <time>2021-07-22T10:11:50Z</time>
      </trkpt>
      <trkpt lat="45.61432" lon="2.81895">
        <ele>1283.4</ele>
        <time>2021-07-22T10:12:03Z</time>
      </trkpt>
      <trkpt lat="45.61435" lon="2.81899">
        <ele>1282.3</ele>
        <time>2021-07-22T10:12:15Z</time>
      </trkpt>
      <trkpt lat="45.61438" lon="2.819">
        <ele>1281.6</ele>
        <time>2021-07-22T10:12:19Z</time>
      </trkpt>
      <trkpt lat="45.61449" lon="2.81903">
        <ele>1279.4</ele>
        <time>2021-07-22T10:12:33Z</time>
      </trkpt>
      <trkpt lat="45.61457" lon="2.81901">
        <ele>1278.2</ele>
        <time>2021-07-22T10:12:46Z</time>
      </trkpt>
      <trkpt lat="45.61467" lon="2.81902">
        <ele>1276.2</ele>
        <time>2021-07-22T10:12:57Z</time>
      </trkpt>
      <trkpt lat="45.61478" lon="2.81901">
        <ele>1274.5</ele>
        <time>2021-07-22T10:13:08Z</time>
      </trkpt>
      <trkpt lat="45.61486" lon="2.81902">
        <ele>1272.9</ele>
        <time>2021-07-22T10:13:16Z</time>
      </trkpt>
      <trkpt lat="45.61497" lon="2.819">
        <ele>1271.4</ele>
        <time>2021-07-22T10:13:28Z</time>
      </trkpt>
      <trkpt lat="45.61504" lon="2.8189">
        <ele>1271.6</ele>
        <time>2021-07-22T10:13:39Z</time>
      </trkpt>
      <trkpt lat="45.61512" lon="2.81887">
        <ele>1270.1</ele>
        <time>2021-07-22T10:13:50Z</time>
      </trkpt>
      <trkpt lat="45.61523" lon="2.81882">
        <ele>1267.9</ele>
        <time>2021-07-22T10:14:02Z</time>
      </trkpt>
      <trkpt lat="45.61533" lon="2.81874">
        <ele>1266.7</ele>
        <time>2021-07-22T10:14:15Z</time>
      </trkpt>
      <trkpt lat="45.61543" lon="2.81871">
        <ele>1264.5</ele>
        <time>2021-07-22T10:14:28Z</time>
      </trkpt>
      <trkpt lat="45.61551" lon="2.81871">
        <ele>1262.3</ele>
        <time>2021-07-22T10:14:40Z</time>
      </trkpt>
      <trkpt lat="45.61557" lon="2.81861">
        <ele>1262</ele>
        <time>2021-07-22T10:14:50Z</time>
      </trkpt>
      <trkpt lat="45.61568" lon="2.81854">
        <ele>1259.9</ele>
        <time>2021-07-22T10:15:05Z</time>
      </trkpt>
      <trkpt lat="45.61573" lon="2.81849">
        <ele>1259.3</ele>
        <time>2021-07-22T10:15:15Z</time>
      </trkpt>
      <trkpt lat="45.61576" lon="2.8185">
        <ele>1258.2</ele>
        <time>2021-07-22T10:15:19Z</time>
      </trkpt>
      <trkpt lat="45.61582" lon="2.81838">
        <ele>1257.8</ele>
        <time>2021-07-22T10:15:30Z</time>
      </trkpt>
      <trkpt lat="45.61588" lon="2.81835">
        <ele>1257.2</ele>
        <time>2021-07-22T10:15:42Z</time>
      </trkpt>
      <trkpt lat="45.6159" lon="2.81833">
        <ele>1257</ele>
        <time>2021-07-22T10:15:45Z</time>
      </trkpt>
      <trkpt lat="45.61596" lon="2.81829">
        <ele>1256.7</ele>
        <time>2021-07-22T10:15:57Z</time>
      </trkpt>
      <trkpt lat="45.61599" lon="2.8183">
        <ele>1256.3</ele>
        <time>2021-07-22T10:16:12Z</time>
      </trkpt>
      <trkpt lat="45.61608" lon="2.81827">
        <ele>1255.3</ele>
        <time>2021-07-22T10:16:28Z</time>
      </trkpt>
      <trkpt lat="45.61615" lon="2.81826">
        <ele>1254.3</ele>
        <time>2021-07-22T10:16:41Z</time>
      </trkpt>
      <trkpt lat="45.61617" lon="2.81826">
        <ele>1254.1</ele>
        <time>2021-07-22T10:16:44Z</time>
      </trkpt>
      <trkpt lat="45.61625" lon="2.81822">
        <ele>1253.4</ele>
        <time>2021-07-22T10:16:56Z</time>
      </trkpt>
      <trkpt lat="45.61633" lon="2.81816">
        <ele>1252.9</ele>
        <time>2021-07-22T10:17:07Z</time>
      </trkpt>
      <trkpt lat="45.61642" lon="2.81809">
        <ele>1252.2</ele>
        <time>2021-07-22T10:17:19Z</time>
      </trkpt>
      <trkpt lat="45.6165" lon="2.81804">
        <ele>1251.6</ele>
        <time>2021-07-22T10:17:28Z</time>
      </trkpt>
      <trkpt lat="45.61656" lon="2.818">
        <ele>1251</ele>
        <time>2021-07-22T10:17:36Z</time>
      </trkpt>
      <trkpt lat="45.61657" lon="2.818">
        <ele>1250.8</ele>
        <time>2021-07-22T10:17:38Z</time>
      </trkpt>
      <trkpt lat="45.61658" lon="2.818">
        <ele>1250.7</ele>
        <time>2021-07-22T10:17:39Z</time>
      </trkpt>
      <trkpt lat="45.61659" lon="2.81799">
        <ele>1250.6</ele>
        <time>2021-07-22T10:17:42Z</time>
      </trkpt>
      <trkpt lat="45.61661" lon="2.81792">
        <ele>1250.9</ele>
        <time>2021-07-22T10:17:55Z</time>
      </trkpt>
      <trkpt lat="45.61661" lon="2.81781">
        <ele>1251.9</ele>
        <time>2021-07-22T10:18:10Z</time>
      </trkpt>
      <trkpt lat="45.61663" lon="2.81766">
        <ele>1253.1</ele>
        <time>2021-07-22T10:18:26Z</time>
      </trkpt>
      <trkpt lat="45.61664" lon="2.81761">
        <ele>1253.4</ele>
        <time>2021-07-22T10:18:30Z</time>
      </trkpt>
      <trkpt lat="45.61668" lon="2.81748">
        <ele>1254.3</ele>
        <time>2021-07-22T10:18:44Z</time>
      </trkpt>
      <trkpt lat="45.61675" lon="2.81727">
        <ele>1257.6</ele>
        <time>2021-07-22T10:19:03Z</time>
      </trkpt>
      <trkpt lat="45.61676" lon="2.81724">
        <ele>1258.2</ele>
        <time>2021-07-22T10:19:06Z</time>
      </trkpt>
      <trkpt lat="45.61682" lon="2.8171">
        <ele>1260.4</ele>
        <time>2021-07-22T10:19:17Z</time>
      </trkpt>
      <trkpt lat="45.61689" lon="2.81692">
        <ele>1263.3</ele>
        <time>2021-07-22T10:19:32Z</time>
      </trkpt>
      <trkpt lat="45.61696" lon="2.81683">
        <ele>1264.8</ele>
        <time>2021-07-22T10:19:43Z</time>
      </trkpt>
      <trkpt lat="45.61695" lon="2.81671">
        <ele>1266.8</ele>
        <time>2021-07-22T10:19:56Z</time>
      </trkpt>
      <trkpt lat="45.6169" lon="2.81664">
        <ele>1268.3</ele>
        <time>2021-07-22T10:20:09Z</time>
      </trkpt>
      <trkpt lat="45.61688" lon="2.81653">
        <ele>1270.5</ele>
        <time>2021-07-22T10:20:24Z</time>
      </trkpt>
      <trkpt lat="45.61683" lon="2.81646">
        <ele>1271.9</ele>
        <time>2021-07-22T10:20:40Z</time>
      </trkpt>
      <trkpt lat="45.61679" lon="2.81642">
        <ele>1272.5</ele>
        <time>2021-07-22T10:20:54Z</time>
      </trkpt>
      <trkpt lat="45.61675" lon="2.81647">
        <ele>1271.5</ele>
        <time>2021-07-22T10:21:11Z</time>
      </trkpt>
      <trkpt lat="45.61676" lon="2.81653">
        <ele>1270.5</ele>
        <time>2021-07-22T10:21:23Z</time>
      </trkpt>
      <trkpt lat="45.61681" lon="2.81644">
        <ele>1272.2</ele>
        <time>2021-07-22T10:21:38Z</time>
      </trkpt>
      <trkpt lat="45.61683" lon="2.81639">
        <ele>1273.2</ele>
        <time>2021-07-22T10:21:51Z</time>
      </trkpt>
      <trkpt lat="45.61684" lon="2.81632">
        <ele>1274.6</ele>
        <time>2021-07-22T10:22:10Z</time>
      </trkpt>
      <trkpt lat="45.61685" lon="2.81623">
        <ele>1276.4</ele>
        <time>2021-07-22T10:22:27Z</time>
      </trkpt>
      <trkpt lat="45.61686" lon="2.81622">
        <ele>1276.7</ele>
        <time>2021-07-22T10:22:45Z</time>
      </trkpt>
      <trkpt lat="45.61688" lon="2.81628">
        <ele>1275.6</ele>
        <time>2021-07-22T10:23:00Z</time>
      </trkpt>
      <trkpt lat="45.61692" lon="2.81629">
        <ele>1275.4</ele>
        <time>2021-07-22T10:23:14Z</time>
      </trkpt>
      <trkpt lat="45.61696" lon="2.81628">
        <ele>1275.9</ele>
        <time>2021-07-22T10:23:31Z</time>
      </trkpt>
      <trkpt lat="45.61698" lon="2.81618">
        <ele>1277.9</ele>
        <time>2021-07-22T10:23:47Z</time>
      </trkpt>
      <trkpt lat="45.61698" lon="2.81615">
        <ele>1278.6</ele>
        <time>2021-07-22T10:24:05Z</time>
      </trkpt>
      <trkpt lat="45.61699" lon="2.81604">
        <ele>1280.9</ele>
        <time>2021-07-22T10:24:21Z</time>
      </trkpt>
      <trkpt lat="45.61699" lon="2.81598">
        <ele>1282.3</ele>
        <time>2021-07-22T10:24:37Z</time>
      </trkpt>
      <trkpt lat="45.61698" lon="2.81587">
        <ele>1284.4</ele>
        <time>2021-07-22T10:24:57Z</time>
      </trkpt>
      <trkpt lat="45.61699" lon="2.81576">
        <ele>1286.4</ele>
        <time>2021-07-22T10:25:14Z</time>
      </trkpt>
      <trkpt lat="45.617" lon="2.81571">
        <ele>1287.1</ele>
        <time>2021-07-22T10:25:31Z</time>
      </trkpt>
      <trkpt lat="45.61701" lon="2.81571">
        <ele>1287.2</ele>
        <time>2021-07-22T10:25:57Z</time>
      </trkpt>
      <trkpt lat="45.61701" lon="2.81571">
        <ele>1287.2</ele>
        <time>2021-07-22T10:26:15Z</time>
      </trkpt>
      <trkpt lat="45.617" lon="2.81571">
        <ele>1287.2</ele>
        <time>2021-07-22T10:26:35Z</time>
      </trkpt>
      <trkpt lat="45.617" lon="2.81569">
        <ele>1287.5</ele>
        <time>2021-07-22T10:26:56Z</time>
      </trkpt>
      <trkpt lat="45.61699" lon="2.81562">
        <ele>1288.4</ele>
        <time>2021-07-22T10:27:12Z</time>
      </trkpt>
      <trkpt lat="45.61698" lon="2.81558">
        <ele>1288.9</ele>
        <time>2021-07-22T10:27:29Z</time>
      </trkpt>
      <trkpt lat="45.61697" lon="2.81558">
        <ele>1288.8</ele>
        <time>2021-07-22T10:27:44Z</time>
      </trkpt>
      <trkpt lat="45.61692" lon="2.81556">
        <ele>1288.7</ele>
        <time>2021-07-22T10:28:03Z</time>
      </trkpt>
      <trkpt lat="45.61691" lon="2.81549">
        <ele>1289.7</ele>
        <time>2021-07-22T10:28:28Z</time>
      </trkpt>
      <trkpt lat="45.61691" lon="2.81553">
        <ele>1289.1</ele>
        <time>2021-07-22T10:28:51Z</time>
      </trkpt>
      <trkpt lat="45.61693" lon="2.81554">
        <ele>1289.1</ele>
        <time>2021-07-22T10:29:16Z</time>
      </trkpt>
      <trkpt lat="45.61693" lon="2.81556">
        <ele>1288.9</ele>
        <time>2021-07-22T10:29:48Z</time>
      </trkpt>
      <trkpt lat="45.61692" lon="2.81558">
        <ele>1288.5</ele>
        <time>2021-07-22T10:30:30Z</time>
      </trkpt>
      <trkpt lat="45.61691" lon="2.81554">
        <ele>1289</ele>
        <time>2021-07-22T10:31:17Z</time>
      </trkpt>
      <trkpt lat="45.61692" lon="2.81555">
        <ele>1288.9</ele>
        <time>2021-07-22T10:31:56Z</time>
      </trkpt>
      <trkpt lat="45.61692" lon="2.81557">
        <ele>1288.6</ele>
        <time>2021-07-22T10:32:41Z</time>
      </trkpt>
      <trkpt lat="45.6169" lon="2.81554">
        <ele>1288.9</ele>
        <time>2021-07-22T10:33:22Z</time>
      </trkpt>
      <trkpt lat="45.6169" lon="2.81554">
        <ele>1288.9</ele>
        <time>2021-07-22T10:33:57Z</time>
      </trkpt>
      <trkpt lat="45.61689" lon="2.81555">
        <ele>1288.7</ele>
        <time>2021-07-22T10:34:17Z</time>
      </trkpt>
      <trkpt lat="45.61689" lon="2.81553">
        <ele>1289.1</ele>
        <time>2021-07-22T10:34:41Z</time>
      </trkpt>
      <trkpt lat="45.61691" lon="2.81552">
        <ele>1289.4</ele>
        <time>2021-07-22T10:35:04Z</time>
      </trkpt>
      <trkpt lat="45.6169" lon="2.81552">
        <ele>1289.3</ele>
        <time>2021-07-22T10:35:26Z</time>
      </trkpt>
      <trkpt lat="45.61692" lon="2.81555">
        <ele>1288.9</ele>
        <time>2021-07-22T10:35:47Z</time>
      </trkpt>
      <trkpt lat="45.61695" lon="2.81553">
        <ele>1289.3</ele>
        <time>2021-07-22T10:36:15Z</time>
      </trkpt>
      <trkpt lat="45.61695" lon="2.81555">
        <ele>1289.1</ele>
        <time>2021-07-22T10:36:35Z</time>
      </trkpt>
      <trkpt lat="45.61695" lon="2.81554">
        <ele>1289.2</ele>
        <time>2021-07-22T10:36:56Z</time>
      </trkpt>
      <trkpt lat="45.61691" lon="2.81553">
        <ele>1289.1</ele>
        <time>2021-07-22T10:37:20Z</time>
      </trkpt>
      <trkpt lat="45.61691" lon="2.81554">
        <ele>1289</ele>
        <time>2021-07-22T10:37:47Z</time>
      </trkpt>
      <trkpt lat="45.61691" lon="2.81556">
        <ele>1288.7</ele>
        <time>2021-07-22T10:38:22Z</time>
      </trkpt>
      <trkpt lat="45.61692" lon="2.81557">
        <ele>1288.7</ele>
        <time>2021-07-22T10:39:06Z</time>
      </trkpt>
      <trkpt lat="45.61692" lon="2.81555">
        <ele>1288.9</ele>
        <time>2021-07-22T10:39:31Z</time>
      </trkpt>
      <trkpt lat="45.61694" lon="2.81554">
        <ele>1289.1</ele>
        <time>2021-07-22T10:39:53Z</time>
      </trkpt>
      <trkpt lat="45.61693" lon="2.81556">
        <ele>1288.9</ele>
        <time>2021-07-22T10:40:18Z</time>
      </trkpt>
      <trkpt lat="45.61693" lon="2.81548">
        <ele>1290</ele>
        <time>2021-07-22T10:40:47Z</time>
      </trkpt>
      <trkpt lat="45.61691" lon="2.81549">
        <ele>1289.8</ele>
        <time>2021-07-22T10:41:11Z</time>
      </trkpt>
      <trkpt lat="45.6169" lon="2.81552">
        <ele>1289.3</ele>
        <time>2021-07-22T10:41:38Z</time>
      </trkpt>
      <trkpt lat="45.61688" lon="2.8155">
        <ele>1289.4</ele>
        <time>2021-07-22T10:42:00Z</time>
      </trkpt>
      <trkpt lat="45.61692" lon="2.81554">
        <ele>1289.1</ele>
        <time>2021-07-22T10:42:21Z</time>
      </trkpt>
      <trkpt lat="45.61695" lon="2.81553">
        <ele>1289.4</ele>
        <time>2021-07-22T10:42:52Z</time>
      </trkpt>
      <trkpt lat="45.6169" lon="2.81551">
        <ele>1289.5</ele>
        <time>2021-07-22T10:43:32Z</time>
      </trkpt>
      <trkpt lat="45.61688" lon="2.81548">
        <ele>1289.7</ele>
        <time>2021-07-22T10:43:51Z</time>
      </trkpt>
      <trkpt lat="45.6169" lon="2.8155">
        <ele>1289.6</ele>
        <time>2021-07-22T10:44:13Z</time>
      </trkpt>
      <trkpt lat="45.6169" lon="2.81547">
        <ele>1290</ele>
        <time>2021-07-22T10:44:41Z</time>
      </trkpt>
      <trkpt lat="45.61687" lon="2.81546">
        <ele>1290</ele>
        <time>2021-07-22T10:45:05Z</time>
      </trkpt>
      <trkpt lat="45.61687" lon="2.81539">
        <ele>1291</ele>
        <time>2021-07-22T10:45:30Z</time>
      </trkpt>
      <trkpt lat="45.61686" lon="2.81541">
        <ele>1290.6</ele>
        <time>2021-07-22T10:45:51Z</time>
      </trkpt>
      <trkpt lat="45.61688" lon="2.81548">
        <ele>1289.7</ele>
        <time>2021-07-22T10:46:15Z</time>
      </trkpt>
      <trkpt lat="45.61688" lon="2.81542">
        <ele>1290.5</ele>
        <time>2021-07-22T10:46:42Z</time>
      </trkpt>
      <trkpt lat="45.61691" lon="2.81546">
        <ele>1290.2</ele>
        <time>2021-07-22T10:47:12Z</time>
      </trkpt>
      <trkpt lat="45.61691" lon="2.81548">
        <ele>1289.9</ele>
        <time>2021-07-22T10:47:34Z</time>
      </trkpt>
      <trkpt lat="45.61691" lon="2.81549">
        <ele>1289.7</ele>
        <time>2021-07-22T10:47:38Z</time>
      </trkpt>
      <trkpt lat="45.61691" lon="2.81549">
        <ele>1289.7</ele>
        <time>2021-07-22T10:47:40Z</time>
      </trkpt>
      <trkpt lat="45.6169" lon="2.81549">
        <ele>1289.7</ele>
        <time>2021-07-22T10:47:41Z</time>
      </trkpt>
      <trkpt lat="45.6169" lon="2.8155">
        <ele>1289.6</ele>
        <time>2021-07-22T10:47:44Z</time>
      </trkpt>
      <trkpt lat="45.61689" lon="2.81552">
        <ele>1289.2</ele>
        <time>2021-07-22T10:48:05Z</time>
      </trkpt>
      <trkpt lat="45.61691" lon="2.81552">
        <ele>1289.2</ele>
        <time>2021-07-22T10:48:28Z</time>
      </trkpt>
      <trkpt lat="45.61692" lon="2.81557">
        <ele>1288.7</ele>
        <time>2021-07-22T10:48:47Z</time>
      </trkpt>
      <trkpt lat="45.61692" lon="2.81557">
        <ele>1288.7</ele>
        <time>2021-07-22T10:48:50Z</time>
      </trkpt>
      <trkpt lat="45.61691" lon="2.81556">
        <ele>1288.7</ele>
        <time>2021-07-22T10:48:51Z</time>
      </trkpt>
      <trkpt lat="45.61691" lon="2.81556">
        <ele>1288.8</ele>
        <time>2021-07-22T10:48:57Z</time>
      </trkpt>
      <trkpt lat="45.6169" lon="2.81553">
        <ele>1289</ele>
        <time>2021-07-22T10:49:02Z</time>
      </trkpt>
      <trkpt lat="45.61685" lon="2.8155">
        <ele>1289.3</ele>
        <time>2021-07-22T10:49:10Z</time>
      </trkpt>
      <trkpt lat="45.61681" lon="2.81549">
        <ele>1289.2</ele>
        <time>2021-07-22T10:49:21Z</time>
      </trkpt>
      <trkpt lat="45.61678" lon="2.81549">
        <ele>1289</ele>
        <time>2021-07-22T10:49:38Z</time>
      </trkpt>
      <trkpt lat="45.61675" lon="2.81557">
        <ele>1287.6</ele>
        <time>2021-07-22T10:49:50Z</time>
      </trkpt>
      <trkpt lat="45.61681" lon="2.81577">
        <ele>1284.9</ele>
        <time>2021-07-22T10:50:04Z</time>
      </trkpt>
      <trkpt lat="45.61683" lon="2.81583">
        <ele>1284.2</ele>
        <time>2021-07-22T10:50:07Z</time>
      </trkpt>
      <trkpt lat="45.61684" lon="2.81585">
        <ele>1283.8</ele>
        <time>2021-07-22T10:50:08Z</time>
      </trkpt>
      <trkpt lat="45.61688" lon="2.81596">
        <ele>1282</ele>
        <time>2021-07-22T10:50:16Z</time>
      </trkpt>
      <trkpt lat="45.617" lon="2.81604">
        <ele>1280.9</ele>
        <time>2021-07-22T10:50:31Z</time>
      </trkpt>
      <trkpt lat="45.61708" lon="2.81599">
        <ele>1282.4</ele>
        <time>2021-07-22T10:50:47Z</time>
      </trkpt>
      <trkpt lat="45.61714" lon="2.81599">
        <ele>1282.9</ele>
        <time>2021-07-22T10:50:59Z</time>
      </trkpt>
      <trkpt lat="45.6172" lon="2.81591">
        <ele>1285.1</ele>
        <time>2021-07-22T10:51:12Z</time>
      </trkpt>
      <trkpt lat="45.61726" lon="2.81585">
        <ele>1286.8</ele>
        <time>2021-07-22T10:51:23Z</time>
      </trkpt>
      <trkpt lat="45.61727" lon="2.81571">
        <ele>1289</ele>
        <time>2021-07-22T10:51:39Z</time>
      </trkpt>
      <trkpt lat="45.61722" lon="2.8156">
        <ele>1290</ele>
        <time>2021-07-22T10:51:55Z</time>
      </trkpt>
      <trkpt lat="45.61717" lon="2.8155">
        <ele>1291.1</ele>
        <time>2021-07-22T10:52:07Z</time>
      </trkpt>
      <trkpt lat="45.61718" lon="2.8155">
        <ele>1291.2</ele>
        <time>2021-07-22T10:52:19Z</time>
      </trkpt>
      <trkpt lat="45.61721" lon="2.81543">
        <ele>1292.3</ele>
        <time>2021-07-22T10:52:34Z</time>
      </trkpt>
      <trkpt lat="45.61724" lon="2.81533">
        <ele>1293.7</ele>
        <time>2021-07-22T10:52:49Z</time>
      </trkpt>
      <trkpt lat="45.61725" lon="2.81525">
        <ele>1294.8</ele>
        <time>2021-07-22T10:53:01Z</time>
      </trkpt>
      <trkpt lat="45.61724" lon="2.81524">
        <ele>1295</ele>
        <time>2021-07-22T10:53:02Z</time>
      </trkpt>
      <trkpt lat="45.61724" lon="2.81522">
        <ele>1295.2</ele>
        <time>2021-07-22T10:53:04Z</time>
      </trkpt>
      <trkpt lat="45.6172" lon="2.81511">
        <ele>1296.4</ele>
        <time>2021-07-22T10:53:18Z</time>
      </trkpt>
      <trkpt lat="45.61717" lon="2.81495">
        <ele>1298.2</ele>
        <time>2021-07-22T10:53:32Z</time>
      </trkpt>
      <trkpt lat="45.61712" lon="2.81483">
        <ele>1299.1</ele>
        <time>2021-07-22T10:53:46Z</time>
      </trkpt>
      <trkpt lat="45.61709" lon="2.81463">
        <ele>1300.6</ele>
        <time>2021-07-22T10:54:05Z</time>
      </trkpt>
      <trkpt lat="45.61704" lon="2.8145">
        <ele>1301.6</ele>
        <time>2021-07-22T10:54:20Z</time>
      </trkpt>
      <trkpt lat="45.61699" lon="2.81434">
        <ele>1302.9</ele>
        <time>2021-07-22T10:54:37Z</time>
      </trkpt>
      <trkpt lat="45.61694" lon="2.81422">
        <ele>1303.9</ele>
        <time>2021-07-22T10:54:50Z</time>
      </trkpt>
      <trkpt lat="45.61686" lon="2.8141">
        <ele>1305</ele>
        <time>2021-07-22T10:55:05Z</time>
      </trkpt>
      <trkpt lat="45.61676" lon="2.81391">
        <ele>1306.9</ele>
        <time>2021-07-22T10:55:22Z</time>
      </trkpt>
      <trkpt lat="45.61665" lon="2.81378">
        <ele>1308.2</ele>
        <time>2021-07-22T10:55:37Z</time>
      </trkpt>
      <trkpt lat="45.61655" lon="2.81365">
        <ele>1309.3</ele>
        <time>2021-07-22T10:55:51Z</time>
      </trkpt>
      <trkpt lat="45.61639" lon="2.81353">
        <ele>1310</ele>
        <time>2021-07-22T10:56:06Z</time>
      </trkpt>
      <trkpt lat="45.61629" lon="2.81338">
        <ele>1310.8</ele>
        <time>2021-07-22T10:56:20Z</time>
      </trkpt>
      <trkpt lat="45.61623" lon="2.81316">
        <ele>1312.2</ele>
        <time>2021-07-22T10:56:37Z</time>
      </trkpt>
      <trkpt lat="45.61624" lon="2.81301">
        <ele>1313.4</ele>
        <time>2021-07-22T10:56:51Z</time>
      </trkpt>
      <trkpt lat="45.61621" lon="2.81286">
        <ele>1314.4</ele>
        <time>2021-07-22T10:57:06Z</time>
      </trkpt>
      <trkpt lat="45.61609" lon="2.81262">
        <ele>1315.3</ele>
        <time>2021-07-22T10:57:27Z</time>
      </trkpt>
      <trkpt lat="45.61605" lon="2.81255">
        <ele>1315.5</ele>
        <time>2021-07-22T10:57:33Z</time>
      </trkpt>
      <trkpt lat="45.61597" lon="2.81238">
        <ele>1316.2</ele>
        <time>2021-07-22T10:57:47Z</time>
      </trkpt>
      <trkpt lat="45.61592" lon="2.81224">
        <ele>1317.1</ele>
        <time>2021-07-22T10:58:00Z</time>
      </trkpt>
      <trkpt lat="45.61584" lon="2.81212">
        <ele>1317.7</ele>
        <time>2021-07-22T10:58:12Z</time>
      </trkpt>
      <trkpt lat="45.61575" lon="2.81197">
        <ele>1318.6</ele>
        <time>2021-07-22T10:58:26Z</time>
      </trkpt>
      <trkpt lat="45.61574" lon="2.81188">
        <ele>1319.3</ele>
        <time>2021-07-22T10:58:38Z</time>
      </trkpt>
      <trkpt lat="45.61574" lon="2.81188">
        <ele>1319.3</ele>
        <time>2021-07-22T10:58:50Z</time>
      </trkpt>
      <trkpt lat="45.61574" lon="2.81186">
        <ele>1319.4</ele>
        <time>2021-07-22T10:59:09Z</time>
      </trkpt>
      <trkpt lat="45.61578" lon="2.81187">
        <ele>1319.7</ele>
        <time>2021-07-22T10:59:26Z</time>
      </trkpt>
      <trkpt lat="45.61579" lon="2.81187">
        <ele>1319.7</ele>
        <time>2021-07-22T10:59:28Z</time>
      </trkpt>
      <trkpt lat="45.61585" lon="2.81195">
        <ele>1319.4</ele>
        <time>2021-07-22T10:59:42Z</time>
      </trkpt>
      <trkpt lat="45.61585" lon="2.812">
        <ele>1318.8</ele>
        <time>2021-07-22T11:00:00Z</time>
      </trkpt>
      <trkpt lat="45.61586" lon="2.81199">
        <ele>1319</ele>
        <time>2021-07-22T11:00:15Z</time>
      </trkpt>
      <trkpt lat="45.61594" lon="2.81199">
        <ele>1319.6</ele>
        <time>2021-07-22T11:00:27Z</time>
      </trkpt>
      <trkpt lat="45.616" lon="2.81201">
        <ele>1319.7</ele>
        <time>2021-07-22T11:00:41Z</time>
      </trkpt>
      <trkpt lat="45.61609" lon="2.81202">
        <ele>1320.3</ele>
        <time>2021-07-22T11:00:55Z</time>
      </trkpt>
      <trkpt lat="45.61621" lon="2.81209">
        <ele>1320.4</ele>
        <time>2021-07-22T11:01:11Z</time>
      </trkpt>
      <trkpt lat="45.61632" lon="2.81215">
        <ele>1320.7</ele>
        <time>2021-07-22T11:01:25Z</time>
      </trkpt>
      <trkpt lat="45.61649" lon="2.81226">
        <ele>1321.1</ele>
        <time>2021-07-22T11:01:41Z</time>
      </trkpt>
      <trkpt lat="45.6167" lon="2.81246">
        <ele>1321.4</ele>
        <time>2021-07-22T11:01:55Z</time>
      </trkpt>
      <trkpt lat="45.61698" lon="2.81262">
        <ele>1321.3</ele>
        <time>2021-07-22T11:02:11Z</time>
      </trkpt>
      <trkpt lat="45.61704" lon="2.81255">
        <ele>1322.3</ele>
        <time>2021-07-22T11:02:24Z</time>
      </trkpt>
      <trkpt lat="45.61709" lon="2.81233">
        <ele>1323.7</ele>
        <time>2021-07-22T11:02:40Z</time>
      </trkpt>
      <trkpt lat="45.61718" lon="2.81216">
        <ele>1324.7</ele>
        <time>2021-07-22T11:02:53Z</time>
      </trkpt>
      <trkpt lat="45.61728" lon="2.81203">
        <ele>1325.5</ele>
        <time>2021-07-22T11:03:07Z</time>
      </trkpt>
      <trkpt lat="45.61738" lon="2.81192">
        <ele>1326.1</ele>
        <time>2021-07-22T11:03:21Z</time>
      </trkpt>
      <trkpt lat="45.61748" lon="2.81177">
        <ele>1326.7</ele>
        <time>2021-07-22T11:03:35Z</time>
      </trkpt>
      <trkpt lat="45.61754" lon="2.81162">
        <ele>1327</ele>
        <time>2021-07-22T11:03:47Z</time>
      </trkpt>
      <trkpt lat="45.61765" lon="2.8115">
        <ele>1327.2</ele>
        <time>2021-07-22T11:04:00Z</time>
      </trkpt>
      <trkpt lat="45.61769" lon="2.81146">
        <ele>1327.2</ele>
        <time>2021-07-22T11:04:04Z</time>
      </trkpt>
      <trkpt lat="45.61785" lon="2.81135">
        <ele>1327.4</ele>
        <time>2021-07-22T11:04:20Z</time>
      </trkpt>
      <trkpt lat="45.61799" lon="2.81124">
        <ele>1327.7</ele>
        <time>2021-07-22T11:04:34Z</time>
      </trkpt>
      <trkpt lat="45.61811" lon="2.81115">
        <ele>1328.2</ele>
        <time>2021-07-22T11:04:45Z</time>
      </trkpt>
      <trkpt lat="45.61822" lon="2.81101">
        <ele>1328.9</ele>
        <time>2021-07-22T11:04:58Z</time>
      </trkpt>
      <trkpt lat="45.61833" lon="2.81085">
        <ele>1329.9</ele>
        <time>2021-07-22T11:05:11Z</time>
      </trkpt>
      <trkpt lat="45.6184" lon="2.81063">
        <ele>1330.7</ele>
        <time>2021-07-22T11:05:27Z</time>
      </trkpt>
      <trkpt lat="45.61842" lon="2.81037">
        <ele>1331.4</ele>
        <time>2021-07-22T11:05:45Z</time>
      </trkpt>
      <trkpt lat="45.61844" lon="2.81023">
        <ele>1331.8</ele>
        <time>2021-07-22T11:05:56Z</time>
      </trkpt>
      <trkpt lat="45.61846" lon="2.81001">
        <ele>1332.4</ele>
        <time>2021-07-22T11:06:14Z</time>
      </trkpt>
      <trkpt lat="45.61847" lon="2.80986">
        <ele>1333.3</ele>
        <time>2021-07-22T11:06:25Z</time>
      </trkpt>
      <trkpt lat="45.61848" lon="2.80978">
        <ele>1333.8</ele>
        <time>2021-07-22T11:06:30Z</time>
      </trkpt>
      <trkpt lat="45.61845" lon="2.80956">
        <ele>1335</ele>
        <time>2021-07-22T11:06:45Z</time>
      </trkpt>
      <trkpt lat="45.61842" lon="2.80939">
        <ele>1335.9</ele>
        <time>2021-07-22T11:06:57Z</time>
      </trkpt>
      <trkpt lat="45.61837" lon="2.80917">
        <ele>1337</ele>
        <time>2021-07-22T11:07:11Z</time>
      </trkpt>
      <trkpt lat="45.61832" lon="2.80895">
        <ele>1338.8</ele>
        <time>2021-07-22T11:07:26Z</time>
      </trkpt>
      <trkpt lat="45.61826" lon="2.80873">
        <ele>1340.7</ele>
        <time>2021-07-22T11:07:41Z</time>
      </trkpt>
      <trkpt lat="45.61822" lon="2.80861">
        <ele>1341.6</ele>
        <time>2021-07-22T11:07:54Z</time>
      </trkpt>
      <trkpt lat="45.61813" lon="2.8084">
        <ele>1343.2</ele>
        <time>2021-07-22T11:08:10Z</time>
      </trkpt>
      <trkpt lat="45.61804" lon="2.80824">
        <ele>1344.2</ele>
        <time>2021-07-22T11:08:23Z</time>
      </trkpt>
      <trkpt lat="45.61794" lon="2.80813">
        <ele>1344.7</ele>
        <time>2021-07-22T11:08:36Z</time>
      </trkpt>
      <trkpt lat="45.61782" lon="2.80796">
        <ele>1345.4</ele>
        <time>2021-07-22T11:08:53Z</time>
      </trkpt>
      <trkpt lat="45.61774" lon="2.80774">
        <ele>1346.3</ele>
        <time>2021-07-22T11:09:09Z</time>
      </trkpt>
      <trkpt lat="45.61771" lon="2.80764">
        <ele>1346.8</ele>
        <time>2021-07-22T11:09:21Z</time>
      </trkpt>
      <trkpt lat="45.61772" lon="2.80757">
        <ele>1347.2</ele>
        <time>2021-07-22T11:09:43Z</time>
      </trkpt>
      <trkpt lat="45.61772" lon="2.80754">
        <ele>1347.3</ele>
        <time>2021-07-22T11:09:45Z</time>
      </trkpt>
      <trkpt lat="45.61773" lon="2.80741">
        <ele>1347.5</ele>
        <time>2021-07-22T11:09:56Z</time>
      </trkpt>
      <trkpt lat="45.61773" lon="2.80729">
        <ele>1347.4</ele>
        <time>2021-07-22T11:10:08Z</time>
      </trkpt>
      <trkpt lat="45.61774" lon="2.80715">
        <ele>1347.4</ele>
        <time>2021-07-22T11:10:21Z</time>
      </trkpt>
      <trkpt lat="45.61776" lon="2.80687">
        <ele>1347.3</ele>
        <time>2021-07-22T11:10:38Z</time>
      </trkpt>
      <trkpt lat="45.61778" lon="2.80658">
        <ele>1347.5</ele>
        <time>2021-07-22T11:10:56Z</time>
      </trkpt>
      <trkpt lat="45.61779" lon="2.80635">
        <ele>1348</ele>
        <time>2021-07-22T11:11:10Z</time>
      </trkpt>
      <trkpt lat="45.6178" lon="2.80609">
        <ele>1348.6</ele>
        <time>2021-07-22T11:11:26Z</time>
      </trkpt>
      <trkpt lat="45.61781" lon="2.80587">
        <ele>1349</ele>
        <time>2021-07-22T11:11:40Z</time>
      </trkpt>
      <trkpt lat="45.61783" lon="2.80555">
        <ele>1349.4</ele>
        <time>2021-07-22T11:11:59Z</time>
      </trkpt>
      <trkpt lat="45.61786" lon="2.80528">
        <ele>1349.7</ele>
        <time>2021-07-22T11:12:16Z</time>
      </trkpt>
      <trkpt lat="45.61787" lon="2.80502">
        <ele>1349.9</ele>
        <time>2021-07-22T11:12:32Z</time>
      </trkpt>
      <trkpt lat="45.61788" lon="2.80475">
        <ele>1350.1</ele>
        <time>2021-07-22T11:12:48Z</time>
      </trkpt>
      <trkpt lat="45.61788" lon="2.80447">
        <ele>1350.3</ele>
        <time>2021-07-22T11:13:04Z</time>
      </trkpt>
      <trkpt lat="45.61788" lon="2.80419">
        <ele>1350.4</ele>
        <time>2021-07-22T11:13:20Z</time>
      </trkpt>
      <trkpt lat="45.61789" lon="2.80392">
        <ele>1350.5</ele>
        <time>2021-07-22T11:13:36Z</time>
      </trkpt>
      <trkpt lat="45.6179" lon="2.80361">
        <ele>1350.5</ele>
        <time>2021-07-22T11:13:54Z</time>
      </trkpt>
      <trkpt lat="45.61789" lon="2.80333">
        <ele>1350.5</ele>
        <time>2021-07-22T11:14:10Z</time>
      </trkpt>
      <trkpt lat="45.61789" lon="2.80305">
        <ele>1350.8</ele>
        <time>2021-07-22T11:14:27Z</time>
      </trkpt>
      <trkpt lat="45.61789" lon="2.80284">
        <ele>1351.1</ele>
        <time>2021-07-22T11:14:41Z</time>
      </trkpt>
      <trkpt lat="45.61788" lon="2.80266">
        <ele>1351.3</ele>
        <time>2021-07-22T11:14:52Z</time>
      </trkpt>
      <trkpt lat="45.61788" lon="2.8024">
        <ele>1351.7</ele>
        <time>2021-07-22T11:15:08Z</time>
      </trkpt>
      <trkpt lat="45.61788" lon="2.80218">
        <ele>1352.3</ele>
        <time>2021-07-22T11:15:22Z</time>
      </trkpt>
      <trkpt lat="45.61786" lon="2.80182">
        <ele>1353.2</ele>
        <time>2021-07-22T11:15:43Z</time>
      </trkpt>
      <trkpt lat="45.61784" lon="2.80155">
        <ele>1353.8</ele>
        <time>2021-07-22T11:15:59Z</time>
      </trkpt>
      <trkpt lat="45.61782" lon="2.80136">
        <ele>1354.2</ele>
        <time>2021-07-22T11:16:10Z</time>
      </trkpt>
      <trkpt lat="45.61782" lon="2.80126">
        <ele>1354.4</ele>
        <time>2021-07-22T11:16:16Z</time>
      </trkpt>
      <trkpt lat="45.6178" lon="2.80094">
        <ele>1355.1</ele>
        <time>2021-07-22T11:16:36Z</time>
      </trkpt>
      <trkpt lat="45.61779" lon="2.80074">
        <ele>1355.4</ele>
        <time>2021-07-22T11:16:49Z</time>
      </trkpt>
      <trkpt lat="45.61777" lon="2.80052">
        <ele>1355.7</ele>
        <time>2021-07-22T11:17:04Z</time>
      </trkpt>
      <trkpt lat="45.61775" lon="2.80039">
        <ele>1355.9</ele>
        <time>2021-07-22T11:17:15Z</time>
      </trkpt>
      <trkpt lat="45.61775" lon="2.80016">
        <ele>1356.2</ele>
        <time>2021-07-22T11:17:29Z</time>
      </trkpt>
      <trkpt lat="45.61773" lon="2.79988">
        <ele>1356.5</ele>
        <time>2021-07-22T11:17:46Z</time>
      </trkpt>
      <trkpt lat="45.6177" lon="2.79961">
        <ele>1356.6</ele>
        <time>2021-07-22T11:18:03Z</time>
      </trkpt>
      <trkpt lat="45.61768" lon="2.79925">
        <ele>1356.8</ele>
        <time>2021-07-22T11:18:25Z</time>
      </trkpt>
      <trkpt lat="45.61766" lon="2.79896">
        <ele>1357.5</ele>
        <time>2021-07-22T11:18:43Z</time>
      </trkpt>
      <trkpt lat="45.61764" lon="2.79863">
        <ele>1358.7</ele>
        <time>2021-07-22T11:19:03Z</time>
      </trkpt>
      <trkpt lat="45.61763" lon="2.79836">
        <ele>1359.6</ele>
        <time>2021-07-22T11:19:19Z</time>
      </trkpt>
      <trkpt lat="45.61761" lon="2.79803">
        <ele>1360</ele>
        <time>2021-07-22T11:19:39Z</time>
      </trkpt>
      <trkpt lat="45.61758" lon="2.79772">
        <ele>1360.2</ele>
        <time>2021-07-22T11:19:59Z</time>
      </trkpt>
      <trkpt lat="45.61757" lon="2.79739">
        <ele>1360.6</ele>
        <time>2021-07-22T11:20:20Z</time>
      </trkpt>
      <trkpt lat="45.61754" lon="2.79703">
        <ele>1361.8</ele>
        <time>2021-07-22T11:20:43Z</time>
      </trkpt>
      <trkpt lat="45.61752" lon="2.79674">
        <ele>1362.8</ele>
        <time>2021-07-22T11:21:02Z</time>
      </trkpt>
      <trkpt lat="45.61751" lon="2.79646">
        <ele>1364.1</ele>
        <time>2021-07-22T11:21:19Z</time>
      </trkpt>
      <trkpt lat="45.61749" lon="2.79617">
        <ele>1365.3</ele>
        <time>2021-07-22T11:21:37Z</time>
      </trkpt>
      <trkpt lat="45.61747" lon="2.7959">
        <ele>1366.5</ele>
        <time>2021-07-22T11:21:54Z</time>
      </trkpt>
      <trkpt lat="45.61745" lon="2.79555">
        <ele>1367.7</ele>
        <time>2021-07-22T11:22:16Z</time>
      </trkpt>
      <trkpt lat="45.61743" lon="2.79523">
        <ele>1368.6</ele>
        <time>2021-07-22T11:22:37Z</time>
      </trkpt>
      <trkpt lat="45.61742" lon="2.79488">
        <ele>1369.5</ele>
        <time>2021-07-22T11:22:59Z</time>
      </trkpt>
      <trkpt lat="45.61742" lon="2.79461">
        <ele>1369.9</ele>
        <time>2021-07-22T11:23:17Z</time>
      </trkpt>
      <trkpt lat="45.61743" lon="2.79424">
        <ele>1370.5</ele>
        <time>2021-07-22T11:23:41Z</time>
      </trkpt>
      <trkpt lat="45.61744" lon="2.79393">
        <ele>1372</ele>
        <time>2021-07-22T11:24:01Z</time>
      </trkpt>
      <trkpt lat="45.61744" lon="2.79371">
        <ele>1373.3</ele>
        <time>2021-07-22T11:24:15Z</time>
      </trkpt>
      <trkpt lat="45.61745" lon="2.79344">
        <ele>1375</ele>
        <time>2021-07-22T11:24:33Z</time>
      </trkpt>
      <trkpt lat="45.61746" lon="2.79307">
        <ele>1377.5</ele>
        <time>2021-07-22T11:24:56Z</time>
      </trkpt>
      <trkpt lat="45.61746" lon="2.7928">
        <ele>1379.5</ele>
        <time>2021-07-22T11:25:14Z</time>
      </trkpt>
      <trkpt lat="45.61745" lon="2.79255">
        <ele>1381.1</ele>
        <time>2021-07-22T11:25:30Z</time>
      </trkpt>
      <trkpt lat="45.61738" lon="2.79226">
        <ele>1382.5</ele>
        <time>2021-07-22T11:25:50Z</time>
      </trkpt>
      <trkpt lat="45.61731" lon="2.79198">
        <ele>1383.8</ele>
        <time>2021-07-22T11:26:09Z</time>
      </trkpt>
      <trkpt lat="45.61723" lon="2.79176">
        <ele>1384.7</ele>
        <time>2021-07-22T11:26:25Z</time>
      </trkpt>
      <trkpt lat="45.61717" lon="2.7915">
        <ele>1385.9</ele>
        <time>2021-07-22T11:26:43Z</time>
      </trkpt>
      <trkpt lat="45.61709" lon="2.7912">
        <ele>1387.2</ele>
        <time>2021-07-22T11:27:03Z</time>
      </trkpt>
      <trkpt lat="45.61705" lon="2.79105">
        <ele>1387.8</ele>
        <time>2021-07-22T11:27:19Z</time>
      </trkpt>
      <trkpt lat="45.61703" lon="2.79095">
        <ele>1388.3</ele>
        <time>2021-07-22T11:27:31Z</time>
      </trkpt>
      <trkpt lat="45.61703" lon="2.79094">
        <ele>1388.3</ele>
        <time>2021-07-22T11:27:46Z</time>
      </trkpt>
      <trkpt lat="45.61701" lon="2.79083">
        <ele>1388.9</ele>
        <time>2021-07-22T11:27:59Z</time>
      </trkpt>
      <trkpt lat="45.61698" lon="2.79059">
        <ele>1389.9</ele>
        <time>2021-07-22T11:28:16Z</time>
      </trkpt>
      <trkpt lat="45.61696" lon="2.79048">
        <ele>1390.3</ele>
        <time>2021-07-22T11:28:29Z</time>
      </trkpt>
      <trkpt lat="45.61696" lon="2.79044">
        <ele>1390.5</ele>
        <time>2021-07-22T11:28:42Z</time>
      </trkpt>
      <trkpt lat="45.61695" lon="2.79039">
        <ele>1390.7</ele>
        <time>2021-07-22T11:28:52Z</time>
      </trkpt>
      <trkpt lat="45.61694" lon="2.79037">
        <ele>1390.7</ele>
        <time>2021-07-22T11:29:04Z</time>
      </trkpt>
      <trkpt lat="45.61693" lon="2.79015">
        <ele>1391.8</ele>
        <time>2021-07-22T11:29:21Z</time>
      </trkpt>
      <trkpt lat="45.61693" lon="2.78992">
        <ele>1393</ele>
        <time>2021-07-22T11:29:38Z</time>
      </trkpt>
      <trkpt lat="45.6169" lon="2.78975">
        <ele>1393.8</ele>
        <time>2021-07-22T11:29:51Z</time>
      </trkpt>
      <trkpt lat="45.61683" lon="2.78956">
        <ele>1394.3</ele>
        <time>2021-07-22T11:30:09Z</time>
      </trkpt>
      <trkpt lat="45.61685" lon="2.78957">
        <ele>1394.4</ele>
        <time>2021-07-22T11:30:20Z</time>
      </trkpt>
      <trkpt lat="45.61682" lon="2.78946">
        <ele>1394.8</ele>
        <time>2021-07-22T11:30:38Z</time>
      </trkpt>
      <trkpt lat="45.61671" lon="2.78925">
        <ele>1394.9</ele>
        <time>2021-07-22T11:30:55Z</time>
      </trkpt>
      <trkpt lat="45.61657" lon="2.78905">
        <ele>1395.4</ele>
        <time>2021-07-22T11:31:13Z</time>
      </trkpt>
      <trkpt lat="45.61657" lon="2.78905">
        <ele>1395.4</ele>
        <time>2021-07-22T11:31:17Z</time>
      </trkpt>
      <trkpt lat="45.61642" lon="2.78886">
        <ele>1396</ele>
        <time>2021-07-22T11:31:35Z</time>
      </trkpt>
      <trkpt lat="45.61629" lon="2.78869">
        <ele>1396.3</ele>
        <time>2021-07-22T11:31:51Z</time>
      </trkpt>
      <trkpt lat="45.61618" lon="2.78852">
        <ele>1396.5</ele>
        <time>2021-07-22T11:32:05Z</time>
      </trkpt>
      <trkpt lat="45.61608" lon="2.78833">
        <ele>1396.8</ele>
        <time>2021-07-22T11:32:20Z</time>
      </trkpt>
      <trkpt lat="45.61595" lon="2.78809">
        <ele>1397.4</ele>
        <time>2021-07-22T11:32:38Z</time>
      </trkpt>
      <trkpt lat="45.61583" lon="2.78794">
        <ele>1397.3</ele>
        <time>2021-07-22T11:32:54Z</time>
      </trkpt>
      <trkpt lat="45.61578" lon="2.78772">
        <ele>1398.3</ele>
        <time>2021-07-22T11:33:10Z</time>
      </trkpt>
      <trkpt lat="45.61573" lon="2.7875">
        <ele>1399.4</ele>
        <time>2021-07-22T11:33:27Z</time>
      </trkpt>
      <trkpt lat="45.61568" lon="2.7873">
        <ele>1401.2</ele>
        <time>2021-07-22T11:33:42Z</time>
      </trkpt>
      <trkpt lat="45.61562" lon="2.78702">
        <ele>1403.7</ele>
        <time>2021-07-22T11:34:01Z</time>
      </trkpt>
      <trkpt lat="45.61556" lon="2.78683">
        <ele>1405.3</ele>
        <time>2021-07-22T11:34:17Z</time>
      </trkpt>
      <trkpt lat="45.61551" lon="2.78667">
        <ele>1406.6</ele>
        <time>2021-07-22T11:34:30Z</time>
      </trkpt>
      <trkpt lat="45.61541" lon="2.78648">
        <ele>1408.5</ele>
        <time>2021-07-22T11:34:46Z</time>
      </trkpt>
      <trkpt lat="45.61527" lon="2.78629">
        <ele>1409.9</ele>
        <time>2021-07-22T11:35:05Z</time>
      </trkpt>
      <trkpt lat="45.61508" lon="2.78616">
        <ele>1409.9</ele>
        <time>2021-07-22T11:35:25Z</time>
      </trkpt>
      <trkpt lat="45.6149" lon="2.78604">
        <ele>1410.1</ele>
        <time>2021-07-22T11:35:44Z</time>
      </trkpt>
      <trkpt lat="45.61474" lon="2.78595">
        <ele>1410.5</ele>
        <time>2021-07-22T11:36:00Z</time>
      </trkpt>
      <trkpt lat="45.61458" lon="2.78584">
        <ele>1411.4</ele>
        <time>2021-07-22T11:36:17Z</time>
      </trkpt>
      <trkpt lat="45.61441" lon="2.78577">
        <ele>1411.9</ele>
        <time>2021-07-22T11:36:34Z</time>
      </trkpt>
      <trkpt lat="45.61426" lon="2.78573">
        <ele>1411.9</ele>
        <time>2021-07-22T11:36:49Z</time>
      </trkpt>
      <trkpt lat="45.61407" lon="2.78564">
        <ele>1412.5</ele>
        <time>2021-07-22T11:37:09Z</time>
      </trkpt>
      <trkpt lat="45.61393" lon="2.78554">
        <ele>1413.3</ele>
        <time>2021-07-22T11:37:24Z</time>
      </trkpt>
      <trkpt lat="45.61375" lon="2.78538">
        <ele>1414.4</ele>
        <time>2021-07-22T11:37:43Z</time>
      </trkpt>
      <trkpt lat="45.61358" lon="2.78523">
        <ele>1415.2</ele>
        <time>2021-07-22T11:38:01Z</time>
      </trkpt>
      <trkpt lat="45.6134" lon="2.78507">
        <ele>1415.8</ele>
        <time>2021-07-22T11:38:20Z</time>
      </trkpt>
      <trkpt lat="45.61323" lon="2.78494">
        <ele>1415.8</ele>
        <time>2021-07-22T11:38:38Z</time>
      </trkpt>
      <trkpt lat="45.61309" lon="2.78475">
        <ele>1416.5</ele>
        <time>2021-07-22T11:38:55Z</time>
      </trkpt>
      <trkpt lat="45.61296" lon="2.78456">
        <ele>1417.4</ele>
        <time>2021-07-22T11:39:12Z</time>
      </trkpt>
      <trkpt lat="45.61284" lon="2.78438">
        <ele>1418</ele>
        <time>2021-07-22T11:39:28Z</time>
      </trkpt>
      <trkpt lat="45.61269" lon="2.78415">
        <ele>1418.8</ele>
        <time>2021-07-22T11:39:48Z</time>
      </trkpt>
      <trkpt lat="45.61257" lon="2.78395">
        <ele>1420.1</ele>
        <time>2021-07-22T11:40:05Z</time>
      </trkpt>
      <trkpt lat="45.61248" lon="2.7838">
        <ele>1421</ele>
        <time>2021-07-22T11:40:19Z</time>
      </trkpt>
      <trkpt lat="45.61239" lon="2.78367">
        <ele>1421.5</ele>
        <time>2021-07-22T11:40:33Z</time>
      </trkpt>
      <trkpt lat="45.61238" lon="2.78366">
        <ele>1421.6</ele>
        <time>2021-07-22T11:40:34Z</time>
      </trkpt>
      <trkpt lat="45.61231" lon="2.78349">
        <ele>1422.8</ele>
        <time>2021-07-22T11:40:49Z</time>
      </trkpt>
      <trkpt lat="45.61227" lon="2.78338">
        <ele>1423.7</ele>
        <time>2021-07-22T11:41:01Z</time>
      </trkpt>
      <trkpt lat="45.61224" lon="2.78325">
        <ele>1424.9</ele>
        <time>2021-07-22T11:41:14Z</time>
      </trkpt>
      <trkpt lat="45.6122" lon="2.78312">
        <ele>1425.9</ele>
        <time>2021-07-22T11:41:27Z</time>
      </trkpt>
      <trkpt lat="45.61214" lon="2.78296">
        <ele>1427.1</ele>
        <time>2021-07-22T11:41:41Z</time>
      </trkpt>
      <trkpt lat="45.61209" lon="2.78282">
        <ele>1428.1</ele>
        <time>2021-07-22T11:41:55Z</time>
      </trkpt>
      <trkpt lat="45.61205" lon="2.7827">
        <ele>1428.6</ele>
        <time>2021-07-22T11:42:07Z</time>
      </trkpt>
      <trkpt lat="45.61199" lon="2.78251">
        <ele>1429.9</ele>
        <time>2021-07-22T11:42:23Z</time>
      </trkpt>
      <trkpt lat="45.61193" lon="2.78234">
        <ele>1430.7</ele>
        <time>2021-07-22T11:42:38Z</time>
      </trkpt>
      <trkpt lat="45.61188" lon="2.78217">
        <ele>1431.6</ele>
        <time>2021-07-22T11:42:53Z</time>
      </trkpt>
      <trkpt lat="45.61184" lon="2.78201">
        <ele>1432.6</ele>
        <time>2021-07-22T11:43:06Z</time>
      </trkpt>
      <trkpt lat="45.61179" lon="2.78183">
        <ele>1433.7</ele>
        <time>2021-07-22T11:43:21Z</time>
      </trkpt>
      <trkpt lat="45.61174" lon="2.78166">
        <ele>1434.7</ele>
        <time>2021-07-22T11:43:35Z</time>
      </trkpt>
      <trkpt lat="45.61173" lon="2.78159">
        <ele>1434.7</ele>
        <time>2021-07-22T11:43:49Z</time>
      </trkpt>
      <trkpt lat="45.6117" lon="2.7815">
        <ele>1434.6</ele>
        <time>2021-07-22T11:44:01Z</time>
      </trkpt>
      <trkpt lat="45.6117" lon="2.78149">
        <ele>1434.6</ele>
        <time>2021-07-22T11:44:03Z</time>
      </trkpt>
      <trkpt lat="45.61163" lon="2.78127">
        <ele>1434.3</ele>
        <time>2021-07-22T11:44:19Z</time>
      </trkpt>
      <trkpt lat="45.61158" lon="2.781">
        <ele>1434.7</ele>
        <time>2021-07-22T11:44:37Z</time>
      </trkpt>
      <trkpt lat="45.61158" lon="2.78075">
        <ele>1435.5</ele>
        <time>2021-07-22T11:44:54Z</time>
      </trkpt>
      <trkpt lat="45.61164" lon="2.7805">
        <ele>1436.5</ele>
        <time>2021-07-22T11:45:12Z</time>
      </trkpt>
      <trkpt lat="45.6117" lon="2.78031">
        <ele>1437.7</ele>
        <time>2021-07-22T11:45:26Z</time>
      </trkpt>
      <trkpt lat="45.61174" lon="2.7801">
        <ele>1438.7</ele>
        <time>2021-07-22T11:45:41Z</time>
      </trkpt>
      <trkpt lat="45.6118" lon="2.77987">
        <ele>1439.4</ele>
        <time>2021-07-22T11:45:58Z</time>
      </trkpt>
      <trkpt lat="45.61187" lon="2.77961">
        <ele>1440.2</ele>
        <time>2021-07-22T11:46:17Z</time>
      </trkpt>
      <trkpt lat="45.61192" lon="2.77949">
        <ele>1440.9</ele>
        <time>2021-07-22T11:46:26Z</time>
      </trkpt>
      <trkpt lat="45.61196" lon="2.77938">
        <ele>1441.3</ele>
        <time>2021-07-22T11:46:35Z</time>
      </trkpt>
      <trkpt lat="45.61205" lon="2.77918">
        <ele>1442.7</ele>
        <time>2021-07-22T11:46:51Z</time>
      </trkpt>
      <trkpt lat="45.6121" lon="2.77909">
        <ele>1443.1</ele>
        <time>2021-07-22T11:47:05Z</time>
      </trkpt>
      <trkpt lat="45.61219" lon="2.77888">
        <ele>1443.3</ele>
        <time>2021-07-22T11:47:22Z</time>
      </trkpt>
      <trkpt lat="45.61227" lon="2.77864">
        <ele>1443.2</ele>
        <time>2021-07-22T11:47:40Z</time>
      </trkpt>
      <trkpt lat="45.61237" lon="2.7784">
        <ele>1443.4</ele>
        <time>2021-07-22T11:47:58Z</time>
      </trkpt>
      <trkpt lat="45.61246" lon="2.7782">
        <ele>1444.3</ele>
        <time>2021-07-22T11:48:14Z</time>
      </trkpt>
      <trkpt lat="45.61255" lon="2.778">
        <ele>1444.8</ele>
        <time>2021-07-22T11:48:29Z</time>
      </trkpt>
      <trkpt lat="45.61264" lon="2.77776">
        <ele>1444.4</ele>
        <time>2021-07-22T11:48:47Z</time>
      </trkpt>
      <trkpt lat="45.61273" lon="2.77753">
        <ele>1444.1</ele>
        <time>2021-07-22T11:49:03Z</time>
      </trkpt>
      <trkpt lat="45.61283" lon="2.77734">
        <ele>1444.3</ele>
        <time>2021-07-22T11:49:19Z</time>
      </trkpt>
      <trkpt lat="45.61298" lon="2.77719">
        <ele>1445.1</ele>
        <time>2021-07-22T11:49:37Z</time>
      </trkpt>
      <trkpt lat="45.61303" lon="2.7772">
        <ele>1445.5</ele>
        <time>2021-07-22T11:49:50Z</time>
      </trkpt>
      <trkpt lat="45.61305" lon="2.77719">
        <ele>1445.7</ele>
        <time>2021-07-22T11:50:00Z</time>
      </trkpt>
      <trkpt lat="45.61306" lon="2.77711">
        <ele>1445.4</ele>
        <time>2021-07-22T11:50:12Z</time>
      </trkpt>
      <trkpt lat="45.61306" lon="2.7771">
        <ele>1445.5</ele>
        <time>2021-07-22T11:50:28Z</time>
      </trkpt>
      <trkpt lat="45.61304" lon="2.77703">
        <ele>1445</ele>
        <time>2021-07-22T11:50:39Z</time>
      </trkpt>
      <trkpt lat="45.61302" lon="2.77698">
        <ele>1444.7</ele>
        <time>2021-07-22T11:50:51Z</time>
      </trkpt>
      <trkpt lat="45.61299" lon="2.7769">
        <ele>1444.3</ele>
        <time>2021-07-22T11:51:00Z</time>
      </trkpt>
      <trkpt lat="45.61297" lon="2.77688">
        <ele>1444</ele>
        <time>2021-07-22T11:51:03Z</time>
      </trkpt>
      <trkpt lat="45.6129" lon="2.77676">
        <ele>1443.2</ele>
        <time>2021-07-22T11:51:17Z</time>
      </trkpt>
      <trkpt lat="45.61287" lon="2.77663">
        <ele>1442.7</ele>
        <time>2021-07-22T11:51:30Z</time>
      </trkpt>
      <trkpt lat="45.61281" lon="2.77649">
        <ele>1442.5</ele>
        <time>2021-07-22T11:51:46Z</time>
      </trkpt>
      <trkpt lat="45.61279" lon="2.77638">
        <ele>1442.6</ele>
        <time>2021-07-22T11:52:00Z</time>
      </trkpt>
      <trkpt lat="45.61279" lon="2.77635">
        <ele>1442.7</ele>
        <time>2021-07-22T11:52:08Z</time>
      </trkpt>
      <trkpt lat="45.61276" lon="2.77621">
        <ele>1442.9</ele>
        <time>2021-07-22T11:52:20Z</time>
      </trkpt>
      <trkpt lat="45.61275" lon="2.77619">
        <ele>1442.9</ele>
        <time>2021-07-22T11:52:22Z</time>
      </trkpt>
      <trkpt lat="45.61267" lon="2.77603">
        <ele>1443.5</ele>
        <time>2021-07-22T11:52:35Z</time>
      </trkpt>
      <trkpt lat="45.61259" lon="2.77581">
        <ele>1444.7</ele>
        <time>2021-07-22T11:52:51Z</time>
      </trkpt>
      <trkpt lat="45.61254" lon="2.77564">
        <ele>1445.9</ele>
        <time>2021-07-22T11:53:03Z</time>
      </trkpt>
      <trkpt lat="45.61248" lon="2.77541">
        <ele>1446.9</ele>
        <time>2021-07-22T11:53:19Z</time>
      </trkpt>
      <trkpt lat="45.61245" lon="2.77519">
        <ele>1447.5</ele>
        <time>2021-07-22T11:53:36Z</time>
      </trkpt>
      <trkpt lat="45.61242" lon="2.77499">
        <ele>1447.9</ele>
        <time>2021-07-22T11:53:52Z</time>
      </trkpt>
      <trkpt lat="45.61242" lon="2.77495">
        <ele>1447.8</ele>
        <time>2021-07-22T11:53:55Z</time>
      </trkpt>
      <trkpt lat="45.61237" lon="2.77474">
        <ele>1447.4</ele>
        <time>2021-07-22T11:54:13Z</time>
      </trkpt>
      <trkpt lat="45.61232" lon="2.77452">
        <ele>1447.2</ele>
        <time>2021-07-22T11:54:31Z</time>
      </trkpt>
      <trkpt lat="45.61228" lon="2.77434">
        <ele>1447.4</ele>
        <time>2021-07-22T11:54:47Z</time>
      </trkpt>
      <trkpt lat="45.61225" lon="2.77415">
        <ele>1448.2</ele>
        <time>2021-07-22T11:55:04Z</time>
      </trkpt>
      <trkpt lat="45.61221" lon="2.77395">
        <ele>1450.4</ele>
        <time>2021-07-22T11:55:21Z</time>
      </trkpt>
      <trkpt lat="45.61217" lon="2.77374">
        <ele>1453</ele>
        <time>2021-07-22T11:55:40Z</time>
      </trkpt>
      <trkpt lat="45.61215" lon="2.77357">
        <ele>1455.5</ele>
        <time>2021-07-22T11:55:57Z</time>
      </trkpt>
      <trkpt lat="45.61216" lon="2.77339">
        <ele>1458.1</ele>
        <time>2021-07-22T11:56:15Z</time>
      </trkpt>
      <trkpt lat="45.6121" lon="2.77324">
        <ele>1459.4</ele>
        <time>2021-07-22T11:56:33Z</time>
      </trkpt>
      <trkpt lat="45.61205" lon="2.7731">
        <ele>1459.9</ele>
        <time>2021-07-22T11:56:49Z</time>
      </trkpt>
      <trkpt lat="45.61202" lon="2.77296">
        <ele>1460.2</ele>
        <time>2021-07-22T11:57:03Z</time>
      </trkpt>
      <trkpt lat="45.61198" lon="2.7728">
        <ele>1460.6</ele>
        <time>2021-07-22T11:57:18Z</time>
      </trkpt>
      <trkpt lat="45.61197" lon="2.77269">
        <ele>1460.8</ele>
        <time>2021-07-22T11:57:31Z</time>
      </trkpt>
      <trkpt lat="45.61195" lon="2.77258">
        <ele>1461</ele>
        <time>2021-07-22T11:57:43Z</time>
      </trkpt>
      <trkpt lat="45.6119" lon="2.77246">
        <ele>1461.3</ele>
        <time>2021-07-22T11:57:58Z</time>
      </trkpt>
      <trkpt lat="45.6119" lon="2.7723">
        <ele>1460.8</ele>
        <time>2021-07-22T11:58:11Z</time>
      </trkpt>
      <trkpt lat="45.61188" lon="2.77217">
        <ele>1460.5</ele>
        <time>2021-07-22T11:58:23Z</time>
      </trkpt>
      <trkpt lat="45.61186" lon="2.77202">
        <ele>1460.4</ele>
        <time>2021-07-22T11:58:36Z</time>
      </trkpt>
      <trkpt lat="45.61182" lon="2.77189">
        <ele>1460.3</ele>
        <time>2021-07-22T11:58:47Z</time>
      </trkpt>
      <trkpt lat="45.61175" lon="2.7717">
        <ele>1460.4</ele>
        <time>2021-07-22T11:59:02Z</time>
      </trkpt>
      <trkpt lat="45.61168" lon="2.77157">
        <ele>1460</ele>
        <time>2021-07-22T11:59:16Z</time>
      </trkpt>
      <trkpt lat="45.61165" lon="2.77155">
        <ele>1459.7</ele>
        <time>2021-07-22T11:59:21Z</time>
      </trkpt>
      <trkpt lat="45.61158" lon="2.77145">
        <ele>1457.2</ele>
        <time>2021-07-22T11:59:33Z</time>
      </trkpt>
      <trkpt lat="45.6115" lon="2.77142">
        <ele>1455.3</ele>
        <time>2021-07-22T11:59:47Z</time>
      </trkpt>
      <trkpt lat="45.61147" lon="2.77143">
        <ele>1454.9</ele>
        <time>2021-07-22T11:59:58Z</time>
      </trkpt>
      <trkpt lat="45.61152" lon="2.77147">
        <ele>1456.2</ele>
        <time>2021-07-22T12:00:17Z</time>
      </trkpt>
      <trkpt lat="45.61153" lon="2.77151">
        <ele>1456.9</ele>
        <time>2021-07-22T12:00:29Z</time>
      </trkpt>
      <trkpt lat="45.61157" lon="2.77159">
        <ele>1458.6</ele>
        <time>2021-07-22T12:00:42Z</time>
      </trkpt>
      <trkpt lat="45.6116" lon="2.77168">
        <ele>1460</ele>
        <time>2021-07-22T12:00:56Z</time>
      </trkpt>
      <trkpt lat="45.61162" lon="2.7718">
        <ele>1460.7</ele>
        <time>2021-07-22T12:01:11Z</time>
      </trkpt>
      <trkpt lat="45.61162" lon="2.77197">
        <ele>1461.2</ele>
        <time>2021-07-22T12:01:27Z</time>
      </trkpt>
      <trkpt lat="45.61164" lon="2.77212">
        <ele>1461.8</ele>
        <time>2021-07-22T12:01:43Z</time>
      </trkpt>
      <trkpt lat="45.61159" lon="2.77207">
        <ele>1461.2</ele>
        <time>2021-07-22T12:01:54Z</time>
      </trkpt>
      <trkpt lat="45.61152" lon="2.77199">
        <ele>1460.1</ele>
        <time>2021-07-22T12:02:10Z</time>
      </trkpt>
      <trkpt lat="45.6114" lon="2.77189">
        <ele>1458.1</ele>
        <time>2021-07-22T12:02:28Z</time>
      </trkpt>
      <trkpt lat="45.61132" lon="2.77183">
        <ele>1456.5</ele>
        <time>2021-07-22T12:02:42Z</time>
      </trkpt>
      <trkpt lat="45.61122" lon="2.77193">
        <ele>1456.2</ele>
        <time>2021-07-22T12:02:57Z</time>
      </trkpt>
      <trkpt lat="45.61119" lon="2.77205">
        <ele>1457.1</ele>
        <time>2021-07-22T12:03:09Z</time>
      </trkpt>
      <trkpt lat="45.61121" lon="2.77221">
        <ele>1459</ele>
        <time>2021-07-22T12:03:23Z</time>
      </trkpt>
      <trkpt lat="45.61124" lon="2.7724">
        <ele>1460.9</ele>
        <time>2021-07-22T12:03:39Z</time>
      </trkpt>
      <trkpt lat="45.61124" lon="2.77252">
        <ele>1461.8</ele>
        <time>2021-07-22T12:03:54Z</time>
      </trkpt>
      <trkpt lat="45.61125" lon="2.77251">
        <ele>1461.9</ele>
        <time>2021-07-22T12:04:04Z</time>
      </trkpt>
      <trkpt lat="45.61125" lon="2.77252">
        <ele>1461.8</ele>
        <time>2021-07-22T12:04:44Z</time>
      </trkpt>
      <trkpt lat="45.61125" lon="2.77252">
        <ele>1461.8</ele>
        <time>2021-07-22T12:05:45Z</time>
      </trkpt>
      <trkpt lat="45.61125" lon="2.77252">
        <ele>1461.8</ele>
        <time>2021-07-22T12:06:40Z</time>
      </trkpt>
      <trkpt lat="45.61125" lon="2.77252">
        <ele>1461.9</ele>
        <time>2021-07-22T12:07:29Z</time>
      </trkpt>
      <trkpt lat="45.61125" lon="2.77252">
        <ele>1461.8</ele>
        <time>2021-07-22T12:08:20Z</time>
      </trkpt>
      <trkpt lat="45.61124" lon="2.77251">
        <ele>1461.8</ele>
        <time>2021-07-22T12:09:08Z</time>
      </trkpt>
      <trkpt lat="45.61124" lon="2.77252">
        <ele>1461.8</ele>
        <time>2021-07-22T12:09:57Z</time>
      </trkpt>
      <trkpt lat="45.61125" lon="2.77252">
        <ele>1461.8</ele>
        <time>2021-07-22T12:10:52Z</time>
      </trkpt>
      <trkpt lat="45.61125" lon="2.77251">
        <ele>1461.9</ele>
        <time>2021-07-22T12:11:47Z</time>
      </trkpt>
      <trkpt lat="45.61125" lon="2.77252">
        <ele>1461.8</ele>
        <time>2021-07-22T12:12:52Z</time>
      </trkpt>
      <trkpt lat="45.61125" lon="2.77251">
        <ele>1461.9</ele>
        <time>2021-07-22T12:13:38Z</time>
      </trkpt>
      <trkpt lat="45.61125" lon="2.77251">
        <ele>1461.9</ele>
        <time>2021-07-22T12:14:27Z</time>
      </trkpt>
      <trkpt lat="45.61125" lon="2.7725">
        <ele>1462</ele>
        <time>2021-07-22T12:15:14Z</time>
      </trkpt>
      <trkpt lat="45.61125" lon="2.7725">
        <ele>1462</ele>
        <time>2021-07-22T12:15:15Z</time>
      </trkpt>
      <trkpt lat="45.61124" lon="2.77226">
        <ele>1459.6</ele>
        <time>2021-07-22T12:15:29Z</time>
      </trkpt>
      <trkpt lat="45.61121" lon="2.77204">
        <ele>1457.2</ele>
        <time>2021-07-22T12:15:45Z</time>
      </trkpt>
      <trkpt lat="45.61125" lon="2.77189">
        <ele>1456.1</ele>
        <time>2021-07-22T12:15:58Z</time>
      </trkpt>
      <trkpt lat="45.61136" lon="2.77184">
        <ele>1457.2</ele>
        <time>2021-07-22T12:16:14Z</time>
      </trkpt>
      <trkpt lat="45.61139" lon="2.77186">
        <ele>1457.8</ele>
        <time>2021-07-22T12:16:18Z</time>
      </trkpt>
      <trkpt lat="45.61153" lon="2.77198">
        <ele>1460.3</ele>
        <time>2021-07-22T12:16:35Z</time>
      </trkpt>
      <trkpt lat="45.61162" lon="2.77211">
        <ele>1461.6</ele>
        <time>2021-07-22T12:16:49Z</time>
      </trkpt>
      <trkpt lat="45.61165" lon="2.77207">
        <ele>1461.8</ele>
        <time>2021-07-22T12:17:00Z</time>
      </trkpt>
      <trkpt lat="45.61164" lon="2.77187">
        <ele>1461.1</ele>
        <time>2021-07-22T12:17:16Z</time>
      </trkpt>
      <trkpt lat="45.61161" lon="2.77168">
        <ele>1460.1</ele>
        <time>2021-07-22T12:17:32Z</time>
      </trkpt>
      <trkpt lat="45.61158" lon="2.77156">
        <ele>1458.4</ele>
        <time>2021-07-22T12:17:43Z</time>
      </trkpt>
      <trkpt lat="45.61146" lon="2.77138">
        <ele>1454</ele>
        <time>2021-07-22T12:18:02Z</time>
      </trkpt>
      <trkpt lat="45.61137" lon="2.77126">
        <ele>1450.6</ele>
        <time>2021-07-22T12:18:17Z</time>
      </trkpt>
      <trkpt lat="45.61137" lon="2.77118">
        <ele>1449.5</ele>
        <time>2021-07-22T12:18:29Z</time>
      </trkpt>
      <trkpt lat="45.61139" lon="2.77118">
        <ele>1450</ele>
        <time>2021-07-22T12:18:34Z</time>
      </trkpt>
      <trkpt lat="45.61139" lon="2.7711">
        <ele>1448.9</ele>
        <time>2021-07-22T12:18:44Z</time>
      </trkpt>
      <trkpt lat="45.61136" lon="2.77108">
        <ele>1447.8</ele>
        <time>2021-07-22T12:18:50Z</time>
      </trkpt>
      <trkpt lat="45.61136" lon="2.77105">
        <ele>1447.6</ele>
        <time>2021-07-22T12:19:05Z</time>
      </trkpt>
      <trkpt lat="45.61137" lon="2.77101">
        <ele>1447.1</ele>
        <time>2021-07-22T12:19:10Z</time>
      </trkpt>
      <trkpt lat="45.61144" lon="2.77088">
        <ele>1447.4</ele>
        <time>2021-07-22T12:19:24Z</time>
      </trkpt>
      <trkpt lat="45.61145" lon="2.77078">
        <ele>1446.1</ele>
        <time>2021-07-22T12:19:36Z</time>
      </trkpt>
      <trkpt lat="45.61149" lon="2.77067">
        <ele>1445.2</ele>
        <time>2021-07-22T12:19:49Z</time>
      </trkpt>
      <trkpt lat="45.61154" lon="2.77049">
        <ele>1443.5</ele>
        <time>2021-07-22T12:20:05Z</time>
      </trkpt>
      <trkpt lat="45.61158" lon="2.77035">
        <ele>1442.2</ele>
        <time>2021-07-22T12:20:20Z</time>
      </trkpt>
      <trkpt lat="45.61159" lon="2.77023">
        <ele>1440.5</ele>
        <time>2021-07-22T12:20:33Z</time>
      </trkpt>
      <trkpt lat="45.6116" lon="2.7701">
        <ele>1438.7</ele>
        <time>2021-07-22T12:20:46Z</time>
      </trkpt>
      <trkpt lat="45.61164" lon="2.76995">
        <ele>1437.3</ele>
        <time>2021-07-22T12:21:00Z</time>
      </trkpt>
      <trkpt lat="45.61168" lon="2.76982">
        <ele>1436.4</ele>
        <time>2021-07-22T12:21:13Z</time>
      </trkpt>
      <trkpt lat="45.61175" lon="2.76969">
        <ele>1434.4</ele>
        <time>2021-07-22T12:21:24Z</time>
      </trkpt>
      <trkpt lat="45.61177" lon="2.76962">
        <ele>1433.4</ele>
        <time>2021-07-22T12:21:34Z</time>
      </trkpt>
      <trkpt lat="45.61178" lon="2.76952">
        <ele>1431.9</ele>
        <time>2021-07-22T12:21:48Z</time>
      </trkpt>
      <trkpt lat="45.61178" lon="2.76951">
        <ele>1431.9</ele>
        <time>2021-07-22T12:22:02Z</time>
      </trkpt>
      <trkpt lat="45.61179" lon="2.76949">
        <ele>1431.6</ele>
        <time>2021-07-22T12:22:16Z</time>
      </trkpt>
      <trkpt lat="45.61179" lon="2.76946">
        <ele>1431.1</ele>
        <time>2021-07-22T12:22:29Z</time>
      </trkpt>
      <trkpt lat="45.61182" lon="2.76933">
        <ele>1429.4</ele>
        <time>2021-07-22T12:22:42Z</time>
      </trkpt>
      <trkpt lat="45.61183" lon="2.76924">
        <ele>1428.2</ele>
        <time>2021-07-22T12:22:52Z</time>
      </trkpt>
      <trkpt lat="45.61185" lon="2.76906">
        <ele>1425.4</ele>
        <time>2021-07-22T12:23:07Z</time>
      </trkpt>
      <trkpt lat="45.61186" lon="2.769">
        <ele>1424.4</ele>
        <time>2021-07-22T12:23:13Z</time>
      </trkpt>
      <trkpt lat="45.61186" lon="2.76897">
        <ele>1424</ele>
        <time>2021-07-22T12:23:15Z</time>
      </trkpt>
      <trkpt lat="45.61189" lon="2.7688">
        <ele>1421.2</ele>
        <time>2021-07-22T12:23:28Z</time>
      </trkpt>
      <trkpt lat="45.61192" lon="2.76862">
        <ele>1418.3</ele>
        <time>2021-07-22T12:23:42Z</time>
      </trkpt>
      <trkpt lat="45.61193" lon="2.76841">
        <ele>1415.1</ele>
        <time>2021-07-22T12:23:58Z</time>
      </trkpt>
      <trkpt lat="45.61193" lon="2.7684">
        <ele>1415</ele>
        <time>2021-07-22T12:23:59Z</time>
      </trkpt>
      <trkpt lat="45.61194" lon="2.76837">
        <ele>1414.5</ele>
        <time>2021-07-22T12:24:02Z</time>
      </trkpt>
      <trkpt lat="45.61196" lon="2.76815">
        <ele>1411.6</ele>
        <time>2021-07-22T12:24:18Z</time>
      </trkpt>
      <trkpt lat="45.61197" lon="2.76794">
        <ele>1408.8</ele>
        <time>2021-07-22T12:24:35Z</time>
      </trkpt>
      <trkpt lat="45.61197" lon="2.76778">
        <ele>1406.5</ele>
        <time>2021-07-22T12:24:48Z</time>
      </trkpt>
      <trkpt lat="45.61198" lon="2.7676">
        <ele>1404.1</ele>
        <time>2021-07-22T12:25:02Z</time>
      </trkpt>
      <trkpt lat="45.61197" lon="2.76751">
        <ele>1402.6</ele>
        <time>2021-07-22T12:25:13Z</time>
      </trkpt>
      <trkpt lat="45.61196" lon="2.76735">
        <ele>1401.1</ele>
        <time>2021-07-22T12:25:26Z</time>
      </trkpt>
      <trkpt lat="45.61194" lon="2.76728">
        <ele>1400.2</ele>
        <time>2021-07-22T12:25:35Z</time>
      </trkpt>
      <trkpt lat="45.61189" lon="2.7671">
        <ele>1398.3</ele>
        <time>2021-07-22T12:25:49Z</time>
      </trkpt>
      <trkpt lat="45.61189" lon="2.76707">
        <ele>1398</ele>
        <time>2021-07-22T12:25:51Z</time>
      </trkpt>
      <trkpt lat="45.61186" lon="2.76688">
        <ele>1396.1</ele>
        <time>2021-07-22T12:26:05Z</time>
      </trkpt>
      <trkpt lat="45.6118" lon="2.76667">
        <ele>1393.8</ele>
        <time>2021-07-22T12:26:20Z</time>
      </trkpt>
      <trkpt lat="45.61173" lon="2.76645">
        <ele>1392.3</ele>
        <time>2021-07-22T12:26:36Z</time>
      </trkpt>
      <trkpt lat="45.61168" lon="2.76624">
        <ele>1391</ele>
        <time>2021-07-22T12:26:52Z</time>
      </trkpt>
      <trkpt lat="45.61168" lon="2.76619">
        <ele>1390.8</ele>
        <time>2021-07-22T12:27:10Z</time>
      </trkpt>
      <trkpt lat="45.61167" lon="2.76602">
        <ele>1389.9</ele>
        <time>2021-07-22T12:27:23Z</time>
      </trkpt>
      <trkpt lat="45.61167" lon="2.76597">
        <ele>1389.7</ele>
        <time>2021-07-22T12:27:33Z</time>
      </trkpt>
      <trkpt lat="45.61166" lon="2.76591">
        <ele>1389.3</ele>
        <time>2021-07-22T12:27:44Z</time>
      </trkpt>
      <trkpt lat="45.61164" lon="2.76583">
        <ele>1388.1</ele>
        <time>2021-07-22T12:27:49Z</time>
      </trkpt>
      <trkpt lat="45.61161" lon="2.76575">
        <ele>1386.5</ele>
        <time>2021-07-22T12:27:55Z</time>
      </trkpt>
      <trkpt lat="45.61153" lon="2.7655">
        <ele>1382.7</ele>
        <time>2021-07-22T12:28:11Z</time>
      </trkpt>
      <trkpt lat="45.61141" lon="2.76537">
        <ele>1379.3</ele>
        <time>2021-07-22T12:28:24Z</time>
      </trkpt>
      <trkpt lat="45.61129" lon="2.76513">
        <ele>1376.3</ele>
        <time>2021-07-22T12:28:41Z</time>
      </trkpt>
      <trkpt lat="45.61116" lon="2.76488">
        <ele>1374</ele>
        <time>2021-07-22T12:28:59Z</time>
      </trkpt>
      <trkpt lat="45.6111" lon="2.76465">
        <ele>1373.2</ele>
        <time>2021-07-22T12:29:14Z</time>
      </trkpt>
      <trkpt lat="45.61108" lon="2.76458">
        <ele>1373.1</ele>
        <time>2021-07-22T12:29:29Z</time>
      </trkpt>
      <trkpt lat="45.61108" lon="2.76456">
        <ele>1373.1</ele>
        <time>2021-07-22T12:29:55Z</time>
      </trkpt>
      <trkpt lat="45.61107" lon="2.76453">
        <ele>1373.1</ele>
        <time>2021-07-22T12:30:11Z</time>
      </trkpt>
      <trkpt lat="45.61107" lon="2.76453">
        <ele>1373</ele>
        <time>2021-07-22T12:30:32Z</time>
      </trkpt>
      <trkpt lat="45.61107" lon="2.76454">
        <ele>1373</ele>
        <time>2021-07-22T12:31:02Z</time>
      </trkpt>
      <trkpt lat="45.61107" lon="2.76453">
        <ele>1373.1</ele>
        <time>2021-07-22T12:31:24Z</time>
      </trkpt>
      <trkpt lat="45.61108" lon="2.76454">
        <ele>1373.1</ele>
        <time>2021-07-22T12:32:00Z</time>
      </trkpt>
      <trkpt lat="45.61107" lon="2.76454">
        <ele>1373.1</ele>
        <time>2021-07-22T12:32:09Z</time>
      </trkpt>
      <trkpt lat="45.61096" lon="2.76433">
        <ele>1372.7</ele>
        <time>2021-07-22T12:32:26Z</time>
      </trkpt>
      <trkpt lat="45.61084" lon="2.76419">
        <ele>1372.9</ele>
        <time>2021-07-22T12:32:42Z</time>
      </trkpt>
      <trkpt lat="45.61081" lon="2.76418">
        <ele>1372.3</ele>
        <time>2021-07-22T12:32:45Z</time>
      </trkpt>
      <trkpt lat="45.61068" lon="2.76402">
        <ele>1369.5</ele>
        <time>2021-07-22T12:33:01Z</time>
      </trkpt>
      <trkpt lat="45.61059" lon="2.76382">
        <ele>1368.5</ele>
        <time>2021-07-22T12:33:16Z</time>
      </trkpt>
      <trkpt lat="45.61046" lon="2.76361">
        <ele>1367.5</ele>
        <time>2021-07-22T12:33:33Z</time>
      </trkpt>
      <trkpt lat="45.61032" lon="2.76343">
        <ele>1367.4</ele>
        <time>2021-07-22T12:33:50Z</time>
      </trkpt>
      <trkpt lat="45.61016" lon="2.76321">
        <ele>1366.8</ele>
        <time>2021-07-22T12:34:09Z</time>
      </trkpt>
      <trkpt lat="45.61004" lon="2.76304">
        <ele>1366.1</ele>
        <time>2021-07-22T12:34:24Z</time>
      </trkpt>
      <trkpt lat="45.60998" lon="2.76294">
        <ele>1365.8</ele>
        <time>2021-07-22T12:34:32Z</time>
      </trkpt>
      <trkpt lat="45.60994" lon="2.76289">
        <ele>1365.3</ele>
        <time>2021-07-22T12:34:37Z</time>
      </trkpt>
      <trkpt lat="45.60981" lon="2.76269">
        <ele>1364.5</ele>
        <time>2021-07-22T12:34:54Z</time>
      </trkpt>
      <trkpt lat="45.6097" lon="2.76252">
        <ele>1364.8</ele>
        <time>2021-07-22T12:35:08Z</time>
      </trkpt>
      <trkpt lat="45.60956" lon="2.7623">
        <ele>1362.9</ele>
        <time>2021-07-22T12:35:26Z</time>
      </trkpt>
      <trkpt lat="45.60946" lon="2.7621">
        <ele>1361.3</ele>
        <time>2021-07-22T12:35:40Z</time>
      </trkpt>
      <trkpt lat="45.60937" lon="2.76187">
        <ele>1359.8</ele>
        <time>2021-07-22T12:35:56Z</time>
      </trkpt>
      <trkpt lat="45.60928" lon="2.76165">
        <ele>1358.6</ele>
        <time>2021-07-22T12:36:12Z</time>
      </trkpt>
      <trkpt lat="45.60919" lon="2.76146">
        <ele>1357.4</ele>
        <time>2021-07-22T12:36:26Z</time>
      </trkpt>
      <trkpt lat="45.60911" lon="2.76124">
        <ele>1355.3</ele>
        <time>2021-07-22T12:36:42Z</time>
      </trkpt>
      <trkpt lat="45.6091" lon="2.76123">
        <ele>1355.1</ele>
        <time>2021-07-22T12:36:43Z</time>
      </trkpt>
      <trkpt lat="45.60905" lon="2.76114">
        <ele>1354.1</ele>
        <time>2021-07-22T12:36:56Z</time>
      </trkpt>
      <trkpt lat="45.60902" lon="2.76108">
        <ele>1353.4</ele>
        <time>2021-07-22T12:37:31Z</time>
      </trkpt>
      <trkpt lat="45.60893" lon="2.76086">
        <ele>1351.4</ele>
        <time>2021-07-22T12:37:48Z</time>
      </trkpt>
      <trkpt lat="45.60884" lon="2.76062">
        <ele>1349.3</ele>
        <time>2021-07-22T12:38:05Z</time>
      </trkpt>
      <trkpt lat="45.60876" lon="2.7604">
        <ele>1347.4</ele>
        <time>2021-07-22T12:38:19Z</time>
      </trkpt>
      <trkpt lat="45.60866" lon="2.76019">
        <ele>1345.7</ele>
        <time>2021-07-22T12:38:36Z</time>
      </trkpt>
      <trkpt lat="45.60858" lon="2.75996">
        <ele>1343.7</ele>
        <time>2021-07-22T12:38:51Z</time>
      </trkpt>
      <trkpt lat="45.60855" lon="2.75983">
        <ele>1341.9</ele>
        <time>2021-07-22T12:38:59Z</time>
      </trkpt>
      <trkpt lat="45.60851" lon="2.75967">
        <ele>1339.7</ele>
        <time>2021-07-22T12:39:10Z</time>
      </trkpt>
      <trkpt lat="45.60849" lon="2.75961">
        <ele>1338.9</ele>
        <time>2021-07-22T12:39:14Z</time>
      </trkpt>
      <trkpt lat="45.6084" lon="2.75931">
        <ele>1334.9</ele>
        <time>2021-07-22T12:39:34Z</time>
      </trkpt>
      <trkpt lat="45.60832" lon="2.75906">
        <ele>1331.9</ele>
        <time>2021-07-22T12:39:52Z</time>
      </trkpt>
      <trkpt lat="45.60826" lon="2.75886">
        <ele>1329.4</ele>
        <time>2021-07-22T12:40:06Z</time>
      </trkpt>
      <trkpt lat="45.60818" lon="2.7586">
        <ele>1326.4</ele>
        <time>2021-07-22T12:40:24Z</time>
      </trkpt>
      <trkpt lat="45.60813" lon="2.75842">
        <ele>1324.6</ele>
        <time>2021-07-22T12:40:38Z</time>
      </trkpt>
      <trkpt lat="45.60805" lon="2.75831">
        <ele>1323.2</ele>
        <time>2021-07-22T12:40:48Z</time>
      </trkpt>
      <trkpt lat="45.60805" lon="2.75827">
        <ele>1322.8</ele>
        <time>2021-07-22T12:40:51Z</time>
      </trkpt>
      <trkpt lat="45.60806" lon="2.7582">
        <ele>1322.3</ele>
        <time>2021-07-22T12:40:56Z</time>
      </trkpt>
      <trkpt lat="45.60796" lon="2.75798">
        <ele>1319.8</ele>
        <time>2021-07-22T12:41:14Z</time>
      </trkpt>
      <trkpt lat="45.60795" lon="2.75797">
        <ele>1319.6</ele>
        <time>2021-07-22T12:41:16Z</time>
      </trkpt>
      <trkpt lat="45.60792" lon="2.75793">
        <ele>1319.1</ele>
        <time>2021-07-22T12:41:20Z</time>
      </trkpt>
      <trkpt lat="45.60771" lon="2.75788">
        <ele>1317.3</ele>
        <time>2021-07-22T12:41:40Z</time>
      </trkpt>
      <trkpt lat="45.60756" lon="2.75789">
        <ele>1316.3</ele>
        <time>2021-07-22T12:41:55Z</time>
      </trkpt>
      <trkpt lat="45.60753" lon="2.75787">
        <ele>1316</ele>
        <time>2021-07-22T12:41:58Z</time>
      </trkpt>
      <trkpt lat="45.60741" lon="2.75773">
        <ele>1312.2</ele>
        <time>2021-07-22T12:42:13Z</time>
      </trkpt>
      <trkpt lat="45.6074" lon="2.75757">
        <ele>1311</ele>
        <time>2021-07-22T12:42:24Z</time>
      </trkpt>
      <trkpt lat="45.6074" lon="2.75753">
        <ele>1311</ele>
        <time>2021-07-22T12:42:26Z</time>
      </trkpt>
      <trkpt lat="45.60739" lon="2.75748">
        <ele>1310.5</ele>
        <time>2021-07-22T12:42:33Z</time>
      </trkpt>
      <trkpt lat="45.60741" lon="2.7574">
        <ele>1310.5</ele>
        <time>2021-07-22T12:42:38Z</time>
      </trkpt>
      <trkpt lat="45.60749" lon="2.75708">
        <ele>1311.2</ele>
        <time>2021-07-22T12:42:58Z</time>
      </trkpt>
      <trkpt lat="45.60749" lon="2.75684">
        <ele>1309.9</ele>
        <time>2021-07-22T12:43:14Z</time>
      </trkpt>
      <trkpt lat="45.60748" lon="2.75676">
        <ele>1309</ele>
        <time>2021-07-22T12:43:25Z</time>
      </trkpt>
      <trkpt lat="45.60747" lon="2.75677">
        <ele>1308.9</ele>
        <time>2021-07-22T12:43:44Z</time>
      </trkpt>
      <trkpt lat="45.60747" lon="2.75672">
        <ele>1308.5</ele>
        <time>2021-07-22T12:44:08Z</time>
      </trkpt>
      <trkpt lat="45.60747" lon="2.75668">
        <ele>1308.2</ele>
        <time>2021-07-22T12:44:22Z</time>
      </trkpt>
      <trkpt lat="45.60746" lon="2.75663">
        <ele>1307.4</ele>
        <time>2021-07-22T12:44:33Z</time>
      </trkpt>
      <trkpt lat="45.60743" lon="2.75641">
        <ele>1303.9</ele>
        <time>2021-07-22T12:44:48Z</time>
      </trkpt>
      <trkpt lat="45.60742" lon="2.7564">
        <ele>1303.6</ele>
        <time>2021-07-22T12:44:49Z</time>
      </trkpt>
      <trkpt lat="45.6074" lon="2.75623">
        <ele>1301</ele>
        <time>2021-07-22T12:45:04Z</time>
      </trkpt>
      <trkpt lat="45.60738" lon="2.75607">
        <ele>1298.7</ele>
        <time>2021-07-22T12:45:18Z</time>
      </trkpt>
      <trkpt lat="45.60735" lon="2.75586">
        <ele>1295.7</ele>
        <time>2021-07-22T12:45:33Z</time>
      </trkpt>
      <trkpt lat="45.60732" lon="2.75565">
        <ele>1293.2</ele>
        <time>2021-07-22T12:45:48Z</time>
      </trkpt>
      <trkpt lat="45.6073" lon="2.75543">
        <ele>1290.6</ele>
        <time>2021-07-22T12:46:04Z</time>
      </trkpt>
      <trkpt lat="45.60727" lon="2.7552">
        <ele>1287.9</ele>
        <time>2021-07-22T12:46:20Z</time>
      </trkpt>
      <trkpt lat="45.60722" lon="2.75494">
        <ele>1284.8</ele>
        <time>2021-07-22T12:46:38Z</time>
      </trkpt>
      <trkpt lat="45.60717" lon="2.75475">
        <ele>1282</ele>
        <time>2021-07-22T12:46:51Z</time>
      </trkpt>
      <trkpt lat="45.60709" lon="2.75449">
        <ele>1278.1</ele>
        <time>2021-07-22T12:47:09Z</time>
      </trkpt>
      <trkpt lat="45.60704" lon="2.75429">
        <ele>1275.3</ele>
        <time>2021-07-22T12:47:24Z</time>
      </trkpt>
      <trkpt lat="45.60699" lon="2.75413">
        <ele>1273.1</ele>
        <time>2021-07-22T12:47:36Z</time>
      </trkpt>
      <trkpt lat="45.60694" lon="2.75396">
        <ele>1271.1</ele>
        <time>2021-07-22T12:47:50Z</time>
      </trkpt>
      <trkpt lat="45.6069" lon="2.75383">
        <ele>1269.6</ele>
        <time>2021-07-22T12:48:02Z</time>
      </trkpt>
      <trkpt lat="45.60688" lon="2.7537">
        <ele>1268.1</ele>
        <time>2021-07-22T12:48:15Z</time>
      </trkpt>
      <trkpt lat="45.60682" lon="2.75353">
        <ele>1266.2</ele>
        <time>2021-07-22T12:48:28Z</time>
      </trkpt>
      <trkpt lat="45.6068" lon="2.75347">
        <ele>1265.5</ele>
        <time>2021-07-22T12:48:39Z</time>
      </trkpt>
      <trkpt lat="45.60681" lon="2.75347">
        <ele>1265.6</ele>
        <time>2021-07-22T12:48:57Z</time>
      </trkpt>
      <trkpt lat="45.60682" lon="2.75345">
        <ele>1265.4</ele>
        <time>2021-07-22T12:49:21Z</time>
      </trkpt>
      <trkpt lat="45.60688" lon="2.75347">
        <ele>1265.6</ele>
        <time>2021-07-22T12:49:39Z</time>
      </trkpt>
      <trkpt lat="45.60691" lon="2.75351">
        <ele>1266.1</ele>
        <time>2021-07-22T12:49:53Z</time>
      </trkpt>
      <trkpt lat="45.60691" lon="2.75353">
        <ele>1266.3</ele>
        <time>2021-07-22T12:50:08Z</time>
      </trkpt>
      <trkpt lat="45.60691" lon="2.75348">
        <ele>1265.9</ele>
        <time>2021-07-22T12:50:18Z</time>
      </trkpt>
      <trkpt lat="45.60691" lon="2.75346">
        <ele>1265.6</ele>
        <time>2021-07-22T12:50:31Z</time>
      </trkpt>
      <trkpt lat="45.6069" lon="2.75345">
        <ele>1265.5</ele>
        <time>2021-07-22T12:50:51Z</time>
      </trkpt>
      <trkpt lat="45.6069" lon="2.75345">
        <ele>1265.5</ele>
        <time>2021-07-22T12:50:54Z</time>
      </trkpt>
      <trkpt lat="45.60694" lon="2.7535">
        <ele>1266.1</ele>
        <time>2021-07-22T12:51:08Z</time>
      </trkpt>
      <trkpt lat="45.60694" lon="2.75353">
        <ele>1266.4</ele>
        <time>2021-07-22T12:51:26Z</time>
      </trkpt>
      <trkpt lat="45.60695" lon="2.75354">
        <ele>1266.6</ele>
        <time>2021-07-22T12:51:49Z</time>
      </trkpt>
      <trkpt lat="45.60695" lon="2.75353">
        <ele>1266.5</ele>
        <time>2021-07-22T12:52:05Z</time>
      </trkpt>
      <trkpt lat="45.60695" lon="2.75352">
        <ele>1266.4</ele>
        <time>2021-07-22T12:52:15Z</time>
      </trkpt>
      <trkpt lat="45.60692" lon="2.7535">
        <ele>1266.1</ele>
        <time>2021-07-22T12:52:20Z</time>
      </trkpt>
      <trkpt lat="45.60687" lon="2.75348">
        <ele>1265.8</ele>
        <time>2021-07-22T12:52:26Z</time>
      </trkpt>
      <trkpt lat="45.60676" lon="2.7534">
        <ele>1264.8</ele>
        <time>2021-07-22T12:52:42Z</time>
      </trkpt>
      <trkpt lat="45.60673" lon="2.75334">
        <ele>1264.1</ele>
        <time>2021-07-22T12:52:48Z</time>
      </trkpt>
      <trkpt lat="45.60667" lon="2.75319">
        <ele>1262.6</ele>
        <time>2021-07-22T12:53:02Z</time>
      </trkpt>
      <trkpt lat="45.60661" lon="2.75309">
        <ele>1260.6</ele>
        <time>2021-07-22T12:53:16Z</time>
      </trkpt>
      <trkpt lat="45.60654" lon="2.75295">
        <ele>1258.3</ele>
        <time>2021-07-22T12:53:29Z</time>
      </trkpt>
      <trkpt lat="45.60653" lon="2.75292">
        <ele>1257.6</ele>
        <time>2021-07-22T12:53:32Z</time>
      </trkpt>
      <trkpt lat="45.60644" lon="2.75281">
        <ele>1254.9</ele>
        <time>2021-07-22T12:53:47Z</time>
      </trkpt>
      <trkpt lat="45.60638" lon="2.75277">
        <ele>1253.3</ele>
        <time>2021-07-22T12:53:57Z</time>
      </trkpt>
      <trkpt lat="45.60636" lon="2.75277">
        <ele>1253</ele>
        <time>2021-07-22T12:53:59Z</time>
      </trkpt>
      <trkpt lat="45.60634" lon="2.75276">
        <ele>1252.5</ele>
        <time>2021-07-22T12:54:02Z</time>
      </trkpt>
      <trkpt lat="45.60631" lon="2.75277">
        <ele>1251.9</ele>
        <time>2021-07-22T12:54:09Z</time>
      </trkpt>
      <trkpt lat="45.60617" lon="2.75273">
        <ele>1249</ele>
        <time>2021-07-22T12:54:25Z</time>
      </trkpt>
      <trkpt lat="45.60602" lon="2.7528">
        <ele>1247</ele>
        <time>2021-07-22T12:54:41Z</time>
      </trkpt>
      <trkpt lat="45.60594" lon="2.75286">
        <ele>1246.5</ele>
        <time>2021-07-22T12:54:57Z</time>
      </trkpt>
      <trkpt lat="45.60587" lon="2.75294">
        <ele>1246.6</ele>
        <time>2021-07-22T12:55:14Z</time>
      </trkpt>
      <trkpt lat="45.60579" lon="2.75302">
        <ele>1245.5</ele>
        <time>2021-07-22T12:55:28Z</time>
      </trkpt>
      <trkpt lat="45.6057" lon="2.75318">
        <ele>1244.6</ele>
        <time>2021-07-22T12:55:43Z</time>
      </trkpt>
      <trkpt lat="45.60559" lon="2.75334">
        <ele>1243</ele>
        <time>2021-07-22T12:55:54Z</time>
      </trkpt>
      <trkpt lat="45.60544" lon="2.75348">
        <ele>1238.7</ele>
        <time>2021-07-22T12:56:08Z</time>
      </trkpt>
      <trkpt lat="45.60531" lon="2.75355">
        <ele>1234.9</ele>
        <time>2021-07-22T12:56:24Z</time>
      </trkpt>
      <trkpt lat="45.60521" lon="2.75364">
        <ele>1232.7</ele>
        <time>2021-07-22T12:56:39Z</time>
      </trkpt>
      <trkpt lat="45.60511" lon="2.75373">
        <ele>1230.4</ele>
        <time>2021-07-22T12:56:53Z</time>
      </trkpt>
      <trkpt lat="45.60505" lon="2.75364">
        <ele>1227</ele>
        <time>2021-07-22T12:57:07Z</time>
      </trkpt>
      <trkpt lat="45.60503" lon="2.7535">
        <ele>1224.4</ele>
        <time>2021-07-22T12:57:18Z</time>
      </trkpt>
      <trkpt lat="45.60502" lon="2.75335">
        <ele>1222.2</ele>
        <time>2021-07-22T12:57:26Z</time>
      </trkpt>
      <trkpt lat="45.60501" lon="2.75319">
        <ele>1218.4</ele>
        <time>2021-07-22T12:57:40Z</time>
      </trkpt>
      <trkpt lat="45.605" lon="2.75295">
        <ele>1212.8</ele>
        <time>2021-07-22T12:57:55Z</time>
      </trkpt>
      <trkpt lat="45.60498" lon="2.75273">
        <ele>1207.3</ele>
        <time>2021-07-22T12:58:11Z</time>
      </trkpt>
      <trkpt lat="45.60497" lon="2.75251">
        <ele>1202.6</ele>
        <time>2021-07-22T12:58:26Z</time>
      </trkpt>
      <trkpt lat="45.60497" lon="2.75227">
        <ele>1199.8</ele>
        <time>2021-07-22T12:58:43Z</time>
      </trkpt>
      <trkpt lat="45.60496" lon="2.75208">
        <ele>1197.4</ele>
        <time>2021-07-22T12:58:57Z</time>
      </trkpt>
      <trkpt lat="45.60493" lon="2.75196">
        <ele>1195.6</ele>
        <time>2021-07-22T12:59:09Z</time>
      </trkpt>
      <trkpt lat="45.60492" lon="2.75183">
        <ele>1193.7</ele>
        <time>2021-07-22T12:59:22Z</time>
      </trkpt>
      <trkpt lat="45.6049" lon="2.75168">
        <ele>1191.5</ele>
        <time>2021-07-22T12:59:36Z</time>
      </trkpt>
      <trkpt lat="45.60485" lon="2.75152">
        <ele>1189.2</ele>
        <time>2021-07-22T12:59:52Z</time>
      </trkpt>
      <trkpt lat="45.60477" lon="2.75134">
        <ele>1186.4</ele>
        <time>2021-07-22T13:00:07Z</time>
      </trkpt>
      <trkpt lat="45.60472" lon="2.75122">
        <ele>1184.4</ele>
        <time>2021-07-22T13:00:21Z</time>
      </trkpt>
      <trkpt lat="45.60475" lon="2.75108">
        <ele>1184.2</ele>
        <time>2021-07-22T13:00:33Z</time>
      </trkpt>
      <trkpt lat="45.60475" lon="2.75107">
        <ele>1184.3</ele>
        <time>2021-07-22T13:00:35Z</time>
      </trkpt>
      <trkpt lat="45.60476" lon="2.75097">
        <ele>1183.9</ele>
        <time>2021-07-22T13:00:54Z</time>
      </trkpt>
      <trkpt lat="45.60474" lon="2.75097">
        <ele>1183.4</ele>
        <time>2021-07-22T13:01:08Z</time>
      </trkpt>
      <trkpt lat="45.60467" lon="2.75093">
        <ele>1181.7</ele>
        <time>2021-07-22T13:01:23Z</time>
      </trkpt>
      <trkpt lat="45.60462" lon="2.75087">
        <ele>1180.5</ele>
        <time>2021-07-22T13:01:34Z</time>
      </trkpt>
      <trkpt lat="45.60455" lon="2.75087">
        <ele>1178.9</ele>
        <time>2021-07-22T13:01:46Z</time>
      </trkpt>
      <trkpt lat="45.60446" lon="2.75087">
        <ele>1177.1</ele>
        <time>2021-07-22T13:02:00Z</time>
      </trkpt>
      <trkpt lat="45.60436" lon="2.75084">
        <ele>1174.9</ele>
        <time>2021-07-22T13:02:12Z</time>
      </trkpt>
      <trkpt lat="45.60424" lon="2.75078">
        <ele>1171.7</ele>
        <time>2021-07-22T13:02:23Z</time>
      </trkpt>
      <trkpt lat="45.60409" lon="2.75071">
        <ele>1168.3</ele>
        <time>2021-07-22T13:02:38Z</time>
      </trkpt>
      <trkpt lat="45.60404" lon="2.75068">
        <ele>1167.3</ele>
        <time>2021-07-22T13:02:43Z</time>
      </trkpt>
      <trkpt lat="45.6039" lon="2.75061">
        <ele>1164.6</ele>
        <time>2021-07-22T13:02:55Z</time>
      </trkpt>
      <trkpt lat="45.60379" lon="2.75048">
        <ele>1162</ele>
        <time>2021-07-22T13:03:05Z</time>
      </trkpt>
      <trkpt lat="45.60377" lon="2.75039">
        <ele>1160.6</ele>
        <time>2021-07-22T13:03:15Z</time>
      </trkpt>
      <trkpt lat="45.60365" lon="2.75029">
        <ele>1158.3</ele>
        <time>2021-07-22T13:03:30Z</time>
      </trkpt>
      <trkpt lat="45.60352" lon="2.75028">
        <ele>1157.1</ele>
        <time>2021-07-22T13:03:44Z</time>
      </trkpt>
      <trkpt lat="45.60345" lon="2.7503">
        <ele>1156.6</ele>
        <time>2021-07-22T13:03:48Z</time>
      </trkpt>
      <trkpt lat="45.60337" lon="2.75032">
        <ele>1156</ele>
        <time>2021-07-22T13:03:54Z</time>
      </trkpt>
      <trkpt lat="45.60319" lon="2.75038">
        <ele>1153.9</ele>
        <time>2021-07-22T13:04:08Z</time>
      </trkpt>
      <trkpt lat="45.60315" lon="2.75038">
        <ele>1153.3</ele>
        <time>2021-07-22T13:04:11Z</time>
      </trkpt>
      <trkpt lat="45.603" lon="2.75044">
        <ele>1151.3</ele>
        <time>2021-07-22T13:04:23Z</time>
      </trkpt>
      <trkpt lat="45.60284" lon="2.7505">
        <ele>1148.9</ele>
        <time>2021-07-22T13:04:37Z</time>
      </trkpt>
      <trkpt lat="45.60269" lon="2.75055">
        <ele>1146.3</ele>
        <time>2021-07-22T13:04:52Z</time>
      </trkpt>
      <trkpt lat="45.60257" lon="2.75061">
        <ele>1144.3</ele>
        <time>2021-07-22T13:05:06Z</time>
      </trkpt>
      <trkpt lat="45.60256" lon="2.75066">
        <ele>1144.1</ele>
        <time>2021-07-22T13:05:10Z</time>
      </trkpt>
      <trkpt lat="45.60255" lon="2.75086">
        <ele>1144.2</ele>
        <time>2021-07-22T13:05:23Z</time>
      </trkpt>
      <trkpt lat="45.6026" lon="2.75105">
        <ele>1145.7</ele>
        <time>2021-07-22T13:05:36Z</time>
      </trkpt>
      <trkpt lat="45.6026" lon="2.75107">
        <ele>1145.8</ele>
        <time>2021-07-22T13:05:37Z</time>
      </trkpt>
    </trkseg>
  </trk>
</gpx>